Darstellungsparameter: Aktuell verwendete Einstellungen:
Skalierung der Graphiken ... ?
xyx+y,   Skalierungsfaktor:      Skalierung: Modus: x, Faktor: 1
Darstellungszeitraum ... ?
Vom - - bis: - -   Zeitraum: 13.11.2019 - 11.12.2019
Min/Max/Avg-Anzeige ... ?
Zeige MMA aktuell
Zeige MMA Monat
Zeige MMA alles
Zeige --A aktuell
Zeige --A Monat
Zeige --A alles
Keine MMA-Anzeige
MMA:
Average (ber die Originaldaten)
MMA-Basis: 13.11.2019 - 11.12.2019
Quicknavigation für Darstellung... ?
Tage:      1T, 2T, 3T, 5T -1T -2T -3T -5T +1T +2T +3T +5T
Wochen: 1W, 2W, 3W -1W -2W -3W +1W +2W +3W
Monate: 1M, 3M, 6M -1M -3M -6M +1M +3M +6M
Jahre:    1J, 3J, 5J, 10J -1J -3J -5J -10J +1J +3J +5J +10J
Nutze für die Darstellung ... ?
Originaldaten oder Mittelwerte auf ...
Stundenbasis Tagesbasis Wochenbasis
Monatsbasis Jahresbasis      Datenbasis: Original-Daten
Darstellen als:
Statistik (Auto) Statistik J:M      Darstellung:
Zur Graphik,    zurück zur Übersicht aller Sensoren.
 
Tabellarische Datenbersicht: ?
 
Sensor: Nr:Datum:Temp:Feuchte:
Aussen-T/F 1 13-11-2019 00:09:17 4.4 C 21 %
2 13-11-2019 00:19:17 4.4 C 21 %
3 13-11-2019 00:29:17 4.3 C 23 %
4 13-11-2019 00:39:17 4.3 C 21 %
5 13-11-2019 00:49:17 4.3 C 21 %
6 13-11-2019 00:59:17 4.2 C 25 %
7 13-11-2019 01:09:17 4.1 C 25 %
8 13-11-2019 01:19:17 4 C 25 %
9 13-11-2019 01:29:17 3.7 C 25 %
10 13-11-2019 01:39:17 3.6 C 26 %
11 13-11-2019 01:49:17 2.8 C 29 %
12 13-11-2019 01:59:17 2.4 C 31 %
13 13-11-2019 02:09:17 2.3 C 32 %
14 13-11-2019 02:19:17 2.2 C 32 %
15 13-11-2019 02:29:17 2.1 C 31 %
16 13-11-2019 02:39:17 2.8 C 29 %
17 13-11-2019 02:49:17 3.1 C 28 %
18 13-11-2019 02:59:17 3.9 C 21 %
19 13-11-2019 03:09:17 3.9 C 20 %
20 13-11-2019 03:19:17 4 C 20 %
21 13-11-2019 03:29:17 3.8 C 21 %
22 13-11-2019 03:39:17 4 C 20 %
23 13-11-2019 03:49:17 3.9 C 23 %
24 13-11-2019 03:59:17 4 C 20 %
25 13-11-2019 04:09:17 4.1 C 20 %
Sensor: Nr:Datum:Temp:Feuchte:
Aussen-T/F 26 13-11-2019 04:19:17 3.9 C 21 %
27 13-11-2019 04:29:17 3.8 C 23 %
28 13-11-2019 04:39:17 4.2 C 20 %
29 13-11-2019 04:49:17 4 C 20 %
30 13-11-2019 04:59:17 3.9 C 21 %
31 13-11-2019 05:09:17 3.6 C 25 %
32 13-11-2019 05:19:17 3.8 C 25 %
33 13-11-2019 05:29:17 3.7 C 26 %
34 13-11-2019 05:39:17 3.8 C 26 %
35 13-11-2019 05:49:17 3.8 C 26 %
36 13-11-2019 05:59:17 3.8 C 26 %
37 13-11-2019 06:09:17 3.8 C 26 %
38 13-11-2019 06:19:17 3.9 C 25 %
39 13-11-2019 06:29:17 3.9 C 25 %
40 13-11-2019 06:39:17 3.9 C 25 %
41 13-11-2019 06:49:17 3.2 C 25 %
42 13-11-2019 06:59:17 3.1 C 30 %
43 13-11-2019 07:09:17 3.3 C 30 %
44 13-11-2019 07:19:17 3.3 C 30 %
45 13-11-2019 07:29:17 3.7 C 27 %
46 13-11-2019 07:39:17 3.7 C 27 %
47 13-11-2019 07:49:17 3.8 C 26 %
48 13-11-2019 07:59:17 3.9 C 26 %
49 13-11-2019 08:09:17 4 C 25 %
50 13-11-2019 08:19:17 4.2 C 25 %
Sensor: Nr:Datum:Temp:Feuchte:
Aussen-T/F 51 13-11-2019 08:29:17 4.3 C 21 %
52 13-11-2019 08:39:17 4.5 C 20 %
53 13-11-2019 08:49:17 4.5 C 21 %
54 13-11-2019 08:59:17 4.5 C 21 %
55 13-11-2019 09:09:17 4.7 C 21 %
56 13-11-2019 09:19:17 5.1 C 20 %
57 13-11-2019 09:29:17 5.5 C 20 %
58 13-11-2019 09:39:17 5.6 C 20 %
59 13-11-2019 09:49:17 5.6 C 20 %
60 13-11-2019 09:59:17 5.5 C 20 %
61 13-11-2019 10:09:17 5.6 C 20 %
62 13-11-2019 10:19:17 5.7 C 20 %
63 13-11-2019 10:29:17 5.8 C 20 %
64 13-11-2019 10:39:17 5.9 C 20 %
65 13-11-2019 10:49:17 5.7 C 20 %
66 13-11-2019 10:59:17 5.7 C 20 %
67 13-11-2019 11:09:17 5.6 C 20 %
68 13-11-2019 11:19:17 5.8 C 20 %
69 13-11-2019 11:29:17 6 C 20 %
70 13-11-2019 11:39:17 6.1 C 20 %
71 13-11-2019 11:49:17 6.1 C 20 %
72 13-11-2019 11:59:17 6.6 C 20 %
73 13-11-2019 12:09:17 6.5 C 20 %
74 13-11-2019 12:19:17 6.6 C 20 %
75 13-11-2019 12:29:17 6.8 C 20 %
Sensor: Nr:Datum:Temp:Feuchte:
Aussen-T/F 76 13-11-2019 12:39:17 6.7 C 20 %
77 13-11-2019 12:49:17 6.4 C 20 %
78 13-11-2019 12:59:17 6.7 C 20 %
79 13-11-2019 13:09:17 6.8 C 20 %
80 13-11-2019 13:19:17 6.7 C 20 %
81 13-11-2019 13:29:17 6.4 C 20 %
82 13-11-2019 13:39:17 6.5 C 20 %
83 13-11-2019 13:49:17 6.4 C 20 %
84 13-11-2019 13:59:17 6.3 C 20 %
85 13-11-2019 14:09:17 6.3 C 20 %
86 13-11-2019 14:19:17 6.3 C 20 %
87 13-11-2019 14:29:17 6.2 C 20 %
88 13-11-2019 14:39:17 6.2 C 20 %
89 13-11-2019 14:49:17 6.2 C 20 %
90 13-11-2019 14:59:17 6.3 C 20 %
91 13-11-2019 15:09:17 6.3 C 20 %
92 13-11-2019 15:19:17 6.3 C 20 %
93 13-11-2019 15:29:17 6.2 C 20 %
94 13-11-2019 15:39:17 6.2 C 20 %
95 13-11-2019 15:49:17 6.2 C 20 %
96 13-11-2019 15:59:17 6.2 C 20 %
97 13-11-2019 16:09:17 6.2 C 20 %
98 13-11-2019 16:19:17 6.2 C 20 %
99 13-11-2019 16:29:17 6.1 C 20 %
100 13-11-2019 16:39:17 6 C 20 %
Sensor: Nr:Datum:Temp:Feuchte:
Aussen-T/F 101 13-11-2019 16:49:17 6 C 20 %
102 13-11-2019 16:59:17 6 C 20 %
103 13-11-2019 17:09:17 6 C 20 %
104 13-11-2019 17:19:17 6 C 20 %
105 13-11-2019 17:29:17 5.9 C 20 %
106 13-11-2019 17:39:17 6 C 20 %
107 13-11-2019 17:49:17 5.9 C 20 %
108 13-11-2019 17:59:17 5.9 C 20 %
109 13-11-2019 18:09:17 5.8 C 20 %
110 13-11-2019 18:19:17 5.8 C 20 %
111 13-11-2019 18:29:17 5.9 C 20 %
112 13-11-2019 18:39:17 5.8 C 20 %
113 13-11-2019 18:49:17 5.7 C 20 %
114 13-11-2019 18:59:17 5.6 C 21 %
115 13-11-2019 19:09:18 5.6 C 21 %
116 13-11-2019 19:19:17 5.6 C 23 %
117 13-11-2019 19:29:17 5.6 C 20 %
118 13-11-2019 19:39:17 5.6 C 21 %
119 13-11-2019 19:49:17 5.8 C 20 %
120 13-11-2019 19:59:17 5.8 C 20 %
121 13-11-2019 20:09:17 5.8 C 20 %
122 13-11-2019 20:19:17 5.9 C 20 %
123 13-11-2019 20:29:17 5.8 C 20 %
124 13-11-2019 20:39:17 5.8 C 20 %
125 13-11-2019 20:49:17 5.8 C 20 %
Sensor: Nr:Datum:Temp:Feuchte:
Aussen-T/F 126 13-11-2019 20:59:17 5.6 C 20 %
127 13-11-2019 21:09:17 5.5 C 23 %
128 13-11-2019 21:19:17 5.4 C 25 %
129 13-11-2019 21:29:17 4.8 C 27 %
130 13-11-2019 21:39:17 4.8 C 27 %
131 13-11-2019 21:49:17 4.7 C 28 %
132 13-11-2019 21:59:17 4.7 C 29 %
133 13-11-2019 22:09:17 4.2 C 28 %
134 13-11-2019 22:19:17 3.8 C 32 %
135 13-11-2019 22:29:17 3.8 C 33 %
136 13-11-2019 22:39:17 3.8 C 33 %
137 13-11-2019 22:49:17 4.1 C 32 %
138 13-11-2019 22:59:17 4 C 31 %
139 13-11-2019 23:09:17 4.1 C 29 %
140 13-11-2019 23:19:17 3.4 C 33 %
141 13-11-2019 23:29:17 3.6 C 33 %
142 13-11-2019 23:39:17 3.6 C 33 %
143 13-11-2019 23:49:17 3.9 C 33 %
144 13-11-2019 23:59:17 4.2 C 30 %
145 14-11-2019 00:09:17 4.4 C 30 %
146 14-11-2019 00:19:17 4.5 C 31 %
147 14-11-2019 00:29:17 4.7 C 30 %
148 14-11-2019 00:39:17 4.6 C 30 %
149 14-11-2019 00:49:17 4.7 C 31 %
150 14-11-2019 00:59:17 4.4 C 30 %
Sensor: Nr:Datum:Temp:Feuchte:
Aussen-T/F 151 14-11-2019 01:09:17 3.7 C 31 %
152 14-11-2019 01:19:17 3.8 C 37 %
153 14-11-2019 01:29:17 3.7 C 37 %
154 14-11-2019 01:39:17 3.8 C 39 %
155 14-11-2019 01:49:17 3.8 C 38 %
156 14-11-2019 01:59:17 3.9 C 39 %
157 14-11-2019 02:09:17 4 C 37 %
158 14-11-2019 02:19:17 4 C 35 %
159 14-11-2019 02:29:17 4.1 C 36 %
160 14-11-2019 02:39:17 4.4 C 35 %
161 14-11-2019 02:49:17 4.5 C 33 %
162 14-11-2019 02:59:17 4.8 C 31 %
163 14-11-2019 03:09:17 5 C 29 %
164 14-11-2019 03:19:17 4.8 C 30 %
165 14-11-2019 03:29:17 5 C 30 %
166 14-11-2019 03:39:17 5.1 C 29 %
167 14-11-2019 03:49:17 5.2 C 28 %
168 14-11-2019 03:59:17 5.1 C 28 %
169 14-11-2019 04:09:17 5.2 C 29 %
170 14-11-2019 04:19:17 5.1 C 29 %
171 14-11-2019 04:29:17 4.6 C 31 %
172 14-11-2019 04:39:17 4.5 C 32 %
173 14-11-2019 04:49:17 4.6 C 33 %
174 14-11-2019 04:59:17 4.2 C 31 %
175 14-11-2019 05:09:17 3.4 C 33 %
Sensor: Nr:Datum:Temp:Feuchte:
Aussen-T/F 176 14-11-2019 05:19:17 3.3 C 40 %
177 14-11-2019 05:29:17 3.7 C 41 %
178 14-11-2019 05:39:18 4.1 C 40 %
179 14-11-2019 05:49:17 4.4 C 38 %
180 14-11-2019 05:59:17 4.4 C 36 %
181 14-11-2019 06:09:17 3.6 C 34 %
182 14-11-2019 06:19:17 3.5 C 36 %
183 14-11-2019 06:29:17 3.5 C 36 %
184 14-11-2019 06:39:17 3.9 C 38 %
185 14-11-2019 06:49:17 4.2 C 36 %
186 14-11-2019 06:59:17 4.6 C 30 %
187 14-11-2019 07:09:17 4.6 C 30 %
188 14-11-2019 07:19:17 4.8 C 26 %
189 14-11-2019 07:29:17 4.8 C 25 %
190 14-11-2019 07:39:17 4.5 C 26 %
191 14-11-2019 07:49:17 4.5 C 26 %
192 14-11-2019 07:59:17 4.5 C 26 %
193 14-11-2019 08:09:17 4.2 C 26 %
194 14-11-2019 08:19:17 4.2 C 26 %
195 14-11-2019 08:29:17 4.6 C 26 %
196 14-11-2019 08:39:17 4.7 C 25 %
197 14-11-2019 08:49:17 4.6 C 25 %
198 14-11-2019 08:59:17 4.5 C 26 %
199 14-11-2019 09:09:17 5 C 21 %
200 14-11-2019 09:19:17 5 C 21 %
Sensor: Nr:Datum:Temp:Feuchte:
Aussen-T/F 201 14-11-2019 09:29:17 5.4 C 20 %
202 14-11-2019 09:39:17 5.6 C 20 %
203 14-11-2019 09:49:17 5.6 C 20 %
204 14-11-2019 09:59:17 5.9 C 20 %
205 14-11-2019 10:09:17 6.1 C 20 %
206 14-11-2019 10:19:17 6.3 C 20 %
207 14-11-2019 10:29:17 6.5 C 20 %
208 14-11-2019 10:39:17 6.7 C 20 %
209 14-11-2019 10:49:17 7.1 C 20 %
210 14-11-2019 10:59:17 7.2 C 20 %
211 14-11-2019 11:09:17 7.4 C 20 %
212 14-11-2019 11:19:17 7.9 C 20 %
213 14-11-2019 11:29:17 8.2 C 20 %
214 14-11-2019 11:39:17 8.2 C 20 %
215 14-11-2019 11:49:17 8.2 C 20 %
216 14-11-2019 11:59:17 8.9 C 20 %
217 14-11-2019 12:09:17 9.3 C 20 %
218 14-11-2019 12:19:17 9.1 C 20 %
219 14-11-2019 12:29:17 9 C 20 %
220 14-11-2019 12:39:17 8.6 C 20 %
221 14-11-2019 12:49:17 8.3 C 20 %
222 14-11-2019 12:59:17 8.3 C 20 %
223 14-11-2019 13:09:17 8.6 C 20 %
224 14-11-2019 13:19:17 8.8 C 20 %
225 14-11-2019 13:29:17 8.6 C 20 %
Sensor: Nr:Datum:Temp:Feuchte:
Aussen-T/F 226 14-11-2019 13:39:17 8.7 C 20 %
227 14-11-2019 13:49:17 9.1 C 20 %
228 14-11-2019 13:59:17 9.6 C 20 %
229 14-11-2019 14:09:17 9.4 C 20 %
230 14-11-2019 14:19:17 9.2 C 20 %
231 14-11-2019 14:29:17 9 C 20 %
232 14-11-2019 14:39:17 8.9 C 20 %
233 14-11-2019 14:49:17 8.5 C 20 %
234 14-11-2019 14:59:17 8.1 C 20 %
235 14-11-2019 15:09:17 7.9 C 20 %
236 14-11-2019 15:19:17 7.8 C 20 %
237 14-11-2019 15:29:17 7.3 C 20 %
238 14-11-2019 15:39:17 6.9 C 20 %
239 14-11-2019 15:49:17 6.7 C 20 %
240 14-11-2019 15:59:17 6.5 C 20 %
241 14-11-2019 16:09:17 6.5 C 20 %
242 14-11-2019 16:19:17 6 C 20 %
243 14-11-2019 16:29:17 5.6 C 20 %
244 14-11-2019 16:39:17 5.2 C 20 %
245 14-11-2019 16:49:17 4.8 C 20 %
246 14-11-2019 16:59:17 4.6 C 20 %
247 14-11-2019 17:09:17 4.4 C 20 %
248 14-11-2019 17:19:17 4.3 C 20 %
249 14-11-2019 17:29:17 3.9 C 20 %
250 14-11-2019 17:39:17 3.8 C 20 %
Sensor: Nr:Datum:Temp:Feuchte:
Aussen-T/F 251 14-11-2019 17:49:17 3.8 C 20 %
252 14-11-2019 17:59:17 3.8 C 20 %
253 14-11-2019 18:09:17 4.1 C 20 %
254 14-11-2019 18:19:17 3.9 C 20 %
255 14-11-2019 18:29:17 3.8 C 20 %
256 14-11-2019 18:39:17 3.9 C 20 %
257 14-11-2019 18:49:17 3.3 C 20 %
258 14-11-2019 18:59:17 3.4 C 20 %
259 14-11-2019 19:09:17 3.2 C 20 %
260 14-11-2019 19:19:17 2.6 C 25 %
261 14-11-2019 19:29:17 2.7 C 25 %
262 14-11-2019 19:39:17 2.7 C 25 %
263 14-11-2019 19:49:17 2.6 C 25 %
264 14-11-2019 19:59:18 2.7 C 26 %
265 14-11-2019 20:09:17 2.4 C 26 %
266 14-11-2019 20:19:17 2.3 C 30 %
267 14-11-2019 20:29:17 2.4 C 27 %
268 14-11-2019 20:39:17 2.6 C 26 %
269 14-11-2019 20:49:17 2.5 C 26 %
270 14-11-2019 20:59:17 2 C 27 %
271 14-11-2019 21:09:17 1.6 C 32 %
272 14-11-2019 21:19:17 1.6 C 36 %
273 14-11-2019 21:29:17 1.7 C 35 %
274 14-11-2019 21:39:17 1.6 C 35 %
275 14-11-2019 21:49:17 1.4 C 35 %
Sensor: Nr:Datum:Temp:Feuchte:
Aussen-T/F 276 14-11-2019 21:59:17 1.4 C 36 %
277 14-11-2019 22:09:17 1.6 C 37 %
278 14-11-2019 22:19:17 1.5 C 36 %
279 14-11-2019 22:29:17 1.5 C 37 %
280 14-11-2019 22:39:17 1.6 C 39 %
281 14-11-2019 22:49:17 1.6 C 39 %
282 14-11-2019 22:59:17 1.9 C 40 %
283 14-11-2019 23:09:17 2 C 38 %
284 14-11-2019 23:19:17 2 C 37 %
285 14-11-2019 23:29:17 2 C 36 %
286 14-11-2019 23:39:17 2.2 C 36 %
287 14-11-2019 23:49:17 2.1 C 36 %
288 14-11-2019 23:59:17 2.1 C 36 %
289 15-11-2019 00:09:17 2.1 C 36 %
290 15-11-2019 00:19:17 2.2 C 35 %
291 15-11-2019 00:29:17 2.3 C 36 %
292 15-11-2019 00:39:17 2.5 C 36 %
293 15-11-2019 00:49:17 2.8 C 33 %
294 15-11-2019 00:59:17 3 C 31 %
295 15-11-2019 01:09:17 3.2 C 30 %
296 15-11-2019 01:19:17 2.9 C 31 %
297 15-11-2019 01:29:17 2.8 C 32 %
298 15-11-2019 01:39:17 3.1 C 30 %
299 15-11-2019 01:49:17 3.2 C 30 %
300 15-11-2019 01:59:17 3.1 C 30 %
Sensor: Nr:Datum:Temp:Feuchte:
Aussen-T/F 301 15-11-2019 02:09:17 2.7 C 30 %
302 15-11-2019 02:19:17 2.6 C 31 %
303 15-11-2019 02:29:17 2.6 C 31 %
304 15-11-2019 02:39:17 2.7 C 30 %
305 15-11-2019 02:49:17 2.8 C 31 %
306 15-11-2019 02:59:17 3.2 C 30 %
307 15-11-2019 03:09:17 2.9 C 30 %
308 15-11-2019 03:19:17 2.7 C 30 %
309 15-11-2019 03:29:17 2.5 C 30 %
310 15-11-2019 03:39:17 2.3 C 30 %
311 15-11-2019 03:49:17 2.2 C 30 %
312 15-11-2019 03:59:17 2.2 C 31 %
313 15-11-2019 04:09:17 2.2 C 31 %
314 15-11-2019 04:19:17 2.6 C 30 %
315 15-11-2019 04:29:17 3.1 C 26 %
316 15-11-2019 04:39:17 3.2 C 25 %
317 15-11-2019 04:49:17 3 C 25 %
318 15-11-2019 04:59:17 3.1 C 25 %
319 15-11-2019 05:09:17 2.8 C 27 %
320 15-11-2019 05:19:17 2.6 C 26 %
321 15-11-2019 05:29:17 2.7 C 25 %
322 15-11-2019 05:39:17 2.5 C 27 %
323 15-11-2019 05:49:17 2.6 C 25 %
324 15-11-2019 05:59:17 3.2 C 23 %
325 15-11-2019 06:09:17 3.3 C 20 %
Sensor: Nr:Datum:Temp:Feuchte:
Aussen-T/F 326 15-11-2019 06:19:17 3.4 C 20 %
327 15-11-2019 06:29:17 3.3 C 20 %
328 15-11-2019 06:39:17 3.4 C 20 %
329 15-11-2019 06:49:17 3.4 C 20 %
330 15-11-2019 06:59:17 3.1 C 20 %
331 15-11-2019 07:09:17 3 C 20 %
332 15-11-2019 07:19:17 2.9 C 21 %
333 15-11-2019 07:29:17 3 C 21 %
334 15-11-2019 07:39:17 2.9 C 23 %
335 15-11-2019 07:49:17 2.8 C 25 %
336 15-11-2019 07:59:17 3.2 C 20 %
337 15-11-2019 08:09:17 3.3 C 20 %
338 15-11-2019 08:19:17 3.3 C 20 %
339 15-11-2019 08:29:17 3.3 C 20 %
340 15-11-2019 08:39:17 3.3 C 20 %
341 15-11-2019 08:49:17 3.1 C 23 %
342 15-11-2019 08:59:17 3.3 C 21 %
343 15-11-2019 09:09:17 3.3 C 21 %
344 15-11-2019 09:19:17 3.6 C 20 %
345 15-11-2019 09:29:17 4.1 C 20 %
346 15-11-2019 09:39:17 4.5 C 20 %
347 15-11-2019 09:49:17 4.4 C 20 %
348 15-11-2019 09:59:17 4.6 C 20 %
349 15-11-2019 10:09:17 4.9 C 20 %
350 15-11-2019 10:19:17 5.2 C 20 %
Sensor: Nr:Datum:Temp:Feuchte:
Aussen-T/F 351 15-11-2019 10:29:17 5.5 C 20 %
352 15-11-2019 10:39:17 5.4 C 20 %
353 15-11-2019 10:49:17 5.5 C 20 %
354 15-11-2019 10:59:17 5.8 C 20 %
355 15-11-2019 11:09:17 5.9 C 20 %
356 15-11-2019 11:19:17 5.3 C 20 %
357 15-11-2019 11:29:17 5.2 C 20 %
358 15-11-2019 11:39:17 5.8 C 20 %
359 15-11-2019 11:49:17 6.1 C 20 %
360 15-11-2019 11:59:17 6.4 C 20 %
361 15-11-2019 12:09:17 6.5 C 20 %
362 15-11-2019 12:19:17 6.5 C 20 %
363 15-11-2019 12:29:17 6.3 C 20 %
364 15-11-2019 12:39:17 6.3 C 20 %
365 15-11-2019 12:49:17 6.4 C 20 %
366 15-11-2019 12:59:17 6.5 C 20 %
367 15-11-2019 13:09:17 6.8 C 20 %
368 15-11-2019 13:19:17 6.9 C 20 %
369 15-11-2019 13:29:17 7 C 20 %
370 15-11-2019 13:39:17 7.4 C 20 %
371 15-11-2019 13:49:17 7.4 C 20 %
372 15-11-2019 13:59:17 7.3 C 20 %
373 15-11-2019 14:09:17 7.5 C 20 %
374 15-11-2019 14:19:17 7.6 C 20 %
375 15-11-2019 14:29:17 7.7 C 20 %
Sensor: Nr:Datum:Temp:Feuchte:
Aussen-T/F 376 15-11-2019 14:39:17 7.5 C 20 %
377 15-11-2019 14:49:17 7.8 C 20 %
378 15-11-2019 14:59:17 8 C 20 %
379 15-11-2019 15:09:17 7.8 C 20 %
380 15-11-2019 15:19:17 7.7 C 20 %
381 15-11-2019 15:29:17 7.6 C 20 %
382 15-11-2019 15:39:17 7.3 C 20 %
383 15-11-2019 15:49:17 7.1 C 20 %
384 15-11-2019 15:59:17 6.8 C 20 %
385 15-11-2019 16:09:17 6.7 C 20 %
386 15-11-2019 16:19:17 5.5 C 20 %
387 15-11-2019 16:29:17 5 C 20 %
388 15-11-2019 16:39:17 4.4 C 20 %
389 15-11-2019 16:49:17 4 C 23 %
390 15-11-2019 16:59:17 3.9 C 26 %
391 15-11-2019 17:09:17 3.8 C 27 %
392 15-11-2019 17:19:17 3.9 C 27 %
393 15-11-2019 17:29:17 3.8 C 28 %
394 15-11-2019 17:39:17 4 C 27 %
395 15-11-2019 17:49:17 3.8 C 28 %
396 15-11-2019 17:59:17 3.8 C 29 %
397 15-11-2019 18:09:17 3.8 C 29 %
398 15-11-2019 18:19:17 4.3 C 27 %
399 15-11-2019 18:29:17 4.2 C 26 %
400 15-11-2019 18:39:17 4.1 C 27 %
Sensor: Nr:Datum:Temp:Feuchte:
Aussen-T/F 401 15-11-2019 18:49:17 4 C 28 %
402 15-11-2019 18:59:17 4 C 28 %
403 15-11-2019 19:09:17 3.9 C 31 %
404 15-11-2019 19:19:17 3.6 C 31 %
405 15-11-2019 19:29:17 3.7 C 32 %
406 15-11-2019 19:39:17 3.6 C 31 %
407 15-11-2019 19:49:17 3.7 C 32 %
408 15-11-2019 19:59:17 3.7 C 32 %
409 15-11-2019 20:09:17 3.4 C 33 %
410 15-11-2019 20:19:17 3.3 C 34 %
411 15-11-2019 20:29:17 3.2 C 35 %
412 15-11-2019 20:39:17 3.5 C 32 %
413 15-11-2019 20:49:17 3.2 C 32 %
414 15-11-2019 20:59:17 3.5 C 32 %
415 15-11-2019 21:09:17 3.5 C 31 %
416 15-11-2019 21:19:17 3.5 C 31 %
417 15-11-2019 21:29:17 3.2 C 31 %
418 15-11-2019 21:39:17 3 C 34 %
419 15-11-2019 21:49:17 2.9 C 36 %
420 15-11-2019 21:59:17 3 C 36 %
421 15-11-2019 22:09:17 2.8 C 36 %
422 15-11-2019 22:19:17 2.6 C 37 %
423 15-11-2019 22:29:17 2.6 C 39 %
424 15-11-2019 22:39:17 2.7 C 39 %
425 15-11-2019 22:49:17 2.7 C 39 %
Sensor: Nr:Datum:Temp:Feuchte:
Aussen-T/F 426 15-11-2019 22:59:17 2.5 C 38 %
427 15-11-2019 23:09:17 2.6 C 39 %
428 15-11-2019 23:19:17 2.7 C 39 %
429 15-11-2019 23:29:17 2.6 C 38 %
430 15-11-2019 23:39:17 2.5 C 38 %
431 15-11-2019 23:49:17 2.5 C 40 %
432 15-11-2019 23:59:17 2.3 C 40 %
433 16-11-2019 00:09:17 2.3 C 40 %
434 16-11-2019 00:19:17 2.3 C 40 %
435 16-11-2019 00:29:17 2.3 C 40 %
436 16-11-2019 00:39:17 2.3 C 40 %
437 16-11-2019 00:49:17 2.4 C 40 %
438 16-11-2019 00:59:17 2.3 C 40 %
439 16-11-2019 01:09:17 2.3 C 40 %
440 16-11-2019 01:19:17 2.2 C 40 %
441 16-11-2019 01:29:17 2.2 C 40 %
442 16-11-2019 01:39:17 2.2 C 40 %
443 16-11-2019 01:49:17 2.3 C 40 %
444 16-11-2019 01:59:17 2.3 C 40 %
445 16-11-2019 02:09:17 2.3 C 40 %
446 16-11-2019 02:19:17 2.3 C 40 %
447 16-11-2019 02:29:17 2.2 C 40 %
448 16-11-2019 02:39:17 2.1 C 39 %
449 16-11-2019 02:49:17 2.1 C 40 %
450 16-11-2019 02:59:17 2 C 40 %
Sensor: Nr:Datum:Temp:Feuchte:
Aussen-T/F 451 16-11-2019 03:09:17 2 C 40 %
452 16-11-2019 03:19:17 1.9 C 41 %
453 16-11-2019 03:29:17 1.5 C 40 %
454 16-11-2019 03:39:18 1.3 C 40 %
455 16-11-2019 03:49:17 1.3 C 41 %
456 16-11-2019 03:59:17 1.3 C 41 %
457 16-11-2019 04:09:17 1.1 C 41 %
458 16-11-2019 04:19:17 0.8 C 41 %
459 16-11-2019 04:29:17 0.3 C 40 %
460 16-11-2019 04:39:17 0 C 41 %
461 16-11-2019 04:49:17 -0.2 C 41 %
462 16-11-2019 04:59:17 -0.1 C 42 %
463 16-11-2019 05:09:17 -0.4 C 42 %
464 16-11-2019 05:19:17 -0.5 C 42 %
465 16-11-2019 05:29:17 -0.7 C 42 %
466 16-11-2019 05:39:17 -0.6 C 42 %
467 16-11-2019 05:49:17 -0.8 C 42 %
468 16-11-2019 05:59:17 -1 C 42 %
469 16-11-2019 06:09:17 -1 C 42 %
470 16-11-2019 06:19:17 -1.1 C 42 %
471 16-11-2019 06:29:17 -1 C 43 %
472 16-11-2019 06:39:17 -1 C 43 %
473 16-11-2019 06:49:17 -1.4 C 42 %
474 16-11-2019 06:59:17 -1.5 C 42 %
475 16-11-2019 07:09:17 -1.5 C 42 %
Sensor: Nr:Datum:Temp:Feuchte:
Aussen-T/F 476 16-11-2019 07:19:17 -1.6 C 42 %
477 16-11-2019 07:29:17 -1.4 C 43 %
478 16-11-2019 07:39:17 -1 C 43 %
479 16-11-2019 07:49:17 -0.9 C 43 %
480 16-11-2019 07:59:17 -0.7 C 43 %
481 16-11-2019 08:09:17 -0.7 C 43 %
482 16-11-2019 08:19:17 -0.7 C 43 %
483 16-11-2019 08:29:17 -0.6 C 43 %
484 16-11-2019 08:39:17 -0.5 C 43 %
485 16-11-2019 08:49:17 -0.4 C 43 %
486 16-11-2019 08:59:17 -0.3 C 43 %
487 16-11-2019 09:09:17 -0.4 C 43 %
488 16-11-2019 09:19:17 -0.5 C 43 %
489 16-11-2019 09:29:17 -0.5 C 43 %
490 16-11-2019 09:39:17 -0.4 C 43 %
491 16-11-2019 09:49:17 -0.4 C 43 %
492 16-11-2019 09:59:17 -0.2 C 43 %
493 16-11-2019 10:09:17 0.2 C 43 %
494 16-11-2019 10:19:17 0.6 C 43 %
495 16-11-2019 10:29:17 0.6 C 41 %
496 16-11-2019 10:39:17 0.3 C 40 %
497 16-11-2019 10:49:17 0.5 C 40 %
498 16-11-2019 10:59:17 0.6 C 39 %
499 16-11-2019 11:09:17 0.7 C 38 %
500 16-11-2019 11:19:17 1.1 C 36 %
Sensor: Nr:Datum:Temp:Feuchte:
Aussen-T/F 501 16-11-2019 11:29:17 1.6 C 32 %
502 16-11-2019 11:39:17 2.4 C 32 %
503 16-11-2019 11:49:17 2.1 C 30 %
504 16-11-2019 11:59:17 1.8 C 31 %
505 16-11-2019 12:09:17 1.6 C 32 %
506 16-11-2019 12:19:17 1.6 C 33 %
507 16-11-2019 12:29:17 2.3 C 31 %
508 16-11-2019 12:39:17 2.5 C 30 %
509 16-11-2019 12:49:17 2.6 C 32 %
510 16-11-2019 12:59:17 2.6 C 33 %
511 16-11-2019 13:09:17 2.5 C 35 %
512 16-11-2019 13:19:17 2.6 C 36 %
513 16-11-2019 13:29:17 3.2 C 36 %
514 16-11-2019 13:39:17 3.7 C 35 %
515 16-11-2019 13:49:17 4 C 32 %
516 16-11-2019 13:59:17 3.9 C 32 %
517 16-11-2019 14:09:17 3.7 C 32 %
518 16-11-2019 14:19:17 3.7 C 33 %
519 16-11-2019 14:29:17 3.7 C 32 %
520 16-11-2019 14:39:17 3.9 C 32 %
521 16-11-2019 14:49:17 3.9 C 31 %
522 16-11-2019 14:59:17 4 C 30 %
523 16-11-2019 15:09:17 4.4 C 29 %
524 16-11-2019 15:19:17 4.7 C 29 %
525 16-11-2019 15:29:17 4.6 C 29 %
Sensor: Nr:Datum:Temp:Feuchte:
Aussen-T/F 526 16-11-2019 15:39:17 4.4 C 28 %
527 16-11-2019 15:49:17 4.5 C 28 %
528 16-11-2019 15:59:17 4.2 C 28 %
529 16-11-2019 16:09:17 4 C 29 %
530 16-11-2019 16:19:17 4.3 C 26 %
531 16-11-2019 16:29:17 3.8 C 27 %
532 16-11-2019 16:39:17 3.5 C 30 %
533 16-11-2019 16:49:17 3.6 C 31 %
534 16-11-2019 16:59:17 3.4 C 32 %
535 16-11-2019 17:09:17 3.5 C 32 %
536 16-11-2019 17:19:17 3.3 C 32 %
537 16-11-2019 17:29:17 2.6 C 36 %
538 16-11-2019 17:39:17 2.2 C 36 %
539 16-11-2019 17:49:17 2.3 C 39 %
540 16-11-2019 17:59:17 2.2 C 40 %
541 16-11-2019 18:09:17 2 C 39 %
542 16-11-2019 18:19:17 2.2 C 40 %
543 16-11-2019 18:29:17 2 C 40 %
544 16-11-2019 18:39:17 1.9 C 40 %
545 16-11-2019 18:49:17 1.7 C 40 %
546 16-11-2019 18:59:17 1.6 C 40 %
547 16-11-2019 19:09:17 1.4 C 40 %
548 16-11-2019 19:19:17 1.3 C 41 %
549 16-11-2019 19:29:17 1 C 41 %
550 16-11-2019 19:39:17 1.1 C 42 %
Sensor: Nr:Datum:Temp:Feuchte:
Aussen-T/F 551 16-11-2019 19:49:17 0.7 C 42 %
552 16-11-2019 19:59:17 0.5 C 42 %
553 16-11-2019 20:09:17 0.5 C 43 %
554 16-11-2019 20:19:17 0.6 C 43 %
555 16-11-2019 20:29:17 0.7 C 44 %
556 16-11-2019 20:39:17 0.7 C 44 %
557 16-11-2019 20:49:17 0.6 C 43 %
558 16-11-2019 20:59:17 0.6 C 43 %
559 16-11-2019 21:09:17 1.1 C 43 %
560 16-11-2019 21:19:17 0.3 C 43 %
561 16-11-2019 21:29:17 0.1 C 43 %
562 16-11-2019 21:39:17 0 C 43 %
563 16-11-2019 21:49:17 -0.2 C 42 %
564 16-11-2019 21:59:17 -0.3 C 43 %
565 16-11-2019 22:09:17 0 C 43 %
566 16-11-2019 22:19:17 -0.5 C 43 %
567 16-11-2019 22:29:17 -0.7 C 42 %
568 16-11-2019 22:39:17 -0.9 C 42 %
569 16-11-2019 22:49:17 -0.9 C 42 %
570 16-11-2019 22:59:17 -1 C 42 %
571 16-11-2019 23:09:17 -1.2 C 42 %
572 16-11-2019 23:19:17 -1 C 42 %
573 16-11-2019 23:29:17 -1.3 C 42 %
574 16-11-2019 23:39:17 -1.3 C 42 %
575 16-11-2019 23:49:17 -1.6 C 42 %
Sensor: Nr:Datum:Temp:Feuchte:
Aussen-T/F 576 16-11-2019 23:59:17 -1.6 C 42 %
577 17-11-2019 00:09:17 -1.6 C 42 %
578 17-11-2019 00:19:17 -1.3 C 43 %
579 17-11-2019 00:29:17 -1.6 C 42 %
580 17-11-2019 00:39:17 -1.9 C 42 %
581 17-11-2019 00:49:17 -1.9 C 42 %
582 17-11-2019 00:59:17 -2 C 41 %
583 17-11-2019 01:09:17 -2.2 C 41 %
584 17-11-2019 01:19:17 -1.4 C 42 %
585 17-11-2019 01:29:17 -2 C 41 %
586 17-11-2019 01:39:17 -1.7 C 42 %
587 17-11-2019 01:49:17 -1.3 C 42 %
588 17-11-2019 01:59:17 -1.2 C 42 %
589 17-11-2019 02:09:17 -1 C 43 %
590 17-11-2019 02:19:17 -1 C 43 %
591 17-11-2019 02:29:17 -0.5 C 43 %
592 17-11-2019 02:39:17 -0.3 C 43 %
593 17-11-2019 02:49:17 -0.2 C 43 %
594 17-11-2019 02:59:17 -0.2 C 43 %
595 17-11-2019 03:09:17 0 C 43 %
596 17-11-2019 03:19:17 0.1 C 43 %
597 17-11-2019 03:29:17 0.2 C 43 %
598 17-11-2019 03:39:17 0.3 C 43 %
599 17-11-2019 03:49:17 0.5 C 43 %
600 17-11-2019 03:59:17 0.5 C 43 %
Sensor: Nr:Datum:Temp:Feuchte:
Aussen-T/F 601 17-11-2019 04:09:17 0.7 C 43 %
602 17-11-2019 04:19:17 0.8 C 43 %
603 17-11-2019 04:29:17 0.9 C 43 %
604 17-11-2019 04:39:17 0.9 C 43 %
605 17-11-2019 04:49:17 0.8 C 43 %
606 17-11-2019 04:59:17 0.8 C 43 %
607 17-11-2019 05:09:17 0.8 C 43 %
608 17-11-2019 05:19:17 0.8 C 43 %
609 17-11-2019 05:29:17 1 C 42 %
610 17-11-2019 05:39:17 0.8 C 43 %
611 17-11-2019 05:49:17 0.8 C 43 %
612 17-11-2019 05:59:17 0.8 C 43 %
613 17-11-2019 06:09:17 0.8 C 43 %
614 17-11-2019 06:19:17 0.8 C 43 %
615 17-11-2019 06:29:17 0.8 C 43 %
616 17-11-2019 06:39:17 0.9 C 43 %
617 17-11-2019 06:49:17 1 C 41 %
618 17-11-2019 06:59:17 0.9 C 43 %
619 17-11-2019 07:09:17 1 C 41 %
620 17-11-2019 07:19:17 1 C 41 %
621 17-11-2019 07:29:17 1 C 41 %
622 17-11-2019 07:39:17 1.1 C 41 %
623 17-11-2019 07:49:17 1.1 C 41 %
624 17-11-2019 07:59:17 1.1 C 41 %
625 17-11-2019 08:09:17 1.2 C 41 %
Sensor: Nr:Datum:Temp:Feuchte:
Aussen-T/F 626 17-11-2019 08:19:17 1.2 C 41 %
627 17-11-2019 08:29:17 1.2 C 41 %
628 17-11-2019 08:39:17 1.3 C 41 %
629 17-11-2019 08:49:17 1.4 C 41 %
630 17-11-2019 08:59:17 1.5 C 42 %
631 17-11-2019 09:09:17 1.5 C 42 %
632 17-11-2019 09:19:17 1.8 C 42 %
633 17-11-2019 09:29:17 2 C 41 %
634 17-11-2019 09:39:17 2.1 C 41 %
635 17-11-2019 09:49:17 2.1 C 41 %
636 17-11-2019 09:59:17 2.3 C 41 %
637 17-11-2019 10:09:17 2.5 C 42 %
638 17-11-2019 10:19:17 2.6 C 42 %
639 17-11-2019 10:29:17 2.6 C 42 %
640 17-11-2019 10:39:17 2.7 C 41 %
641 17-11-2019 10:49:17 2.8 C 41 %
642 17-11-2019 10:59:17 3 C 41 %
643 17-11-2019 11:09:17 3.2 C 40 %
644 17-11-2019 11:19:17 3.3 C 40 %
645 17-11-2019 11:29:17 3.5 C 39 %
646 17-11-2019 11:39:17 3.5 C 39 %
647 17-11-2019 11:49:17 3.5 C 39 %
648 17-11-2019 11:59:17 3.7 C 38 %
649 17-11-2019 12:09:17 3.9 C 38 %
650 17-11-2019 12:19:17 3.8 C 38 %
Sensor: Nr:Datum:Temp:Feuchte:
Aussen-T/F 651 17-11-2019 12:29:17 3.9 C 38 %
652 17-11-2019 12:39:17 4 C 37 %
653 17-11-2019 12:49:17 4.1 C 37 %
654 17-11-2019 12:59:17 4.4 C 37 %
655 17-11-2019 13:09:17 4.5 C 36 %
656 17-11-2019 13:19:17 4.6 C 33 %
657 17-11-2019 13:29:17 4.7 C 32 %
658 17-11-2019 13:39:17 4.7 C 32 %
659 17-11-2019 13:49:17 4.8 C 32 %
660 17-11-2019 13:59:17 4.8 C 32 %
661 17-11-2019 14:09:17 4.9 C 33 %
662 17-11-2019 14:19:17 4.9 C 31 %
663 17-11-2019 14:29:17 5.1 C 31 %
664 17-11-2019 14:39:17 4.6 C 29 %
665 17-11-2019 14:49:17 4.4 C 31 %
666 17-11-2019 14:59:17 4.3 C 35 %
667 17-11-2019 15:09:17 4.3 C 35 %
668 17-11-2019 15:19:17 4.2 C 37 %
669 17-11-2019 15:29:17 4.1 C 37 %
670 17-11-2019 15:39:18 4.2 C 38 %
671 17-11-2019 15:49:17 4 C 38 %
672 17-11-2019 15:59:17 4 C 37 %
673 17-11-2019 16:09:17 4 C 38 %
674 17-11-2019 16:19:17 4 C 38 %
675 17-11-2019 16:29:17 3.8 C 40 %
Sensor: Nr:Datum:Temp:Feuchte:
Aussen-T/F 676 17-11-2019 16:39:17 3.8 C 40 %
677 17-11-2019 16:49:17 3.8 C 39 %
678 17-11-2019 16:59:17 3.7 C 40 %
679 17-11-2019 17:09:17 3.7 C 40 %
680 17-11-2019 17:19:17 3.6 C 40 %
681 17-11-2019 17:29:17 3.6 C 40 %
682 17-11-2019 17:39:17 3.6 C 40 %
683 17-11-2019 17:49:17 3.6 C 41 %
684 17-11-2019 17:59:17 3.7 C 41 %
685 17-11-2019 18:09:17 3.8 C 41 %
686 17-11-2019 18:19:17 3.9 C 42 %
687 17-11-2019 18:29:17 3.9 C 42 %
688 17-11-2019 18:39:17 3.9 C 41 %
689 17-11-2019 18:49:17 3.9 C 41 %
690 17-11-2019 18:59:17 3.8 C 41 %
691 17-11-2019 19:09:17 3.8 C 40 %
692 17-11-2019 19:19:17 3.8 C 41 %
693 17-11-2019 19:29:17 3.8 C 41 %
694 17-11-2019 19:39:17 3.8 C 41 %
695 17-11-2019 19:49:17 3.9 C 41 %
696 17-11-2019 19:59:17 3.9 C 41 %
697 17-11-2019 20:09:17 3.9 C 41 %
698 17-11-2019 20:19:17 3.9 C 41 %
699 17-11-2019 20:29:17 3.9 C 41 %
700 17-11-2019 20:39:17 3.9 C 41 %
Sensor: Nr:Datum:Temp:Feuchte:
Aussen-T/F 701 17-11-2019 20:49:17 4 C 40 %
702 17-11-2019 20:59:17 4 C 40 %
703 17-11-2019 21:09:17 3.9 C 41 %
704 17-11-2019 21:19:17 4 C 40 %
705 17-11-2019 21:29:17 3.9 C 41 %
706 17-11-2019 21:39:17 3.9 C 41 %
707 17-11-2019 21:49:17 3.9 C 41 %
708 17-11-2019 21:59:17 3.9 C 41 %
709 17-11-2019 22:09:17 3.9 C 41 %
710 17-11-2019 22:19:17 3.9 C 41 %
711 17-11-2019 22:29:17 3.9 C 41 %
712 17-11-2019 22:39:17 3.9 C 41 %
713 17-11-2019 22:49:17 3.9 C 41 %
714 17-11-2019 22:59:17 3.8 C 41 %
715 17-11-2019 23:09:17 3.8 C 41 %
716 17-11-2019 23:19:17 3.8 C 41 %
717 17-11-2019 23:29:17 3.8 C 41 %
718 17-11-2019 23:39:17 3.8 C 41 %
719 17-11-2019 23:49:17 3.7 C 41 %
720 17-11-2019 23:59:17 3.6 C 41 %
721 18-11-2019 00:09:17 3.6 C 40 %
722 18-11-2019 00:19:17 3.6 C 40 %
723 18-11-2019 00:29:17 3.5 C 40 %
724 18-11-2019 00:39:17 3.5 C 40 %
725 18-11-2019 00:49:17 3.4 C 40 %
Sensor: Nr:Datum:Temp:Feuchte:
Aussen-T/F 726 18-11-2019 00:59:17 3.4 C 39 %
727 18-11-2019 01:09:17 3.4 C 39 %
728 18-11-2019 01:19:17 3.4 C 38 %
729 18-11-2019 01:29:17 3.4 C 38 %
730 18-11-2019 01:39:17 3.3 C 38 %
731 18-11-2019 01:49:17 3.4 C 39 %
732 18-11-2019 01:59:17 3.4 C 39 %
733 18-11-2019 02:09:17 3.4 C 40 %
734 18-11-2019 02:19:17 3.3 C 40 %
735 18-11-2019 02:29:17 3.4 C 40 %
736 18-11-2019 02:39:17 3.4 C 40 %
737 18-11-2019 02:49:17 3.4 C 40 %
738 18-11-2019 02:59:17 3.3 C 40 %
739 18-11-2019 03:09:17 3.3 C 40 %
740 18-11-2019 03:19:17 3.4 C 41 %
741 18-11-2019 03:29:17 3.4 C 41 %
742 18-11-2019 03:39:17 3.3 C 40 %
743 18-11-2019 03:49:17 3.4 C 40 %
744 18-11-2019 03:59:17 3.4 C 40 %
745 18-11-2019 04:09:17 3.4 C 40 %
746 18-11-2019 04:19:17 3.3 C 40 %
747 18-11-2019 04:29:17 3.4 C 40 %
748 18-11-2019 04:39:18 3.3 C 40 %
749 18-11-2019 04:49:17 3.3 C 40 %
750 18-11-2019 04:59:17 3.3 C 40 %
Sensor: Nr:Datum:Temp:Feuchte:
Aussen-T/F 751 18-11-2019 05:09:17 3.4 C 40 %
752 18-11-2019 05:19:18 3.3 C 40 %
753 18-11-2019 05:29:18 3.3 C 40 %
754 18-11-2019 05:39:17 3.3 C 41 %
755 18-11-2019 05:49:17 3.3 C 40 %
756 18-11-2019 05:59:17 3.3 C 41 %
757 18-11-2019 06:09:17 3.3 C 41 %
758 18-11-2019 06:19:17 3.3 C 41 %
759 18-11-2019 06:29:17 3.2 C 41 %
760 18-11-2019 06:39:17 3.2 C 41 %
761 18-11-2019 06:49:17 3.2 C 41 %
762 18-11-2019 06:59:17 3.2 C 41 %
763 18-11-2019 07:09:17 3.2 C 41 %
764 18-11-2019 07:19:18 3.2 C 41 %
765 18-11-2019 07:29:18 3.2 C 41 %
766 18-11-2019 07:39:18 3.3 C 41 %
767 18-11-2019 07:49:17 3.3 C 41 %
768 18-11-2019 07:59:17 3.3 C 41 %
769 18-11-2019 08:09:17 3.3 C 41 %
770 18-11-2019 08:19:17 3.3 C 41 %
771 18-11-2019 08:29:17 3.4 C 41 %
772 18-11-2019 08:39:18 3.4 C 41 %
773 18-11-2019 08:49:18 3.4 C 41 %
774 18-11-2019 08:59:18 3.4 C 41 %
775 18-11-2019 09:09:17 3.5 C 41 %
Sensor: Nr:Datum:Temp:Feuchte:
Aussen-T/F 776 18-11-2019 09:19:17 3.6 C 41 %
777 18-11-2019 09:29:17 3.6 C 40 %
778 18-11-2019 09:39:17 3.7 C 40 %
779 18-11-2019 09:49:17 3.9 C 38 %
780 18-11-2019 09:59:17 4.1 C 37 %
781 18-11-2019 10:09:17 4.1 C 35 %
782 18-11-2019 10:19:31 4.2 C 35 %
783 18-11-2019 10:29:31 4.1 C 35 %
784 18-11-2019 10:39:17 4.1 C 35 %
785 18-11-2019 10:49:17 4.2 C 36 %
786 18-11-2019 10:59:17 4.1 C 35 %
787 18-11-2019 11:09:17 4.1 C 35 %
788 18-11-2019 11:19:17 4.2 C 35 %
789 18-11-2019 11:29:17 4.3 C 34 %
790 18-11-2019 11:39:17 4.4 C 34 %
791 18-11-2019 11:49:17 4.7 C 33 %
792 18-11-2019 11:59:17 5 C 29 %
793 18-11-2019 12:09:17 4.9 C 30 %
794 18-11-2019 12:19:17 5 C 28 %
795 18-11-2019 12:29:17 4.8 C 30 %
796 18-11-2019 12:39:17 4.8 C 30 %
797 18-11-2019 12:49:17 4.8 C 30 %
798 18-11-2019 12:59:17 4.8 C 30 %
799 18-11-2019 13:09:17 4.7 C 30 %
800 18-11-2019 13:19:17 4.7 C 31 %
Sensor: Nr:Datum:Temp:Feuchte:
Aussen-T/F 801 18-11-2019 13:29:17 4.8 C 30 %
802 18-11-2019 13:39:17 4.8 C 30 %
803 18-11-2019 13:49:17 4.8 C 29 %
804 18-11-2019 13:59:17 4.8 C 30 %
805 18-11-2019 14:09:17 4.8 C 28 %
806 18-11-2019 14:19:17 4.8 C 30 %
807 18-11-2019 14:29:17 4.8 C 30 %
808 18-11-2019 14:39:17 4.8 C 30 %
809 18-11-2019 14:49:17 4.6 C 30 %
810 18-11-2019 14:59:17 4.5 C 30 %
811 18-11-2019 15:09:17 4.5 C 31 %
812 18-11-2019 15:19:18 4.5 C 31 %
813 18-11-2019 15:29:18 4.5 C 30 %
814 18-11-2019 15:39:17 4.5 C 30 %
815 18-11-2019 15:49:17 4.4 C 30 %
816 18-11-2019 15:59:17 4.3 C 30 %
817 18-11-2019 16:09:17 4.2 C 31 %
818 18-11-2019 16:19:17 4.1 C 31 %
819 18-11-2019 16:29:17 4.1 C 30 %
820 18-11-2019 16:39:17 4.1 C 31 %
821 18-11-2019 16:49:17 4.1 C 32 %
822 18-11-2019 16:59:17 4.1 C 30 %
823 18-11-2019 17:09:17 4.1 C 30 %
824 18-11-2019 17:19:17 4.1 C 30 %
825 18-11-2019 17:29:17 4 C 31 %
Sensor: Nr:Datum:Temp:Feuchte:
Aussen-T/F 826 18-11-2019 17:39:17 4 C 31 %
827 18-11-2019 17:49:17 4 C 31 %
828 18-11-2019 17:59:17 3.9 C 33 %
829 18-11-2019 18:09:17 3.9 C 34 %
830 18-11-2019 18:19:17 3.8 C 34 %
831 18-11-2019 18:29:17 3.8 C 35 %
832 18-11-2019 18:39:17 3.7 C 34 %
833 18-11-2019 18:49:17 3.5 C 36 %
834 18-11-2019 18:59:17 3.5 C 35 %
835 18-11-2019 19:09:17 3.3 C 34 %
836 18-11-2019 19:19:17 3.2 C 34 %
837 18-11-2019 19:29:17 3 C 36 %
838 18-11-2019 19:39:17 2.9 C 36 %
839 18-11-2019 19:49:17 2.7 C 36 %
840 18-11-2019 19:59:17 2.7 C 36 %
841 18-11-2019 20:09:17 2.4 C 36 %
842 18-11-2019 20:19:17 2.3 C 37 %
843 18-11-2019 20:29:17 2.2 C 36 %
844 18-11-2019 20:39:17 2 C 37 %
845 18-11-2019 20:49:17 1.9 C 39 %
846 18-11-2019 20:59:17 1.8 C 38 %
847 18-11-2019 21:09:17 1.6 C 40 %
848 18-11-2019 21:19:17 1.5 C 39 %
849 18-11-2019 21:29:17 1.5 C 40 %
850 18-11-2019 21:39:17 1.5 C 40 %
Sensor: Nr:Datum:Temp:Feuchte:
Aussen-T/F 851 18-11-2019 21:49:17 1.6 C 40 %
852 18-11-2019 21:59:17 1.8 C 40 %
853 18-11-2019 22:09:17 2 C 38 %
854 18-11-2019 22:19:17 2 C 38 %
855 18-11-2019 22:29:17 2.2 C 36 %
856 18-11-2019 22:39:17 2.2 C 36 %
857 18-11-2019 22:49:17 2.2 C 36 %
858 18-11-2019 22:59:17 2.2 C 36 %
859 18-11-2019 23:09:17 2.2 C 36 %
860 18-11-2019 23:19:17 2.4 C 36 %
861 18-11-2019 23:29:17 2.6 C 36 %
862 18-11-2019 23:39:17 2.7 C 35 %
863 18-11-2019 23:49:17 2.7 C 35 %
864 18-11-2019 23:59:17 2.8 C 36 %
865 19-11-2019 00:09:17 2.9 C 36 %
866 19-11-2019 00:19:17 2.9 C 36 %
867 19-11-2019 00:29:17 3 C 36 %
868 19-11-2019 00:39:17 3 C 35 %
869 19-11-2019 00:49:18 3 C 35 %
870 19-11-2019 00:59:18 3 C 36 %
871 19-11-2019 01:09:17 3.2 C 36 %
872 19-11-2019 01:19:17 3.2 C 36 %
873 19-11-2019 01:29:17 3.2 C 36 %
874 19-11-2019 01:39:18 3.3 C 37 %
875 19-11-2019 01:49:18 3.4 C 36 %
Sensor: Nr:Datum:Temp:Feuchte:
Aussen-T/F 876 19-11-2019 01:59:18 3.3 C 36 %
877 19-11-2019 02:09:18 3.3 C 36 %
878 19-11-2019 02:19:17 3.4 C 36 %
879 19-11-2019 02:29:17 3.3 C 36 %
880 19-11-2019 02:39:17 3.4 C 37 %
881 19-11-2019 02:49:17 3.3 C 37 %
882 19-11-2019 02:59:17 3.3 C 38 %
883 19-11-2019 03:09:17 3.3 C 40 %
884 19-11-2019 03:19:17 3.4 C 39 %
885 19-11-2019 03:29:17 3.4 C 39 %
886 19-11-2019 03:39:17 3.5 C 37 %
887 19-11-2019 03:49:17 3.5 C 37 %
888 19-11-2019 03:59:17 3.5 C 38 %
889 19-11-2019 04:09:17 3.6 C 37 %
890 19-11-2019 04:19:18 3.6 C 36 %
891 19-11-2019 04:29:18 3.5 C 36 %
892 19-11-2019 04:39:17 3.5 C 37 %
893 19-11-2019 04:49:17 3.4 C 37 %
894 19-11-2019 04:59:17 3.1 C 39 %
895 19-11-2019 05:09:17 2.5 C 40 %
896 19-11-2019 05:19:18 2.3 C 41 %
897 19-11-2019 05:29:18 2 C 42 %
898 19-11-2019 05:39:17 1.6 C 43 %
899 19-11-2019 05:49:17 1.5 C 43 %
900 19-11-2019 05:59:17 1.8 C 44 %
Sensor: Nr:Datum:Temp:Feuchte:
Aussen-T/F 901 19-11-2019 06:09:17 1.8 C 44 %
902 19-11-2019 06:19:17 1.7 C 43 %
903 19-11-2019 06:29:17 1.7 C 43 %
904 19-11-2019 06:39:17 1.8 C 43 %
905 19-11-2019 06:49:17 2 C 42 %
906 19-11-2019 06:59:17 2.1 C 42 %
907 19-11-2019 07:09:17 2.4 C 42 %
908 19-11-2019 07:19:17 2.2 C 42 %
909 19-11-2019 07:29:17 1.5 C 42 %
910 19-11-2019 07:39:17 1.3 C 42 %
911 19-11-2019 07:49:17 1.2 C 42 %
912 19-11-2019 07:59:17 1.8 C 43 %
913 19-11-2019 08:09:17 2.1 C 42 %
914 19-11-2019 08:19:17 2.5 C 42 %
915 19-11-2019 08:29:17 2.8 C 42 %
916 19-11-2019 08:39:17 2.5 C 41 %
917 19-11-2019 08:49:17 2.6 C 41 %
918 19-11-2019 08:59:17 3.2 C 41 %
919 19-11-2019 09:09:17 3.3 C 40 %
920 19-11-2019 09:19:17 3.3 C 39 %
921 19-11-2019 09:29:17 3.4 C 38 %
922 19-11-2019 09:39:17 3.3 C 35 %
923 19-11-2019 09:49:17 3.2 C 35 %
924 19-11-2019 09:59:17 3.1 C 35 %
925 19-11-2019 10:09:17 3.1 C 36 %
Sensor: Nr:Datum:Temp:Feuchte:
Aussen-T/F 926 19-11-2019 10:19:17 3.2 C 36 %
927 19-11-2019 10:29:17 3.3 C 37 %
928 19-11-2019 10:39:17 3.2 C 38 %
929 19-11-2019 10:49:17 3.3 C 38 %
930 19-11-2019 10:59:17 3.4 C 38 %
931 19-11-2019 11:09:17 3.5 C 38 %
932 19-11-2019 11:19:17 3.5 C 38 %
933 19-11-2019 11:29:17 4.2 C 33 %
934 19-11-2019 11:39:17 5 C 30 %
935 19-11-2019 11:49:17 5.5 C 23 %
936 19-11-2019 11:59:17 5.5 C 23 %
937 19-11-2019 12:09:17 5.5 C 23 %
938 19-11-2019 12:19:17 6.2 C 20 %
939 19-11-2019 12:29:17 6.3 C 20 %
940 19-11-2019 12:39:17 5.5 C 20 %
941 19-11-2019 12:49:17 5.6 C 20 %
942 19-11-2019 12:59:17 5.7 C 20 %
943 19-11-2019 13:09:17 5.8 C 20 %
944 19-11-2019 13:19:17 5.7 C 20 %
945 19-11-2019 13:29:17 5.8 C 20 %
946 19-11-2019 13:39:17 5.7 C 20 %
947 19-11-2019 13:49:17 6 C 20 %
948 19-11-2019 13:59:17 6.3 C 20 %
949 19-11-2019 14:09:17 6.2 C 20 %
950 19-11-2019 14:19:17 6.2 C 20 %
Sensor: Nr:Datum:Temp:Feuchte:
Aussen-T/F 951 19-11-2019 14:29:17 6 C 20 %
952 19-11-2019 14:39:17 5.9 C 20 %
953 19-11-2019 14:49:17 5.8 C 20 %
954 19-11-2019 14:59:17 5.9 C 25 %
955 19-11-2019 15:09:17 5.8 C 23 %
956 19-11-2019 15:19:18 5.6 C 28 %
957 19-11-2019 15:29:18 5.4 C 30 %
958 19-11-2019 15:39:17 5.1 C 32 %
959 19-11-2019 15:49:17 4.9 C 30 %
960 19-11-2019 15:59:17 4.8 C 32 %
961 19-11-2019 16:09:17 4.7 C 35 %
962 19-11-2019 16:19:17 4.5 C 36 %
963 19-11-2019 16:29:17 4.4 C 35 %
964 19-11-2019 16:39:17 4.4 C 35 %
965 19-11-2019 16:49:17 3.8 C 38 %
966 19-11-2019 16:59:17 3.5 C 39 %
967 19-11-2019 17:09:17 3.3 C 40 %
968 19-11-2019 17:19:17 3.2 C 41 %
969 19-11-2019 17:29:17 2.9 C 41 %
970 19-11-2019 17:39:17 2.8 C 42 %
971 19-11-2019 17:49:17 2.7 C 42 %
972 19-11-2019 17:59:17 2.7 C 42 %
973 19-11-2019 18:09:17 2.4 C 42 %
974 19-11-2019 18:19:17 2.2 C 42 %
975 19-11-2019 18:29:17 2.3 C 42 %
Sensor: Nr:Datum:Temp:Feuchte:
Aussen-T/F 976 19-11-2019 18:39:17 2.5 C 42 %
977 19-11-2019 18:49:17 2.6 C 42 %
978 19-11-2019 18:59:17 2 C 41 %
979 19-11-2019 19:09:17 1.4 C 41 %
980 19-11-2019 19:19:17 1.4 C 42 %
981 19-11-2019 19:29:17 1.5 C 42 %
982 19-11-2019 19:39:17 1.2 C 42 %
983 19-11-2019 19:49:17 1 C 42 %
984 19-11-2019 19:59:17 0.6 C 43 %
985 19-11-2019 20:09:17 0.9 C 44 %
986 19-11-2019 20:19:17 1.5 C 43 %
987 19-11-2019 20:29:17 1.8 C 43 %
988 19-11-2019 20:39:17 1.9 C 43 %
989 19-11-2019 20:49:17 1.9 C 43 %
990 19-11-2019 20:59:17 1.9 C 43 %
991 19-11-2019 21:09:17 1.9 C 43 %
992 19-11-2019 21:19:17 1.9 C 43 %
993 19-11-2019 21:29:17 1.9 C 42 %
994 19-11-2019 21:39:17 2 C 41 %
995 19-11-2019 21:49:17 2 C 41 %
996 19-11-2019 21:59:17 1.9 C 42 %
997 19-11-2019 22:09:17 1.7 C 42 %
998 19-11-2019 22:19:17 1.5 C 41 %
999 19-11-2019 22:29:17 1.4 C 41 %
1000 19-11-2019 22:39:17 1.1 C 41 %
Sensor: Nr:Datum:Temp:Feuchte:
Aussen-T/F 1001 19-11-2019 22:49:17 0.6 C 41 %
1002 19-11-2019 22:59:17 0.6 C 42 %
1003 19-11-2019 23:09:17 -0.1 C 42 %
1004 19-11-2019 23:19:17 -0.2 C 42 %
1005 19-11-2019 23:29:17 -0.4 C 42 %
1006 19-11-2019 23:39:17 -0.5 C 42 %
1007 19-11-2019 23:49:17 -0.5 C 42 %
1008 19-11-2019 23:59:17 -0.6 C 42 %
1009 20-11-2019 00:09:17 -0.7 C 42 %
1010 20-11-2019 00:19:17 -0.6 C 42 %
1011 20-11-2019 00:29:17 -0.5 C 42 %
1012 20-11-2019 00:39:17 -0.7 C 42 %
1013 20-11-2019 00:49:17 -0.7 C 43 %
1014 20-11-2019 00:59:17 -0.8 C 42 %
1015 20-11-2019 01:09:17 -0.8 C 42 %
1016 20-11-2019 01:19:17 -1.1 C 42 %
1017 20-11-2019 01:29:17 -1.1 C 42 %
1018 20-11-2019 01:39:17 -0.7 C 43 %
1019 20-11-2019 01:49:17 -0.6 C 43 %
1020 20-11-2019 01:59:17 -0.5 C 43 %
1021 20-11-2019 02:09:17 -0.4 C 43 %
1022 20-11-2019 02:19:17 -0.4 C 43 %
1023 20-11-2019 02:29:17 -0.5 C 43 %
1024 20-11-2019 02:39:17 -0.5 C 43 %
1025 20-11-2019 02:49:17 -0.4 C 43 %
Sensor: Nr:Datum:Temp:Feuchte:
Aussen-T/F 1026 20-11-2019 02:59:17 -0.4 C 43 %
1027 20-11-2019 03:09:17 -0.3 C 43 %
1028 20-11-2019 03:19:17 -0.3 C 43 %
1029 20-11-2019 03:29:17 -0.4 C 43 %
1030 20-11-2019 03:39:17 -0.5 C 43 %
1031 20-11-2019 03:49:17 -0.5 C 43 %
1032 20-11-2019 03:59:17 -0.7 C 43 %
1033 20-11-2019 04:09:17 -0.6 C 43 %
1034 20-11-2019 04:19:17 -0.5 C 43 %
1035 20-11-2019 04:29:17 -0.6 C 42 %
1036 20-11-2019 04:39:17 -0.5 C 42 %
1037 20-11-2019 04:49:17 -0.5 C 42 %
1038 20-11-2019 04:59:17 -0.4 C 42 %
1039 20-11-2019 05:09:17 -0.3 C 42 %
1040 20-11-2019 05:19:17 -0.3 C 42 %
1041 20-11-2019 05:29:17 -0.3 C 42 %
1042 20-11-2019 05:39:17 -0.3 C 42 %
1043 20-11-2019 05:49:17 -0.3 C 42 %
1044 20-11-2019 05:59:17 -0.2 C 42 %
1045 20-11-2019 06:09:17 -0.1 C 42 %
1046 20-11-2019 06:19:17 -0.1 C 42 %
1047 20-11-2019 06:29:17 0 C 42 %
1048 20-11-2019 06:39:17 0 C 42 %
1049 20-11-2019 06:49:17 0 C 42 %
1050 20-11-2019 06:59:17 0.2 C 42 %
Sensor: Nr:Datum:Temp:Feuchte:
Aussen-T/F 1051 20-11-2019 07:09:17 0.2 C 42 %
1052 20-11-2019 07:19:17 0.2 C 42 %
1053 20-11-2019 07:29:17 0.4 C 42 %
1054 20-11-2019 07:39:18 0.3 C 42 %
1055 20-11-2019 07:49:17 0.4 C 42 %
1056 20-11-2019 07:59:17 0.4 C 42 %
1057 20-11-2019 08:09:17 0.4 C 42 %
1058 20-11-2019 08:19:17 0.5 C 42 %
1059 20-11-2019 08:29:17 0.6 C 42 %
1060 20-11-2019 08:39:17 0.7 C 43 %
1061 20-11-2019 08:49:17 0.8 C 43 %
1062 20-11-2019 08:59:17 0.9 C 43 %
1063 20-11-2019 09:09:17 1.1 C 42 %
1064 20-11-2019 09:19:17 1 C 42 %
1065 20-11-2019 09:29:17 1.2 C 42 %
1066 20-11-2019 09:39:17 1.6 C 42 %
1067 20-11-2019 09:49:17 1.7 C 42 %
1068 20-11-2019 09:59:17 2 C 41 %
1069 20-11-2019 10:09:17 2.1 C 41 %
1070 20-11-2019 10:19:17 2.4 C 41 %
1071 20-11-2019 10:29:17 2.9 C 41 %
1072 20-11-2019 10:39:17 3 C 39 %
1073 20-11-2019 10:49:17 2.6 C 39 %
1074 20-11-2019 10:59:17 2.5 C 38 %
1075 20-11-2019 11:09:17 2.6 C 38 %
Sensor: Nr:Datum:Temp:Feuchte:
Aussen-T/F 1076 20-11-2019 11:19:17 3.3 C 38 %
1077 20-11-2019 11:29:17 3.3 C 37 %
1078 20-11-2019 11:39:17 3 C 35 %
1079 20-11-2019 11:49:17 3.7 C 35 %
1080 20-11-2019 11:59:17 4.3 C 31 %
1081 20-11-2019 12:09:17 3.9 C 30 %
1082 20-11-2019 12:19:17 4.3 C 30 %
1083 20-11-2019 12:29:17 4.5 C 30 %
1084 20-11-2019 12:39:17 4.5 C 27 %
1085 20-11-2019 12:49:17 4.6 C 26 %
1086 20-11-2019 12:59:17 4.5 C 26 %
1087 20-11-2019 13:09:17 4.7 C 25 %
1088 20-11-2019 13:19:17 4.5 C 23 %
1089 20-11-2019 13:29:17 4.4 C 23 %
1090 20-11-2019 13:39:17 4.7 C 20 %
1091 20-11-2019 13:49:17 5.1 C 20 %
1092 20-11-2019 13:59:17 4.8 C 20 %
1093 20-11-2019 14:09:17 4.8 C 20 %
1094 20-11-2019 14:19:17 4.8 C 20 %
1095 20-11-2019 14:29:17 4.7 C 20 %
1096 20-11-2019 14:39:17 4.7 C 20 %
1097 20-11-2019 14:49:17 4.7 C 20 %
1098 20-11-2019 14:59:17 4.7 C 20 %
1099 20-11-2019 15:09:17 4.7 C 20 %
1100 20-11-2019 15:19:17 4.7 C 20 %
Sensor: Nr:Datum:Temp:Feuchte:
Aussen-T/F 1101 20-11-2019 15:29:17 4.6 C 20 %
1102 20-11-2019 15:39:17 4.5 C 20 %
1103 20-11-2019 15:49:17 4.3 C 21 %
1104 20-11-2019 15:59:17 3.4 C 26 %
1105 20-11-2019 16:09:17 2.7 C 28 %
1106 20-11-2019 16:19:17 2.2 C 29 %
1107 20-11-2019 16:29:17 1.8 C 30 %
1108 20-11-2019 16:39:17 1.8 C 30 %
1109 20-11-2019 16:49:17 1.5 C 32 %
1110 20-11-2019 16:59:17 1.5 C 32 %
1111 20-11-2019 17:09:17 1.7 C 32 %
1112 20-11-2019 17:19:17 1.8 C 34 %
1113 20-11-2019 17:29:17 1.7 C 35 %
1114 20-11-2019 17:39:17 0.9 C 35 %
1115 20-11-2019 17:49:17 0.5 C 38 %
1116 20-11-2019 17:59:17 0.6 C 40 %
1117 20-11-2019 18:09:17 0.3 C 40 %
1118 20-11-2019 18:19:17 0.2 C 41 %
1119 20-11-2019 18:29:17 0.1 C 40 %
1120 20-11-2019 18:39:17 0 C 41 %
1121 20-11-2019 18:49:17 -0.2 C 41 %
1122 20-11-2019 18:59:17 -0.7 C 41 %
1123 20-11-2019 19:09:17 -0.9 C 41 %
1124 20-11-2019 19:19:17 -1.1 C 41 %
1125 20-11-2019 19:29:17 -1.2 C 41 %
Sensor: Nr:Datum:Temp:Feuchte:
Aussen-T/F 1126 20-11-2019 19:39:18 -1.2 C 42 %
1127 20-11-2019 19:49:18 -1.4 C 42 %
1128 20-11-2019 19:59:18 -1.5 C 42 %
1129 20-11-2019 20:09:18 -1.6 C 42 %
1130 20-11-2019 20:19:17 -1.7 C 42 %
1131 20-11-2019 20:29:17 -1.4 C 43 %
1132 20-11-2019 20:39:17 -1.4 C 43 %
1133 20-11-2019 20:59:17 -1.7 C 43 %
1134 20-11-2019 20:59:17 -1.8 C 43 %
1135 20-11-2019 21:09:17 -1.8 C 42 %
1136 20-11-2019 21:19:17 -2 C 42 %
1137 20-11-2019 21:29:17 -2.1 C 42 %
1138 20-11-2019 21:39:17 -2.1 C 42 %
1139 20-11-2019 21:49:17 -2.3 C 42 %
1140 20-11-2019 21:59:17 -2.1 C 42 %
1141 20-11-2019 22:09:17 -2 C 43 %
1142 20-11-2019 22:19:17 -2.1 C 42 %
1143 20-11-2019 22:29:17 -2.2 C 42 %
1144 20-11-2019 22:39:17 -2.1 C 42 %
1145 20-11-2019 22:49:17 -1.8 C 43 %
1146 20-11-2019 22:59:17 -1.7 C 43 %
1147 20-11-2019 23:09:17 -1.6 C 43 %
1148 20-11-2019 23:19:17 -1.4 C 43 %
1149 20-11-2019 23:29:17 -1.6 C 43 %
1150 20-11-2019 23:39:17 -1.3 C 43 %
Sensor: Nr:Datum:Temp:Feuchte:
Aussen-T/F 1151 20-11-2019 23:49:17 -1.1 C 43 %
1152 20-11-2019 23:59:17 -1.1 C 43 %
1153 21-11-2019 00:09:17 -1.3 C 43 %
1154 21-11-2019 00:29:17 -1.8 C 42 %
1155 21-11-2019 00:30:17 -1.9 C 42 %
1156 21-11-2019 00:39:17 -2 C 41 %
1157 21-11-2019 00:50:17 -2.1 C 41 %
1158 21-11-2019 01:00:17 -2.4 C 41 %
1159 21-11-2019 01:10:17 -2.4 C 41 %
1160 21-11-2019 01:20:17 -2.5 C 41 %
1161 21-11-2019 01:30:17 -2.3 C 41 %
1162 21-11-2019 01:40:17 -2.7 C 40 %
1163 21-11-2019 01:50:17 -2.6 C 41 %
1164 21-11-2019 02:00:17 -2.6 C 40 %
1165 21-11-2019 02:10:17 -2.7 C 40 %
1166 21-11-2019 02:20:17 -2.2 C 42 %
1167 21-11-2019 02:30:17 -2.3 C 42 %
1168 21-11-2019 02:40:17 -1.9 C 42 %
1169 21-11-2019 02:50:17 -2.1 C 42 %
1170 21-11-2019 03:00:17 -2.2 C 41 %
1171 21-11-2019 03:10:17 -2.4 C 41 %
1172 21-11-2019 03:20:17 -2.3 C 41 %
1173 21-11-2019 03:30:17 -2.1 C 42 %
1174 21-11-2019 03:40:17 -1.8 C 42 %
1175 21-11-2019 03:50:17 -1.6 C 42 %
Sensor: Nr:Datum:Temp:Feuchte:
Aussen-T/F 1176 21-11-2019 04:00:17 -1.5 C 42 %
1177 21-11-2019 04:10:17 -1.3 C 43 %
1178 21-11-2019 04:20:17 -1.1 C 43 %
1179 21-11-2019 04:30:17 -1 C 43 %
1180 21-11-2019 04:40:17 -1 C 43 %
1181 21-11-2019 04:50:17 -1 C 43 %
1182 21-11-2019 05:00:17 -1 C 43 %
1183 21-11-2019 05:10:17 -0.7 C 43 %
1184 21-11-2019 05:20:17 -0.6 C 43 %
1185 21-11-2019 05:30:17 -0.6 C 43 %
1186 21-11-2019 05:40:17 -0.5 C 43 %
1187 21-11-2019 05:50:17 -0.4 C 43 %
1188 21-11-2019 06:00:17 -0.3 C 43 %
1189 21-11-2019 06:10:17 -0.3 C 43 %
1190 21-11-2019 06:20:17 -0.3 C 43 %
1191 21-11-2019 06:30:17 -0.3 C 43 %
1192 21-11-2019 06:40:17 -0.3 C 43 %
1193 21-11-2019 06:50:17 -0.2 C 43 %
1194 21-11-2019 07:00:17 -0.2 C 43 %
1195 21-11-2019 07:10:17 -0.2 C 43 %
1196 21-11-2019 07:20:17 -0.1 C 43 %
1197 21-11-2019 07:30:17 -0.2 C 43 %
1198 21-11-2019 07:40:17 -0.2 C 43 %
1199 21-11-2019 07:50:17 -0.1 C 43 %
1200 21-11-2019 08:00:17 -0.1 C 43 %
Sensor: Nr:Datum:Temp:Feuchte:
Aussen-T/F 1201 21-11-2019 08:10:17 0 C 43 %
1202 21-11-2019 08:20:17 0 C 43 %
1203 21-11-2019 08:30:17 0.1 C 43 %
1204 21-11-2019 08:40:17 0.2 C 43 %
1205 21-11-2019 08:50:17 0.2 C 43 %
1206 21-11-2019 09:00:17 0.2 C 43 %
1207 21-11-2019 09:10:17 0.3 C 43 %
1208 21-11-2019 09:20:17 0.4 C 43 %
1209 21-11-2019 09:30:17 0.6 C 43 %
1210 21-11-2019 09:40:17 0.8 C 43 %
1211 21-11-2019 09:50:17 1.1 C 42 %
1212 21-11-2019 10:00:17 1.1 C 41 %
1213 21-11-2019 10:10:17 1.2 C 40 %
1214 21-11-2019 10:20:17 1.6 C 40 %
1215 21-11-2019 10:30:17 1.5 C 39 %
1216 21-11-2019 10:40:17 1.5 C 39 %
1217 21-11-2019 10:50:17 1.7 C 38 %
1218 21-11-2019 11:00:17 2.1 C 37 %
1219 21-11-2019 11:10:17 2.2 C 37 %
1220 21-11-2019 11:20:17 2.3 C 34 %
1221 21-11-2019 11:30:17 2.5 C 33 %
1222 21-11-2019 11:40:17 2.7 C 33 %
1223 21-11-2019 11:50:17 3 C 32 %
1224 21-11-2019 12:00:17 2.8 C 32 %
1225 21-11-2019 12:10:17 2.5 C 33 %
Sensor: Nr:Datum:Temp:Feuchte:
Aussen-T/F 1226 21-11-2019 12:20:17 2.6 C 34 %
1227 21-11-2019 12:30:18 2.8 C 35 %
1228 21-11-2019 12:40:18 3.1 C 35 %
1229 21-11-2019 12:50:18 3.3 C 34 %
1230 21-11-2019 13:00:17 3.1 C 31 %
1231 21-11-2019 13:10:17 3.7 C 34 %
1232 21-11-2019 13:20:17 3.9 C 31 %
1233 21-11-2019 13:30:17 4.1 C 32 %
1234 21-11-2019 13:40:17 4 C 31 %
1235 21-11-2019 13:50:17 3.9 C 32 %
1236 21-11-2019 14:00:17 3.9 C 31 %
1237 21-11-2019 14:10:17 3.9 C 30 %
1238 21-11-2019 14:20:17 4.2 C 31 %
1239 21-11-2019 14:30:17 4.4 C 31 %
1240 21-11-2019 14:40:17 4.4 C 30 %
1241 21-11-2019 14:50:17 4.1 C 29 %
1242 21-11-2019 15:00:17 4.1 C 30 %
1243 21-11-2019 15:10:17 4.2 C 29 %
1244 21-11-2019 15:20:17 4.4 C 30 %
1245 21-11-2019 15:30:17 4.3 C 30 %
1246 21-11-2019 15:40:17 4.2 C 29 %
1247 21-11-2019 15:50:17 4.3 C 30 %
1248 21-11-2019 16:00:17 4.3 C 30 %
1249 21-11-2019 16:10:17 4.2 C 31 %
1250 21-11-2019 16:20:17 4 C 33 %
Sensor: Nr:Datum:Temp:Feuchte:
Aussen-T/F 1251 21-11-2019 16:30:17 3.9 C 36 %
1252 21-11-2019 16:40:17 3.7 C 37 %
1253 21-11-2019 16:50:17 3.7 C 39 %
1254 21-11-2019 17:00:17 3.6 C 39 %
1255 21-11-2019 17:10:17 3.6 C 38 %
1256 21-11-2019 17:20:17 3.5 C 39 %
1257 21-11-2019 17:30:17 3.4 C 39 %
1258 21-11-2019 17:40:17 3.4 C 39 %
1259 21-11-2019 17:50:17 3.3 C 39 %
1260 21-11-2019 18:00:17 3.3 C 39 %
1261 21-11-2019 18:10:17 3.3 C 39 %
1262 21-11-2019 18:20:17 3.3 C 38 %
1263 21-11-2019 18:30:17 3.3 C 39 %
1264 21-11-2019 18:40:17 3.4 C 39 %
1265 21-11-2019 18:50:17 3.3 C 40 %
1266 21-11-2019 19:00:17 3.3 C 40 %
1267 21-11-2019 19:10:17 3.2 C 40 %
1268 21-11-2019 19:20:17 3 C 39 %
1269 21-11-2019 19:30:17 3 C 40 %
1270 21-11-2019 19:40:17 3.1 C 41 %
1271 21-11-2019 19:50:17 2.9 C 41 %
1272 21-11-2019 20:00:17 2.5 C 40 %
1273 21-11-2019 20:10:17 2 C 40 %
1274 21-11-2019 20:20:17 1.9 C 42 %
1275 21-11-2019 20:30:17 2.1 C 42 %
Sensor: Nr:Datum:Temp:Feuchte:
Aussen-T/F 1276 21-11-2019 20:40:17 1.6 C 42 %
1277 21-11-2019 20:50:17 1.5 C 42 %
1278 21-11-2019 21:00:17 1.6 C 43 %
1279 21-11-2019 21:10:17 1.6 C 43 %
1280 21-11-2019 21:20:17 1.3 C 43 %
1281 21-11-2019 21:30:17 1.3 C 43 %
1282 21-11-2019 21:40:17 1.5 C 43 %
1283 21-11-2019 21:50:17 1.2 C 43 %
1284 21-11-2019 22:00:17 1 C 42 %
1285 21-11-2019 22:10:17 0.8 C 44 %
1286 21-11-2019 22:20:17 1.2 C 43 %
1287 21-11-2019 22:30:17 0.9 C 44 %
1288 21-11-2019 22:40:17 0.8 C 44 %
1289 21-11-2019 22:50:17 1 C 43 %
1290 21-11-2019 23:00:17 1.1 C 43 %
1291 21-11-2019 23:10:17 1.4 C 43 %
1292 21-11-2019 23:20:17 1 C 43 %
1293 21-11-2019 23:30:17 1 C 43 %
1294 21-11-2019 23:40:17 1.5 C 43 %
1295 21-11-2019 23:50:17 1.5 C 43 %
1296 22-11-2019 00:00:17 1.3 C 43 %
1297 22-11-2019 00:10:17 1.3 C 43 %
1298 22-11-2019 00:20:17 1.3 C 43 %
1299 22-11-2019 00:30:17 1.3 C 43 %
1300 22-11-2019 00:40:17 1 C 42 %
Sensor: Nr:Datum:Temp:Feuchte:
Aussen-T/F 1301 22-11-2019 00:50:17 1.1 C 42 %
1302 22-11-2019 01:00:17 1 C 42 %
1303 22-11-2019 01:10:17 1.2 C 43 %
1304 22-11-2019 01:20:17 0.9 C 43 %
1305 22-11-2019 01:30:17 1 C 42 %
1306 22-11-2019 01:40:17 1 C 42 %
1307 22-11-2019 01:50:17 0.6 C 43 %
1308 22-11-2019 02:00:17 0.4 C 43 %
1309 22-11-2019 02:10:17 0 C 42 %
1310 22-11-2019 02:20:17 1 C 42 %
1311 22-11-2019 02:30:17 0.8 C 44 %
1312 22-11-2019 02:40:17 0.7 C 43 %
1313 22-11-2019 02:50:17 0.5 C 43 %
1314 22-11-2019 03:00:17 0.6 C 43 %
1315 22-11-2019 03:10:17 0.8 C 44 %
1316 22-11-2019 03:20:17 0.8 C 43 %
1317 22-11-2019 03:30:17 0.6 C 43 %
1318 22-11-2019 03:40:17 0.7 C 43 %
1319 22-11-2019 03:50:17 1.1 C 42 %
1320 22-11-2019 04:00:17 1.1 C 42 %
1321 22-11-2019 04:10:17 1.1 C 42 %
1322 22-11-2019 04:20:17 1.2 C 42 %
1323 22-11-2019 04:30:17 1.3 C 42 %
1324 22-11-2019 04:40:17 1.3 C 42 %
1325 22-11-2019 04:50:17 1.2 C 42 %
Sensor: Nr:Datum:Temp:Feuchte:
Aussen-T/F 1326 22-11-2019 05:00:18 1.4 C 42 %
1327 22-11-2019 05:10:18 1.6 C 42 %
1328 22-11-2019 05:20:17 1.9 C 42 %
1329 22-11-2019 05:30:17 2.1 C 41 %
1330 22-11-2019 05:40:17 2.2 C 41 %
1331 22-11-2019 05:50:17 2.6 C 41 %
1332 22-11-2019 06:00:18 2.5 C 41 %
1333 22-11-2019 06:10:18 2.8 C 41 %
1334 22-11-2019 06:20:18 2.6 C 41 %
1335 22-11-2019 06:30:18 2.7 C 41 %
1336 22-11-2019 06:40:18 2.9 C 41 %
1337 22-11-2019 06:50:18 3 C 41 %
1338 22-11-2019 07:00:17 3 C 41 %
1339 22-11-2019 07:10:17 3 C 41 %
1340 22-11-2019 07:20:17 3.1 C 41 %
1341 22-11-2019 07:30:17 3.2 C 41 %
1342 22-11-2019 07:40:17 3.4 C 41 %
1343 22-11-2019 07:50:17 3.4 C 41 %
1344 22-11-2019 08:00:17 3.4 C 41 %
1345 22-11-2019 08:10:17 3.5 C 41 %
1346 22-11-2019 08:20:17 3.7 C 41 %
1347 22-11-2019 08:30:17 3.8 C 41 %
1348 22-11-2019 08:40:17 3.7 C 41 %
1349 22-11-2019 08:50:17 3.7 C 41 %
1350 22-11-2019 09:00:17 3.9 C 41 %
Sensor: Nr:Datum:Temp:Feuchte:
Aussen-T/F 1351 22-11-2019 09:10:17 3.9 C 40 %
1352 22-11-2019 09:20:17 4 C 39 %
1353 22-11-2019 09:30:17 3.8 C 39 %
1354 22-11-2019 09:40:17 3.7 C 39 %
1355 22-11-2019 09:50:17 3.5 C 39 %
1356 22-11-2019 10:00:17 3.3 C 39 %
1357 22-11-2019 10:10:17 3.5 C 40 %
1358 22-11-2019 10:20:17 3.5 C 39 %
1359 22-11-2019 10:30:17 3.6 C 40 %
1360 22-11-2019 10:40:17 4.1 C 39 %
1361 22-11-2019 10:50:17 4.3 C 39 %
1362 22-11-2019 11:00:17 4.2 C 38 %
1363 22-11-2019 11:10:17 4.4 C 38 %
1364 22-11-2019 11:20:17 4.5 C 37 %
1365 22-11-2019 11:30:17 5 C 35 %
1366 22-11-2019 11:40:17 5.3 C 33 %
1367 22-11-2019 11:50:17 5.3 C 32 %
1368 22-11-2019 12:00:17 5.6 C 32 %
1369 22-11-2019 12:10:17 5.5 C 32 %
1370 22-11-2019 12:20:17 5.6 C 32 %
1371 22-11-2019 12:30:17 5.6 C 32 %
1372 22-11-2019 12:40:17 5.8 C 32 %
1373 22-11-2019 12:50:17 5.8 C 31 %
1374 22-11-2019 13:00:17 5.7 C 30 %
1375 22-11-2019 13:10:17 5.9 C 31 %
Sensor: Nr:Datum:Temp:Feuchte:
Aussen-T/F 1376 22-11-2019 13:20:17 6 C 30 %
1377 22-11-2019 13:30:17 5.7 C 29 %
1378 22-11-2019 13:40:17 5.5 C 29 %
1379 22-11-2019 13:50:17 5.5 C 29 %
1380 22-11-2019 14:00:17 5.5 C 29 %
1381 22-11-2019 14:10:17 5.7 C 29 %
1382 22-11-2019 14:20:17 5.7 C 28 %
1383 22-11-2019 14:30:17 5.9 C 28 %
1384 22-11-2019 14:40:17 5.8 C 27 %
1385 22-11-2019 14:50:17 5.8 C 28 %
1386 22-11-2019 15:00:17 5.6 C 28 %
1387 22-11-2019 15:10:17 5.6 C 28 %
1388 22-11-2019 15:20:17 5.6 C 29 %
1389 22-11-2019 15:30:17 5.5 C 28 %
1390 22-11-2019 15:40:17 5.4 C 29 %
1391 22-11-2019 15:50:17 5.4 C 29 %
1392 22-11-2019 16:00:17 5.3 C 29 %
1393 22-11-2019 16:10:17 5.3 C 30 %
1394 22-11-2019 16:20:17 5.2 C 30 %
1395 22-11-2019 16:30:17 5.2 C 30 %
1396 22-11-2019 16:40:17 5.1 C 31 %
1397 22-11-2019 16:50:17 5 C 31 %
1398 22-11-2019 17:00:17 4.9 C 32 %
1399 22-11-2019 17:10:17 4.9 C 33 %
1400 22-11-2019 17:20:17 4.8 C 34 %
Sensor: Nr:Datum:Temp:Feuchte:
Aussen-T/F 1401 22-11-2019 17:30:17 4.9 C 33 %
1402 22-11-2019 17:40:17 4.9 C 32 %
1403 22-11-2019 17:50:17 5 C 31 %
1404 22-11-2019 18:00:17 5 C 30 %
1405 22-11-2019 18:10:17 4.8 C 32 %
1406 22-11-2019 18:20:17 4.7 C 34 %
1407 22-11-2019 18:30:17 4.8 C 33 %
1408 22-11-2019 18:40:17 4.8 C 32 %
1409 22-11-2019 18:50:17 4.8 C 32 %
1410 22-11-2019 19:00:17 4.8 C 31 %
1411 22-11-2019 19:10:17 4.7 C 32 %
1412 22-11-2019 19:20:17 4.8 C 30 %
1413 22-11-2019 19:30:17 4.8 C 30 %
1414 22-11-2019 19:40:17 4.8 C 30 %
1415 22-11-2019 19:50:17 4.7 C 31 %
1416 22-11-2019 20:00:17 4.6 C 31 %
1417 22-11-2019 20:10:17 4.6 C 30 %
1418 22-11-2019 20:20:17 4.6 C 30 %
1419 22-11-2019 20:30:17 4.5 C 30 %
1420 22-11-2019 20:40:17 4.5 C 30 %
1421 22-11-2019 20:50:17 4.3 C 30 %
1422 22-11-2019 21:00:17 4.3 C 30 %
1423 22-11-2019 21:10:17 4.4 C 31 %
1424 22-11-2019 21:20:17 4.3 C 31 %
1425 22-11-2019 21:30:17 4.3 C 31 %
Sensor: Nr:Datum:Temp:Feuchte:
Aussen-T/F 1426 22-11-2019 21:40:17 4.3 C 31 %
1427 22-11-2019 21:50:17 4.3 C 30 %
1428 22-11-2019 22:00:17 4.2 C 31 %
1429 22-11-2019 22:10:17 4.2 C 31 %
1430 22-11-2019 22:20:17 4.2 C 30 %
1431 22-11-2019 22:30:17 4.2 C 30 %
1432 22-11-2019 22:40:17 4.2 C 29 %
1433 22-11-2019 22:50:17 4.1 C 30 %
1434 22-11-2019 23:00:17 4 C 30 %
1435 22-11-2019 23:10:17 4.1 C 28 %
1436 22-11-2019 23:20:17 4 C 30 %
1437 22-11-2019 23:30:17 4 C 30 %
1438 22-11-2019 23:40:17 4 C 30 %
1439 22-11-2019 23:50:17 3.9 C 31 %
1440 23-11-2019 00:00:17 4 C 29 %
1441 23-11-2019 00:10:17 4 C 29 %
1442 23-11-2019 00:20:17 4 C 29 %
1443 23-11-2019 00:30:17 4 C 29 %
1444 23-11-2019 00:40:17 4 C 28 %
1445 23-11-2019 00:50:17 4 C 29 %
1446 23-11-2019 01:00:17 4.1 C 28 %
1447 23-11-2019 01:10:17 4.2 C 27 %
1448 23-11-2019 01:20:17 4.1 C 29 %
1449 23-11-2019 01:30:17 4 C 30 %
1450 23-11-2019 01:40:17 4.1 C 29 %
Sensor: Nr:Datum:Temp:Feuchte:
Aussen-T/F 1451 23-11-2019 01:50:17 4 C 29 %
1452 23-11-2019 02:00:17 4.1 C 27 %
1453 23-11-2019 02:10:17 4.1 C 27 %
1454 23-11-2019 02:20:17 4 C 30 %
1455 23-11-2019 02:30:18 3.8 C 32 %
1456 23-11-2019 02:40:18 3.7 C 32 %
1457 23-11-2019 02:50:17 3.6 C 32 %
1458 23-11-2019 03:00:17 3.6 C 33 %
1459 23-11-2019 03:10:17 3.7 C 32 %
1460 23-11-2019 03:20:17 3.8 C 31 %
1461 23-11-2019 03:30:17 3.7 C 32 %
1462 23-11-2019 03:40:17 3.5 C 33 %
1463 23-11-2019 03:50:17 3.2 C 34 %
1464 23-11-2019 04:00:17 3.2 C 35 %
1465 23-11-2019 04:10:17 3.1 C 38 %
1466 23-11-2019 04:20:17 3.3 C 36 %
1467 23-11-2019 04:30:17 3 C 36 %
1468 23-11-2019 04:40:17 3 C 37 %
1469 23-11-2019 04:50:17 3 C 37 %
1470 23-11-2019 05:00:17 3 C 38 %
1471 23-11-2019 05:10:17 3 C 39 %
1472 23-11-2019 05:20:17 2.7 C 39 %
1473 23-11-2019 05:30:17 2.9 C 40 %
1474 23-11-2019 05:40:17 2.8 C 40 %
1475 23-11-2019 05:50:17 2.9 C 40 %
Sensor: Nr:Datum:Temp:Feuchte:
Aussen-T/F 1476 23-11-2019 06:00:17 3 C 39 %
1477 23-11-2019 06:10:17 3 C 39 %
1478 23-11-2019 06:20:17 3 C 39 %
1479 23-11-2019 06:30:17 3 C 40 %
1480 23-11-2019 06:40:17 3.1 C 40 %
1481 23-11-2019 06:50:17 3 C 40 %
1482 23-11-2019 07:00:17 3.2 C 40 %
1483 23-11-2019 07:10:17 3.2 C 39 %
1484 23-11-2019 07:20:17 3.3 C 40 %
1485 23-11-2019 07:30:17 3.2 C 39 %
1486 23-11-2019 07:40:17 3.3 C 40 %
1487 23-11-2019 07:50:17 3.2 C 40 %
1488 23-11-2019 08:00:17 3.3 C 39 %
1489 23-11-2019 08:10:17 3.3 C 40 %
1490 23-11-2019 08:20:17 3.2 C 40 %
1491 23-11-2019 08:30:17 3.3 C 40 %
1492 23-11-2019 08:40:17 3.4 C 40 %
1493 23-11-2019 08:50:17 3.8 C 37 %
1494 23-11-2019 09:00:17 4.2 C 33 %
1495 23-11-2019 09:10:17 4.3 C 33 %
1496 23-11-2019 09:20:17 4.5 C 33 %
1497 23-11-2019 09:30:17 4.9 C 31 %
1498 23-11-2019 09:40:17 5.1 C 31 %
1499 23-11-2019 09:50:17 5.4 C 27 %
1500 23-11-2019 10:00:17 5.4 C 26 %
Sensor: Nr:Datum:Temp:Feuchte:
Aussen-T/F 1501 23-11-2019 10:10:17 5.7 C 26 %
1502 23-11-2019 10:20:17 6 C 26 %
1503 23-11-2019 10:30:17 6 C 25 %
1504 23-11-2019 10:40:17 6.1 C 26 %
1505 23-11-2019 10:50:17 6.2 C 25 %
1506 23-11-2019 11:00:17 6.4 C 25 %
1507 23-11-2019 11:10:17 6.6 C 25 %
1508 23-11-2019 11:20:17 6.7 C 25 %
1509 23-11-2019 11:30:17 7.1 C 21 %
1510 23-11-2019 11:40:17 7.1 C 23 %
1511 23-11-2019 11:50:17 7 C 25 %
1512 23-11-2019 12:00:17 6.4 C 28 %
1513 23-11-2019 12:10:17 6.4 C 28 %
1514 23-11-2019 12:20:17 6.5 C 27 %
1515 23-11-2019 12:30:17 6.5 C 28 %
1516 23-11-2019 12:40:17 6.5 C 29 %
1517 23-11-2019 12:50:17 7.3 C 25 %
1518 23-11-2019 13:00:17 7.3 C 25 %
1519 23-11-2019 13:10:17 6.7 C 28 %
1520 23-11-2019 13:20:17 6.8 C 29 %
1521 23-11-2019 13:30:17 6.6 C 29 %
1522 23-11-2019 13:40:17 6.6 C 30 %
1523 23-11-2019 13:50:17 6.6 C 30 %
1524 23-11-2019 14:00:17 6.6 C 30 %
1525 23-11-2019 14:10:17 6.8 C 30 %
Sensor: Nr:Datum:Temp:Feuchte:
Aussen-T/F 1526 23-11-2019 14:20:17 7 C 29 %
1527 23-11-2019 14:30:17 7.2 C 27 %
1528 23-11-2019 14:40:17 7.1 C 28 %
1529 23-11-2019 14:50:17 7.2 C 28 %
1530 23-11-2019 15:00:17 7.7 C 26 %
1531 23-11-2019 15:10:17 8.1 C 26 %
1532 23-11-2019 15:20:17 8.4 C 23 %
1533 23-11-2019 15:30:17 8.4 C 25 %
1534 23-11-2019 15:40:17 8.1 C 25 %
1535 23-11-2019 15:50:17 7.5 C 26 %
1536 23-11-2019 16:00:17 7.5 C 26 %
1537 23-11-2019 16:10:17 7.3 C 25 %
1538 23-11-2019 16:20:17 7.3 C 25 %
1539 23-11-2019 16:30:17 6.5 C 28 %
1540 23-11-2019 16:40:17 5.9 C 31 %
1541 23-11-2019 16:50:17 5.7 C 32 %
1542 23-11-2019 17:00:17 5.7 C 32 %
1543 23-11-2019 17:10:17 5.8 C 31 %
1544 23-11-2019 17:20:17 5.6 C 32 %
1545 23-11-2019 17:30:17 5.5 C 33 %
1546 23-11-2019 17:40:17 5.3 C 32 %
1547 23-11-2019 17:50:17 5.3 C 33 %
1548 23-11-2019 18:00:17 5.3 C 33 %
1549 23-11-2019 18:10:17 5 C 34 %
1550 23-11-2019 18:20:17 5.3 C 34 %
Sensor: Nr:Datum:Temp:Feuchte:
Aussen-T/F 1551 23-11-2019 18:30:17 5.3 C 34 %
1552 23-11-2019 18:40:17 5.3 C 34 %
1553 23-11-2019 18:50:17 4.9 C 36 %
1554 23-11-2019 19:00:17 5.1 C 35 %
1555 23-11-2019 19:10:17 5 C 36 %
1556 23-11-2019 19:20:17 5 C 36 %
1557 23-11-2019 19:30:17 5 C 36 %
1558 23-11-2019 19:40:17 4.7 C 36 %
1559 23-11-2019 19:50:17 4.7 C 38 %
1560 23-11-2019 20:00:17 4.5 C 40 %
1561 23-11-2019 20:10:17 4.2 C 39 %
1562 23-11-2019 20:20:17 4.1 C 40 %
1563 23-11-2019 20:30:17 3.6 C 40 %
1564 23-11-2019 20:40:18 3.6 C 40 %
1565 23-11-2019 20:50:17 3.6 C 42 %
1566 23-11-2019 21:00:17 3.6 C 42 %
1567 23-11-2019 21:10:17 3.5 C 42 %
1568 23-11-2019 21:20:17 3.3 C 41 %
1569 23-11-2019 21:30:17 3.2 C 41 %
1570 23-11-2019 21:40:17 3.2 C 42 %
1571 23-11-2019 21:50:17 3.2 C 42 %
1572 23-11-2019 22:00:17 3.1 C 42 %
1573 23-11-2019 22:10:17 2.8 C 42 %
1574 23-11-2019 22:20:17 2.6 C 42 %
1575 23-11-2019 22:30:17 2.7 C 42 %
Sensor: Nr:Datum:Temp:Feuchte:
Aussen-T/F 1576 23-11-2019 22:40:17 2.6 C 42 %
1577 23-11-2019 22:50:17 2.6 C 42 %
1578 23-11-2019 23:00:17 2.5 C 42 %
1579 23-11-2019 23:10:17 2.2 C 42 %
1580 23-11-2019 23:20:17 2.2 C 42 %
1581 23-11-2019 23:30:17 2 C 42 %
1582 23-11-2019 23:40:17 2.1 C 42 %
1583 23-11-2019 23:50:17 2.1 C 42 %
1584 24-11-2019 00:00:17 1.9 C 43 %
1585 24-11-2019 00:10:17 1.7 C 43 %
1586 24-11-2019 00:20:17 1.7 C 43 %
1587 24-11-2019 00:30:17 1.6 C 43 %
1588 24-11-2019 00:40:17 1.4 C 42 %
1589 24-11-2019 00:50:18 1.1 C 42 %
1590 24-11-2019 01:00:18 1.2 C 43 %
1591 24-11-2019 01:10:18 1.4 C 43 %
1592 24-11-2019 01:20:17 1.3 C 43 %
1593 24-11-2019 01:30:17 1.2 C 42 %
1594 24-11-2019 01:40:17 1.2 C 43 %
1595 24-11-2019 01:50:17 1.1 C 43 %
1596 24-11-2019 02:00:17 1.1 C 43 %
1597 24-11-2019 02:10:17 1.1 C 43 %
1598 24-11-2019 02:20:17 1.2 C 43 %
1599 24-11-2019 02:30:17 1 C 42 %
1600 24-11-2019 02:40:17 1.1 C 42 %
Sensor: Nr:Datum:Temp:Feuchte:
Aussen-T/F 1601 24-11-2019 02:50:17 1.1 C 42 %
1602 24-11-2019 03:00:17 0.9 C 44 %
1603 24-11-2019 03:10:17 1.1 C 43 %
1604 24-11-2019 03:20:17 1.2 C 42 %
1605 24-11-2019 03:30:17 1 C 42 %
1606 24-11-2019 03:40:17 0.7 C 43 %
1607 24-11-2019 03:50:17 0.6 C 43 %
1608 24-11-2019 04:00:17 0.5 C 43 %
1609 24-11-2019 04:10:17 0.5 C 43 %
1610 24-11-2019 04:20:17 0.6 C 43 %
1611 24-11-2019 04:30:17 0.5 C 43 %
1612 24-11-2019 04:40:17 0.5 C 43 %
1613 24-11-2019 04:50:17 0.6 C 44 %
1614 24-11-2019 05:00:17 0.6 C 44 %
1615 24-11-2019 05:10:17 0.8 C 44 %
1616 24-11-2019 05:20:17 1 C 42 %
1617 24-11-2019 05:30:17 1.1 C 42 %
1618 24-11-2019 05:40:17 1 C 42 %
1619 24-11-2019 05:50:17 0.6 C 43 %
1620 24-11-2019 06:00:18 0.4 C 43 %
1621 24-11-2019 06:10:18 0.5 C 43 %
1622 24-11-2019 06:20:17 0.5 C 43 %
1623 24-11-2019 06:30:17 0.5 C 43 %
1624 24-11-2019 06:40:17 0.5 C 43 %
1625 24-11-2019 06:50:17 0.3 C 43 %
Sensor: Nr:Datum:Temp:Feuchte:
Aussen-T/F 1626 24-11-2019 07:00:18 0.4 C 43 %
1627 24-11-2019 07:10:18 0.1 C 43 %
1628 24-11-2019 07:20:18 0.1 C 43 %
1629 24-11-2019 07:30:17 0.1 C 43 %
1630 24-11-2019 07:40:17 -0.3 C 43 %
1631 24-11-2019 07:50:18 -0.3 C 43 %
1632 24-11-2019 08:00:18 -0.1 C 43 %
1633 24-11-2019 08:10:18 0.1 C 43 %
1634 24-11-2019 08:20:17 -0.1 C 43 %
1635 24-11-2019 08:30:17 0.3 C 43 %
1636 24-11-2019 08:40:17 0.5 C 43 %
1637 24-11-2019 08:50:17 0.5 C 43 %
1638 24-11-2019 09:00:17 0.6 C 43 %
1639 24-11-2019 09:10:17 0.7 C 43 %
1640 24-11-2019 09:20:17 0.8 C 43 %
1641 24-11-2019 09:30:17 0.8 C 43 %
1642 24-11-2019 09:40:17 1 C 42 %
1643 24-11-2019 09:50:17 1.1 C 42 %
1644 24-11-2019 10:00:17 1.2 C 42 %
1645 24-11-2019 10:10:17 1.5 C 42 %
1646 24-11-2019 10:20:17 1.7 C 42 %
1647 24-11-2019 10:30:17 2 C 42 %
1648 24-11-2019 10:40:17 2.2 C 41 %
1649 24-11-2019 10:50:17 2.7 C 42 %
1650 24-11-2019 11:00:17 2.5 C 41 %
Sensor: Nr:Datum:Temp:Feuchte:
Aussen-T/F 1651 24-11-2019 11:10:17 2.1 C 40 %
1652 24-11-2019 11:20:17 2.2 C 40 %
1653 24-11-2019 11:30:17 2.2 C 40 %
1654 24-11-2019 11:40:17 2.3 C 40 %
1655 24-11-2019 11:50:17 2.5 C 40 %
1656 24-11-2019 12:00:17 2.7 C 41 %
1657 24-11-2019 12:10:17 3 C 40 %
1658 24-11-2019 12:20:17 3.4 C 40 %
1659 24-11-2019 12:30:17 3.8 C 40 %
1660 24-11-2019 12:40:17 4 C 38 %
1661 24-11-2019 12:50:17 4.2 C 38 %
1662 24-11-2019 13:00:17 4.6 C 38 %
1663 24-11-2019 13:10:17 5.1 C 35 %
1664 24-11-2019 13:20:17 5 C 35 %
1665 24-11-2019 13:30:17 5 C 35 %
1666 24-11-2019 13:40:17 4.7 C 35 %
1667 24-11-2019 13:50:17 4.8 C 35 %
1668 24-11-2019 14:00:17 5.1 C 35 %
1669 24-11-2019 14:10:17 5.1 C 35 %
1670 24-11-2019 14:20:17 5 C 35 %
1671 24-11-2019 14:30:17 4.8 C 37 %
1672 24-11-2019 14:40:17 4.6 C 37 %
1673 24-11-2019 14:50:17 4.6 C 39 %
1674 24-11-2019 15:00:17 4.5 C 38 %
1675 24-11-2019 15:10:17 4.7 C 40 %
Sensor: Nr:Datum:Temp:Feuchte:
Aussen-T/F 1676 24-11-2019 15:20:17 4.9 C 39 %
1677 24-11-2019 15:30:17 4.8 C 38 %
1678 24-11-2019 15:40:17 4.7 C 38 %
1679 24-11-2019 15:50:17 4.6 C 38 %
1680 24-11-2019 16:00:17 4.5 C 40 %
1681 24-11-2019 16:10:17 4.2 C 39 %
1682 24-11-2019 16:20:17 3.9 C 40 %
1683 24-11-2019 16:30:17 3.7 C 41 %
1684 24-11-2019 16:40:17 3.5 C 41 %
1685 24-11-2019 16:50:17 3.2 C 41 %
1686 24-11-2019 17:00:17 3 C 41 %
1687 24-11-2019 17:10:17 2.8 C 42 %
1688 24-11-2019 17:20:17 2.7 C 42 %
1689 24-11-2019 17:30:17 2.6 C 42 %
1690 24-11-2019 17:40:17 2.4 C 42 %
1691 24-11-2019 17:50:17 2.6 C 43 %
1692 24-11-2019 18:00:17 2.5 C 42 %
1693 24-11-2019 18:10:17 2.8 C 43 %
1694 24-11-2019 18:20:17 2.6 C 42 %
1695 24-11-2019 18:30:17 2.9 C 43 %
1696 24-11-2019 18:40:17 2.6 C 42 %
1697 24-11-2019 18:50:17 2.7 C 42 %
1698 24-11-2019 19:00:17 2.5 C 42 %
1699 24-11-2019 19:10:17 2.6 C 42 %
1700 24-11-2019 19:20:17 2.6 C 42 %
Sensor: Nr:Datum:Temp:Feuchte:
Aussen-T/F 1701 24-11-2019 19:30:17 2.8 C 42 %
1702 24-11-2019 19:40:17 2.7 C 42 %
1703 24-11-2019 19:50:17 2.7 C 42 %
1704 24-11-2019 20:00:17 2.5 C 42 %
1705 24-11-2019 20:10:17 2.4 C 42 %
1706 24-11-2019 20:20:17 2.1 C 41 %
1707 24-11-2019 20:30:17 2 C 41 %
1708 24-11-2019 20:40:17 2 C 41 %
1709 24-11-2019 20:50:17 2 C 42 %
1710 24-11-2019 21:00:17 1.8 C 42 %
1711 24-11-2019 21:10:17 2.2 C 42 %
1712 24-11-2019 21:20:17 2 C 42 %
1713 24-11-2019 21:30:17 2 C 42 %
1714 24-11-2019 21:40:17 1.8 C 43 %
1715 24-11-2019 21:50:17 1.8 C 43 %
1716 24-11-2019 22:00:17 1.7 C 42 %
1717 24-11-2019 22:10:17 1.3 C 42 %
1718 24-11-2019 22:20:17 1.2 C 42 %
1719 24-11-2019 22:30:17 1.2 C 42 %
1720 24-11-2019 22:40:17 1 C 42 %
1721 24-11-2019 22:50:17 1 C 42 %
1722 24-11-2019 23:00:17 1.2 C 42 %
1723 24-11-2019 23:10:17 1 C 42 %
1724 24-11-2019 23:20:17 1 C 42 %
1725 24-11-2019 23:30:17 0.8 C 43 %
Sensor: Nr:Datum:Temp:Feuchte:
Aussen-T/F 1726 24-11-2019 23:40:17 0.8 C 43 %
1727 24-11-2019 23:50:17 0.9 C 43 %
1728 25-11-2019 00:00:18 0.8 C 43 %
1729 25-11-2019 00:10:18 0.9 C 43 %
1730 25-11-2019 00:20:17 1.2 C 42 %
1731 25-11-2019 00:30:17 1.4 C 42 %
1732 25-11-2019 00:40:17 1.5 C 42 %
1733 25-11-2019 00:50:18 1.5 C 42 %
1734 25-11-2019 01:00:18 1.5 C 42 %
1735 25-11-2019 01:10:18 1.5 C 42 %
1736 25-11-2019 01:20:17 1.6 C 42 %
1737 25-11-2019 01:30:17 1.5 C 42 %
1738 25-11-2019 01:40:17 1.4 C 42 %
1739 25-11-2019 01:50:17 1.3 C 42 %
1740 25-11-2019 02:00:17 1.3 C 42 %
1741 25-11-2019 02:10:17 1.3 C 42 %
1742 25-11-2019 02:20:17 1.2 C 42 %
1743 25-11-2019 02:30:17 1.3 C 42 %
1744 25-11-2019 02:40:17 1.4 C 42 %
1745 25-11-2019 02:50:17 1.5 C 42 %
1746 25-11-2019 03:00:17 1.6 C 42 %
1747 25-11-2019 03:10:17 1.5 C 42 %
1748 25-11-2019 03:20:17 1.5 C 42 %
1749 25-11-2019 03:30:17 1.5 C 42 %
1750 25-11-2019 03:40:17 1.6 C 42 %
Sensor: Nr:Datum:Temp:Feuchte:
Aussen-T/F 1751 25-11-2019 03:50:17 1.7 C 42 %
1752 25-11-2019 04:00:17 1.8 C 42 %
1753 25-11-2019 04:10:17 1.8 C 42 %
1754 25-11-2019 04:20:17 1.9 C 42 %
1755 25-11-2019 04:30:17 2 C 41 %
1756 25-11-2019 04:40:17 2.1 C 41 %
1757 25-11-2019 04:50:17 2.1 C 41 %
1758 25-11-2019 05:00:17 2.2 C 41 %
1759 25-11-2019 05:10:17 2.1 C 41 %
1760 25-11-2019 05:20:17 2.2 C 41 %
1761 25-11-2019 05:30:17 2.4 C 41 %
1762 25-11-2019 05:40:17 2.4 C 41 %
1763 25-11-2019 05:50:17 2.5 C 41 %
1764 25-11-2019 06:00:17 2.5 C 41 %
1765 25-11-2019 06:10:17 2.5 C 41 %
1766 25-11-2019 06:20:17 2.5 C 41 %
1767 25-11-2019 06:30:17 2.6 C 41 %
1768 25-11-2019 06:40:17 2.6 C 41 %
1769 25-11-2019 06:50:17 2.8 C 41 %
1770 25-11-2019 07:00:17 2.8 C 41 %
1771 25-11-2019 07:10:17 2.8 C 41 %
1772 25-11-2019 07:20:17 2.8 C 41 %
1773 25-11-2019 07:30:17 2.8 C 41 %
1774 25-11-2019 07:40:17 2.8 C 41 %
1775 25-11-2019 07:50:17 2.8 C 41 %
Sensor: Nr:Datum:Temp:Feuchte:
Aussen-T/F 1776 25-11-2019 08:00:17 2.9 C 41 %
1777 25-11-2019 08:10:17 3 C 41 %
1778 25-11-2019 08:20:17 3.1 C 41 %
1779 25-11-2019 08:30:18 3.2 C 41 %
1780 25-11-2019 08:40:18 3.3 C 42 %
1781 25-11-2019 08:50:17 3.4 C 42 %
1782 25-11-2019 09:00:17 3.6 C 43 %
1783 25-11-2019 09:10:17 3.6 C 43 %
1784 25-11-2019 09:20:17 3.7 C 43 %
1785 25-11-2019 09:30:17 3.6 C 43 %
1786 25-11-2019 09:40:17 3.8 C 43 %
1787 25-11-2019 09:50:17 3.8 C 42 %
1788 25-11-2019 10:00:17 4.1 C 42 %
1789 25-11-2019 10:10:17 4.5 C 43 %
1790 25-11-2019 10:20:17 4.5 C 43 %
1791 25-11-2019 10:30:17 5.1 C 40 %
1792 25-11-2019 10:40:17 5.1 C 38 %
1793 25-11-2019 10:50:17 5.1 C 37 %
1794 25-11-2019 11:00:17 5.1 C 37 %
1795 25-11-2019 11:10:17 5.2 C 37 %
1796 25-11-2019 11:20:17 5.3 C 37 %
1797 25-11-2019 11:30:17 5.4 C 37 %
1798 25-11-2019 11:40:17 5.8 C 37 %
1799 25-11-2019 11:50:17 6.3 C 36 %
1800 25-11-2019 12:00:17 6.1 C 33 %
Sensor: Nr:Datum:Temp:Feuchte:
Aussen-T/F 1801 25-11-2019 12:10:17 6.4 C 33 %
1802 25-11-2019 12:20:17 6.3 C 33 %
1803 25-11-2019 12:30:17 6.3 C 32 %
1804 25-11-2019 12:40:17 6.6 C 32 %
1805 25-11-2019 12:50:17 6.6 C 32 %
1806 25-11-2019 13:00:17 6.7 C 31 %
1807 25-11-2019 13:10:17 6.8 C 33 %
1808 25-11-2019 13:20:17 7 C 32 %
1809 25-11-2019 13:30:17 7 C 32 %
1810 25-11-2019 13:40:17 7 C 33 %
1811 25-11-2019 13:50:17 6.9 C 32 %
1812 25-11-2019 14:00:17 6.9 C 33 %
1813 25-11-2019 14:10:17 6.8 C 31 %
1814 25-11-2019 14:20:17 6.8 C 35 %
1815 25-11-2019 14:30:17 6.8 C 36 %
1816 25-11-2019 14:40:17 6.9 C 36 %
1817 25-11-2019 14:50:17 6.8 C 35 %
1818 25-11-2019 15:00:17 6.7 C 35 %
1819 25-11-2019 15:10:17 6.7 C 35 %
1820 25-11-2019 15:20:17 6.7 C 34 %
1821 25-11-2019 15:30:17 6.7 C 35 %
1822 25-11-2019 15:40:17 6.6 C 33 %
1823 25-11-2019 15:50:17 6.5 C 34 %
1824 25-11-2019 16:00:17 6.5 C 35 %
1825 25-11-2019 16:10:17 6.4 C 36 %
Sensor: Nr:Datum:Temp:Feuchte:
Aussen-T/F 1826 25-11-2019 16:20:17 6.3 C 36 %
1827 25-11-2019 16:30:17 6.2 C 37 %
1828 25-11-2019 16:40:17 6.1 C 38 %
1829 25-11-2019 16:50:17 6.1 C 38 %
1830 25-11-2019 17:00:17 6 C 38 %
1831 25-11-2019 17:10:17 6 C 38 %
1832 25-11-2019 17:20:17 5.9 C 38 %
1833 25-11-2019 17:30:17 5.9 C 39 %
1834 25-11-2019 17:40:17 5.8 C 39 %
1835 25-11-2019 17:50:17 5.9 C 39 %
1836 25-11-2019 18:00:18 5.9 C 39 %
1837 25-11-2019 18:10:18 5.9 C 40 %
1838 25-11-2019 18:20:17 5.9 C 39 %
1839 25-11-2019 18:30:17 5.9 C 40 %
1840 25-11-2019 18:40:17 5.9 C 40 %
1841 25-11-2019 18:50:17 5.8 C 40 %
1842 25-11-2019 19:00:17 5.8 C 39 %
1843 25-11-2019 19:10:17 5.4 C 38 %
1844 25-11-2019 19:20:17 5 C 38 %
1845 25-11-2019 19:30:17 5.1 C 40 %
1846 25-11-2019 19:40:17 5 C 40 %
1847 25-11-2019 19:50:17 5.2 C 40 %
1848 25-11-2019 20:00:17 5.1 C 41 %
1849 25-11-2019 20:10:17 5.3 C 41 %
1850 25-11-2019 20:20:17 5.4 C 41 %
Sensor: Nr:Datum:Temp:Feuchte:
Aussen-T/F 1851 25-11-2019 20:30:17 5.4 C 41 %
1852 25-11-2019 20:40:17 5.2 C 40 %
1853 25-11-2019 20:50:17 5.1 C 40 %
1854 25-11-2019 21:00:17 5.3 C 40 %
1855 25-11-2019 21:10:17 5.1 C 39 %
1856 25-11-2019 21:20:17 5.1 C 39 %
1857 25-11-2019 21:30:17 5.2 C 40 %
1858 25-11-2019 21:40:17 5 C 40 %
1859 25-11-2019 21:50:17 4.7 C 40 %
1860 25-11-2019 22:00:17 4.7 C 40 %
1861 25-11-2019 22:10:17 4.3 C 40 %
1862 25-11-2019 22:20:17 4.1 C 40 %
1863 25-11-2019 22:30:17 3.9 C 41 %
1864 25-11-2019 22:40:17 4.1 C 41 %
1865 25-11-2019 22:50:17 3.8 C 42 %
1866 25-11-2019 23:00:17 3.5 C 42 %
1867 25-11-2019 23:10:17 3.3 C 42 %
1868 25-11-2019 23:20:17 3.1 C 42 %
1869 25-11-2019 23:30:17 2.7 C 42 %
1870 25-11-2019 23:40:17 3 C 42 %
1871 25-11-2019 23:50:17 2.8 C 43 %
1872 26-11-2019 00:00:17 2.3 C 42 %
1873 26-11-2019 00:10:17 2.3 C 42 %
1874 26-11-2019 00:20:17 2.5 C 42 %
1875 26-11-2019 00:30:17 2.4 C 42 %
Sensor: Nr:Datum:Temp:Feuchte:
Aussen-T/F 1876 26-11-2019 00:40:17 2.5 C 43 %
1877 26-11-2019 00:50:17 3.1 C 42 %
1878 26-11-2019 01:00:17 3.3 C 42 %
1879 26-11-2019 01:10:17 3.4 C 42 %
1880 26-11-2019 01:20:17 3.4 C 42 %
1881 26-11-2019 01:30:17 3.4 C 42 %
1882 26-11-2019 01:40:17 3.5 C 42 %
1883 26-11-2019 01:50:17 3.6 C 42 %
1884 26-11-2019 02:00:17 3.8 C 42 %
1885 26-11-2019 02:10:17 3.8 C 42 %
1886 26-11-2019 02:20:17 3.8 C 41 %
1887 26-11-2019 02:30:17 3.8 C 41 %
1888 26-11-2019 02:40:17 3.9 C 41 %
1889 26-11-2019 02:50:17 4.3 C 41 %
1890 26-11-2019 03:00:17 4.5 C 41 %
1891 26-11-2019 03:10:17 4.5 C 41 %
1892 26-11-2019 03:20:17 4.5 C 41 %
1893 26-11-2019 03:30:17 4.1 C 40 %
1894 26-11-2019 03:40:17 4.4 C 40 %
1895 26-11-2019 03:50:17 4.6 C 41 %
1896 26-11-2019 04:00:17 4.8 C 41 %
1897 26-11-2019 04:10:17 5.1 C 40 %
1898 26-11-2019 04:20:17 5.2 C 40 %
1899 26-11-2019 04:30:18 5.2 C 40 %
1900 26-11-2019 04:40:18 5.4 C 40 %
Sensor: Nr:Datum:Temp:Feuchte:
Aussen-T/F 1901 26-11-2019 04:50:17 5.6 C 40 %
1902 26-11-2019 05:00:18 5.7 C 40 %
1903 26-11-2019 05:10:18 5.7 C 40 %
1904 26-11-2019 05:20:17 5.8 C 40 %
1905 26-11-2019 05:30:17 5.8 C 40 %
1906 26-11-2019 05:40:17 5.8 C 40 %
1907 26-11-2019 05:50:17 5.9 C 40 %
1908 26-11-2019 06:00:17 5.9 C 40 %
1909 26-11-2019 06:10:17 5.9 C 40 %
1910 26-11-2019 06:20:17 6 C 39 %
1911 26-11-2019 06:30:17 6.2 C 40 %
1912 26-11-2019 06:40:17 6.2 C 39 %
1913 26-11-2019 06:50:17 6.2 C 39 %
1914 26-11-2019 07:00:17 6.5 C 40 %
1915 26-11-2019 07:10:17 6.5 C 40 %
1916 26-11-2019 07:20:17 6.6 C 39 %
1917 26-11-2019 07:30:17 6.6 C 39 %
1918 26-11-2019 07:40:17 6.6 C 39 %
1919 26-11-2019 07:50:17 6.7 C 39 %
1920 26-11-2019 08:00:17 6.8 C 39 %
1921 26-11-2019 08:10:17 6.9 C 39 %
1922 26-11-2019 08:20:17 6.8 C 38 %
1923 26-11-2019 08:30:17 6.8 C 38 %
1924 26-11-2019 08:40:17 6.7 C 38 %
1925 26-11-2019 08:50:17 6.8 C 38 %
Sensor: Nr:Datum:Temp:Feuchte:
Aussen-T/F 1926 26-11-2019 09:00:17 7 C 37 %
1927 26-11-2019 09:10:17 7.4 C 38 %
1928 26-11-2019 09:20:17 7.6 C 37 %
1929 26-11-2019 09:30:17 7.9 C 36 %
1930 26-11-2019 09:40:17 8.3 C 33 %
1931 26-11-2019 09:50:17 8.5 C 31 %
1932 26-11-2019 10:00:17 8.8 C 32 %
1933 26-11-2019 10:10:17 9.1 C 32 %
1934 26-11-2019 10:20:17 9.4 C 32 %
1935 26-11-2019 10:30:17 9.6 C 32 %
1936 26-11-2019 10:40:17 9.7 C 31 %
1937 26-11-2019 10:50:17 9.9 C 31 %
1938 26-11-2019 11:00:17 10.3 C 29 %
1939 26-11-2019 11:10:17 10.5 C 29 %
1940 26-11-2019 11:20:17 10.6 C 26 %
1941 26-11-2019 11:30:17 10.7 C 26 %
1942 26-11-2019 11:40:17 10.6 C 26 %
1943 26-11-2019 11:50:17 10.5 C 26 %
1944 26-11-2019 12:00:17 10.6 C 27 %
1945 26-11-2019 12:10:17 10.6 C 28 %
1946 26-11-2019 12:20:17 10.4 C 26 %
1947 26-11-2019 12:30:17 10.4 C 27 %
1948 26-11-2019 12:40:17 10.8 C 27 %
1949 26-11-2019 12:50:17 10.7 C 26 %
1950 26-11-2019 13:00:17 10.8 C 27 %
Sensor: Nr:Datum:Temp:Feuchte:
Aussen-T/F 1951 26-11-2019 13:10:17 10.8 C 27 %
1952 26-11-2019 13:20:17 11 C 26 %
1953 26-11-2019 13:30:17 10.8 C 26 %
1954 26-11-2019 13:40:17 10.6 C 26 %
1955 26-11-2019 13:50:17 10.5 C 27 %
1956 26-11-2019 14:00:17 10.2 C 30 %
1957 26-11-2019 14:10:17 10.2 C 30 %
1958 26-11-2019 14:20:17 10.5 C 30 %
1959 26-11-2019 14:30:17 10.2 C 28 %
1960 26-11-2019 14:40:17 10.6 C 28 %
1961 26-11-2019 14:50:17 10.6 C 28 %
1962 26-11-2019 15:00:17 10.7 C 27 %
1963 26-11-2019 15:10:17 10.9 C 26 %
1964 26-11-2019 15:20:17 11.1 C 26 %
1965 26-11-2019 15:30:17 11.1 C 26 %
1966 26-11-2019 15:40:17 10.6 C 27 %
1967 26-11-2019 15:50:17 10.5 C 28 %
1968 26-11-2019 16:00:17 10.1 C 30 %
1969 26-11-2019 16:10:17 10 C 30 %
1970 26-11-2019 16:20:17 9.9 C 31 %
1971 26-11-2019 16:30:17 10 C 30 %
1972 26-11-2019 16:40:17 10 C 29 %
1973 26-11-2019 16:50:17 9.7 C 30 %
1974 26-11-2019 17:00:17 9.6 C 30 %
1975 26-11-2019 17:10:17 9.4 C 31 %
Sensor: Nr:Datum:Temp:Feuchte:
Aussen-T/F 1976 26-11-2019 17:20:17 9.3 C 31 %
1977 26-11-2019 17:30:17 9.2 C 31 %
1978 26-11-2019 17:40:17 9.1 C 31 %
1979 26-11-2019 17:50:17 8.9 C 32 %
1980 26-11-2019 18:00:17 8.8 C 34 %
1981 26-11-2019 18:10:17 8.9 C 36 %
1982 26-11-2019 18:20:17 8.9 C 37 %
1983 26-11-2019 18:30:17 9 C 35 %
1984 26-11-2019 18:40:17 8.9 C 35 %
1985 26-11-2019 18:50:17 9.1 C 34 %
1986 26-11-2019 19:00:17 9.7 C 31 %
1987 26-11-2019 19:10:17 9.5 C 31 %
1988 26-11-2019 19:20:17 9.6 C 30 %
1989 26-11-2019 19:30:17 9.6 C 30 %
1990 26-11-2019 19:40:17 9.7 C 30 %
1991 26-11-2019 19:50:17 9.5 C 30 %
1992 26-11-2019 20:00:17 9.5 C 30 %
1993 26-11-2019 20:10:17 9.2 C 31 %
1994 26-11-2019 20:20:17 8.9 C 32 %
1995 26-11-2019 20:30:17 8.4 C 35 %
1996 26-11-2019 20:40:17 8.2 C 35 %
1997 26-11-2019 20:50:17 8 C 37 %
1998 26-11-2019 21:00:17 7.9 C 38 %
1999 26-11-2019 21:10:17 8.3 C 39 %
2000 26-11-2019 21:20:17 8.5 C 37 %
Sensor: Nr:Datum:Temp:Feuchte:
Aussen-T/F 2001 26-11-2019 21:30:17 8.7 C 36 %
2002 26-11-2019 21:40:17 8.8 C 35 %
2003 26-11-2019 21:50:17 8.8 C 35 %
2004 26-11-2019 22:00:17 8.9 C 35 %
2005 26-11-2019 22:10:17 8.8 C 34 %
2006 26-11-2019 22:20:17 8.6 C 34 %
2007 26-11-2019 22:30:17 8.4 C 35 %
2008 26-11-2019 22:40:17 8.1 C 35 %
2009 26-11-2019 22:50:17 7.8 C 36 %
2010 26-11-2019 23:00:17 7.9 C 39 %
2011 26-11-2019 23:10:17 7.9 C 39 %
2012 26-11-2019 23:20:17 8 C 38 %
2013 26-11-2019 23:30:17 7.8 C 38 %
2014 26-11-2019 23:40:17 7.7 C 38 %
2015 26-11-2019 23:50:17 7.8 C 39 %
2016 27-11-2019 00:00:17 7.6 C 39 %
2017 27-11-2019 00:10:17 7.5 C 39 %
2018 27-11-2019 00:20:17 7.6 C 40 %
2019 27-11-2019 00:30:17 7.6 C 39 %
2020 27-11-2019 00:40:17 7.9 C 40 %
2021 27-11-2019 00:50:17 7.7 C 39 %
2022 27-11-2019 01:00:17 7.4 C 39 %
2023 27-11-2019 01:10:17 7.6 C 40 %
2024 27-11-2019 01:20:17 7.6 C 40 %
2025 27-11-2019 01:30:17 7.8 C 40 %
Sensor: Nr:Datum:Temp:Feuchte:
Aussen-T/F 2026 27-11-2019 01:40:17 7.8 C 40 %
2027 27-11-2019 01:50:17 8 C 39 %
2028 27-11-2019 02:00:17 8.1 C 39 %
2029 27-11-2019 02:10:17 8.1 C 38 %
2030 27-11-2019 02:20:17 8.1 C 38 %
2031 27-11-2019 02:30:17 8 C 39 %
2032 27-11-2019 02:40:17 7.8 C 40 %
2033 27-11-2019 02:50:17 7.7 C 40 %
2034 27-11-2019 03:00:17 7.8 C 40 %
2035 27-11-2019 03:10:17 7.6 C 41 %
2036 27-11-2019 03:20:17 7.5 C 40 %
2037 27-11-2019 03:30:17 7.2 C 40 %
2038 27-11-2019 03:40:17 7.1 C 40 %
2039 27-11-2019 03:50:17 7 C 40 %
2040 27-11-2019 04:00:17 7.1 C 40 %
2041 27-11-2019 04:10:17 7.3 C 40 %
2042 27-11-2019 04:20:17 7.5 C 40 %
2043 27-11-2019 04:30:17 7.6 C 40 %
2044 27-11-2019 04:40:17 7.6 C 40 %
2045 27-11-2019 04:50:17 7.4 C 39 %
2046 27-11-2019 05:00:17 7.1 C 38 %
2047 27-11-2019 05:10:17 7.4 C 39 %
2048 27-11-2019 05:20:17 7.8 C 37 %
2049 27-11-2019 05:30:17 7.7 C 37 %
2050 27-11-2019 05:40:17 8 C 35 %
Sensor: Nr:Datum:Temp:Feuchte:
Aussen-T/F 2051 27-11-2019 05:50:17 8 C 35 %
2052 27-11-2019 06:00:18 8 C 34 %
2053 27-11-2019 06:10:18 7.8 C 35 %
2054 27-11-2019 06:20:17 7.8 C 36 %
2055 27-11-2019 06:30:17 7.6 C 37 %
2056 27-11-2019 06:40:17 7.7 C 39 %
2057 27-11-2019 06:50:17 7.6 C 39 %
2058 27-11-2019 07:00:17 7.8 C 37 %
2059 27-11-2019 07:10:17 7.8 C 35 %
2060 27-11-2019 07:20:17 7.9 C 35 %
2061 27-11-2019 07:30:17 8.1 C 34 %
2062 27-11-2019 07:40:17 8 C 32 %
2063 27-11-2019 07:50:17 8 C 34 %
2064 27-11-2019 08:00:17 8.2 C 33 %
2065 27-11-2019 08:10:17 8.2 C 33 %
2066 27-11-2019 08:20:17 8.3 C 34 %
2067 27-11-2019 08:30:17 8.4 C 33 %
2068 27-11-2019 08:40:17 8.4 C 33 %
2069 27-11-2019 08:50:17 8.4 C 35 %
2070 27-11-2019 09:00:17 8.6 C 35 %
2071 27-11-2019 09:10:17 8.6 C 36 %
2072 27-11-2019 09:20:17 8.8 C 36 %
2073 27-11-2019 09:30:17 9.1 C 33 %
2074 27-11-2019 09:40:17 9 C 34 %
2075 27-11-2019 09:50:17 9 C 34 %
Sensor: Nr:Datum:Temp:Feuchte:
Aussen-T/F 2076 27-11-2019 10:00:17 9.1 C 35 %
2077 27-11-2019 10:10:17 9.2 C 35 %
2078 27-11-2019 10:20:17 9.3 C 35 %
2079 27-11-2019 10:30:17 9.7 C 31 %
2080 27-11-2019 10:40:17 10 C 29 %
2081 27-11-2019 10:50:17 10.4 C 27 %
2082 27-11-2019 11:00:17 11 C 25 %
2083 27-11-2019 11:10:17 11.3 C 24 %
2084 27-11-2019 11:20:17 11.6 C 22 %
2085 27-11-2019 11:30:17 11.7 C 22 %
2086 27-11-2019 11:40:17 12.1 C 20 %
2087 27-11-2019 11:50:17 12.4 C 20 %
2088 27-11-2019 12:00:17 12.7 C 20 %
2089 27-11-2019 12:10:17 12.7 C 20 %
2090 27-11-2019 12:20:18 12.7 C 20 %
2091 27-11-2019 12:30:17 12.7 C 20 %
2092 27-11-2019 12:40:17 12.8 C 20 %
2093 27-11-2019 12:50:17 12.8 C 20 %
2094 27-11-2019 13:00:17 12.7 C 20 %
2095 27-11-2019 13:10:17 12.8 C 20 %
2096 27-11-2019 13:20:17 12.8 C 20 %
2097 27-11-2019 13:30:17 12.6 C 20 %
2098 27-11-2019 13:40:17 12.7 C 20 %
2099 27-11-2019 13:50:17 12.9 C 20 %
2100 27-11-2019 14:00:17 13.1 C 20 %
Sensor: Nr:Datum:Temp:Feuchte:
Aussen-T/F 2101 27-11-2019 14:10:17 13 C 20 %
2102 27-11-2019 14:20:17 12.9 C 20 %
2103 27-11-2019 14:30:17 12.9 C 20 %
2104 27-11-2019 14:40:17 12.9 C 20 %
2105 27-11-2019 14:50:17 12.9 C 20 %
2106 27-11-2019 15:00:17 12.7 C 20 %
2107 27-11-2019 15:10:17 12.8 C 20 %
2108 27-11-2019 15:20:17 12.8 C 20 %
2109 27-11-2019 15:30:17 12.8 C 20 %
2110 27-11-2019 15:40:17 12.5 C 20 %
2111 27-11-2019 15:50:17 12.2 C 20 %
2112 27-11-2019 16:00:17 11.5 C 20 %
2113 27-11-2019 16:10:17 11.1 C 20 %
2114 27-11-2019 16:20:17 10.8 C 25 %
2115 27-11-2019 16:30:17 10.3 C 26 %
2116 27-11-2019 16:40:17 9.9 C 29 %
2117 27-11-2019 16:50:18 9.7 C 30 %
2118 27-11-2019 17:00:17 9.5 C 31 %
2119 27-11-2019 17:10:17 9.8 C 31 %
2120 27-11-2019 17:20:17 9.8 C 31 %
2121 27-11-2019 17:30:17 9.8 C 31 %
2122 27-11-2019 17:40:17 9.7 C 33 %
2123 27-11-2019 17:50:17 9.6 C 33 %
2124 27-11-2019 18:00:17 9.7 C 32 %
2125 27-11-2019 18:10:17 9.7 C 32 %
Sensor: Nr:Datum:Temp:Feuchte:
Aussen-T/F 2126 27-11-2019 18:20:17 9.9 C 31 %
2127 27-11-2019 18:30:17 9.9 C 31 %
2128 27-11-2019 18:40:17 9.8 C 32 %
2129 27-11-2019 18:50:17 9.7 C 34 %
2130 27-11-2019 19:00:17 9.7 C 36 %
2131 27-11-2019 19:10:17 9.8 C 34 %
2132 27-11-2019 19:20:17 9.7 C 33 %
2133 27-11-2019 19:30:17 10 C 31 %
2134 27-11-2019 19:40:17 10 C 31 %
2135 27-11-2019 19:50:17 10.4 C 28 %
2136 27-11-2019 20:00:17 10.8 C 26 %
2137 27-11-2019 20:10:17 10.9 C 26 %
2138 27-11-2019 20:20:17 11 C 25 %
2139 27-11-2019 20:30:17 10.6 C 26 %
2140 27-11-2019 20:40:17 9.9 C 30 %
2141 27-11-2019 20:50:17 9.7 C 31 %
2142 27-11-2019 21:00:17 9.8 C 33 %
2143 27-11-2019 21:10:17 9.8 C 32 %
2144 27-11-2019 21:20:17 9.6 C 33 %
2145 27-11-2019 21:30:17 9.8 C 32 %
2146 27-11-2019 21:40:17 10.1 C 31 %
2147 27-11-2019 21:50:17 10.2 C 29 %
2148 27-11-2019 22:00:17 10.3 C 28 %
2149 27-11-2019 22:10:17 10.6 C 27 %
2150 27-11-2019 22:20:17 10.9 C 26 %
Sensor: Nr:Datum:Temp:Feuchte:
Aussen-T/F 2151 27-11-2019 22:30:17 10.9 C 26 %
2152 27-11-2019 22:40:17 10.8 C 25 %
2153 27-11-2019 22:50:17 10.7 C 25 %
2154 27-11-2019 23:00:17 11.1 C 24 %
2155 27-11-2019 23:10:17 11.3 C 23 %
2156 27-11-2019 23:20:17 11.1 C 23 %
2157 27-11-2019 23:30:17 11.5 C 21 %
2158 27-11-2019 23:40:18 11.5 C 21 %
2159 27-11-2019 23:50:17 11.2 C 21 %
2160 28-11-2019 00:00:18 11.2 C 21 %
2161 28-11-2019 00:10:18 11.3 C 20 %
2162 28-11-2019 00:20:17 11.2 C 20 %
2163 28-11-2019 00:30:17 11.2 C 20 %
2164 28-11-2019 00:40:17 11.5 C 20 %
2165 28-11-2019 00:50:17 11.3 C 20 %
2166 28-11-2019 01:00:17 11.4 C 20 %
2167 28-11-2019 01:10:17 11.4 C 20 %
2168 28-11-2019 01:20:17 11.4 C 20 %
2169 28-11-2019 01:30:17 11.4 C 20 %
2170 28-11-2019 01:40:17 11.1 C 20 %
2171 28-11-2019 01:50:17 11.1 C 20 %
2172 28-11-2019 02:00:18 10.8 C 20 %
2173 28-11-2019 02:10:18 10.5 C 20 %
2174 28-11-2019 02:20:17 10.7 C 20 %
2175 28-11-2019 02:30:17 11 C 20 %
Sensor: Nr:Datum:Temp:Feuchte:
Aussen-T/F 2176 28-11-2019 02:40:17 10.5 C 21 %
2177 28-11-2019 02:50:17 10.8 C 20 %
2178 28-11-2019 03:00:17 10.9 C 20 %
2179 28-11-2019 03:10:17 10.3 C 20 %
2180 28-11-2019 03:20:18 10.8 C 20 %
2181 28-11-2019 03:30:18 10.6 C 20 %
2182 28-11-2019 03:40:18 10.9 C 20 %
2183 28-11-2019 03:50:18 10.9 C 20 %
2184 28-11-2019 04:00:18 10.7 C 20 %
2185 28-11-2019 04:10:18 10.6 C 20 %
2186 28-11-2019 04:20:17 10.6 C 20 %
2187 28-11-2019 04:30:17 10.6 C 20 %
2188 28-11-2019 04:40:17 10.5 C 20 %
2189 28-11-2019 04:50:17 10.3 C 20 %
2190 28-11-2019 05:00:17 10.5 C 20 %
2191 28-11-2019 05:10:17 10.2 C 20 %
2192 28-11-2019 05:20:17 10.1 C 20 %
2193 28-11-2019 05:30:17 10.4 C 20 %
2194 28-11-2019 05:40:17 10.1 C 20 %
2195 28-11-2019 05:50:17 10.2 C 20 %
2196 28-11-2019 06:00:17 9.9 C 20 %
2197 28-11-2019 06:10:17 10.1 C 20 %
2198 28-11-2019 06:20:17 10.2 C 20 %
2199 28-11-2019 06:30:17 10.5 C 20 %
2200 28-11-2019 06:40:17 10.6 C 20 %
Sensor: Nr:Datum:Temp:Feuchte:
Aussen-T/F 2201 28-11-2019 06:50:17 10.5 C 20 %
2202 28-11-2019 07:00:17 10.4 C 20 %
2203 28-11-2019 07:10:17 10 C 20 %
2204 28-11-2019 07:20:17 10 C 20 %
2205 28-11-2019 07:30:17 10 C 20 %
2206 28-11-2019 07:40:17 10.2 C 20 %
2207 28-11-2019 07:50:17 10.3 C 20 %
2208 28-11-2019 08:00:17 10.4 C 20 %
2209 28-11-2019 08:10:17 10.2 C 20 %
2210 28-11-2019 08:20:17 10.2 C 20 %
2211 28-11-2019 08:30:17 10.1 C 20 %
2212 28-11-2019 08:40:17 10.1 C 20 %
2213 28-11-2019 08:50:17 10.1 C 20 %
2214 28-11-2019 09:00:17 10.3 C 20 %
2215 28-11-2019 09:10:17 10.7 C 20 %
2216 28-11-2019 09:20:17 11 C 20 %
2217 28-11-2019 09:30:17 11 C 20 %
2218 28-11-2019 09:40:17 11.1 C 20 %
2219 28-11-2019 09:50:17 11.1 C 20 %
2220 28-11-2019 10:00:17 11.3 C 20 %
2221 28-11-2019 10:10:17 11.3 C 20 %
2222 28-11-2019 10:20:17 11.5 C 20 %
2223 28-11-2019 10:30:17 11.6 C 20 %
2224 28-11-2019 10:40:17 11.7 C 20 %
2225 28-11-2019 10:50:17 11.7 C 20 %
Sensor: Nr:Datum:Temp:Feuchte:
Aussen-T/F 2226 28-11-2019 11:00:17 11.7 C 20 %
2227 28-11-2019 11:10:17 11.8 C 20 %
2228 28-11-2019 11:20:17 11.9 C 20 %
2229 28-11-2019 11:30:17 11.9 C 20 %
2230 28-11-2019 11:40:17 12.2 C 20 %
2231 28-11-2019 11:50:17 11.9 C 20 %
2232 28-11-2019 12:00:17 11.6 C 20 %
2233 28-11-2019 12:10:17 11.5 C 20 %
2234 28-11-2019 12:20:17 11.1 C 20 %
2235 28-11-2019 12:30:17 11.1 C 20 %
2236 28-11-2019 12:40:17 10.9 C 20 %
2237 28-11-2019 12:50:17 11.2 C 20 %
2238 28-11-2019 13:00:17 11.2 C 20 %
2239 28-11-2019 13:10:17 11.7 C 20 %
2240 28-11-2019 13:20:17 11.8 C 20 %
2241 28-11-2019 13:30:17 12.1 C 20 %
2242 28-11-2019 13:40:17 11.4 C 20 %
2243 28-11-2019 13:50:17 11.4 C 20 %
2244 28-11-2019 14:00:17 11.3 C 20 %
2245 28-11-2019 14:10:17 11.4 C 20 %
2246 28-11-2019 14:20:17 11.2 C 20 %
2247 28-11-2019 14:30:17 11.1 C 20 %
2248 28-11-2019 14:40:17 11.2 C 20 %
2249 28-11-2019 14:50:17 11.2 C 20 %
2250 28-11-2019 15:00:17 11.2 C 20 %
Sensor: Nr:Datum:Temp:Feuchte:
Aussen-T/F 2251 28-11-2019 15:10:17 11.1 C 20 %
2252 28-11-2019 15:20:17 11 C 20 %
2253 28-11-2019 15:30:17 10.2 C 23 %
2254 28-11-2019 15:40:17 10.2 C 21 %
2255 28-11-2019 15:50:17 10.3 C 21 %
2256 28-11-2019 16:00:17 10.5 C 21 %
2257 28-11-2019 16:10:17 10.3 C 22 %
2258 28-11-2019 16:20:17 10.5 C 21 %
2259 28-11-2019 16:30:17 10.6 C 21 %
2260 28-11-2019 16:40:17 10.4 C 21 %
2261 28-11-2019 16:50:17 10.4 C 21 %
2262 28-11-2019 17:00:17 10.3 C 22 %
2263 28-11-2019 17:10:17 9.7 C 27 %
2264 28-11-2019 17:20:17 9.5 C 29 %
2265 28-11-2019 17:30:17 9.4 C 30 %
2266 28-11-2019 17:40:17 9.3 C 30 %
2267 28-11-2019 17:50:17 9.6 C 28 %
2268 28-11-2019 18:00:17 9.8 C 27 %
2269 28-11-2019 18:10:17 10.2 C 25 %
2270 28-11-2019 18:20:17 10.3 C 25 %
2271 28-11-2019 18:30:17 10.2 C 25 %
2272 28-11-2019 18:40:17 10.2 C 25 %
2273 28-11-2019 18:50:17 10.2 C 25 %
2274 28-11-2019 19:00:17 10.1 C 25 %
2275 28-11-2019 19:10:17 9.8 C 26 %
Sensor: Nr:Datum:Temp:Feuchte:
Aussen-T/F 2276 28-11-2019 19:20:17 9.8 C 26 %
2277 28-11-2019 19:30:17 9.8 C 26 %
2278 28-11-2019 19:40:17 9.9 C 26 %
2279 28-11-2019 19:50:17 10.1 C 25 %
2280 28-11-2019 20:00:17 10.1 C 26 %
2281 28-11-2019 20:10:17 9.8 C 26 %
2282 28-11-2019 20:20:17 9.8 C 26 %
2283 28-11-2019 20:30:17 9.8 C 27 %
2284 28-11-2019 20:40:17 10.1 C 26 %
2285 28-11-2019 20:50:17 10 C 25 %
2286 28-11-2019 21:00:17 10.1 C 25 %
2287 28-11-2019 21:10:17 9.7 C 27 %
2288 28-11-2019 21:20:17 9.9 C 27 %
2289 28-11-2019 21:30:17 10.1 C 26 %
2290 28-11-2019 21:40:17 10 C 26 %
2291 28-11-2019 21:50:17 10 C 25 %
2292 28-11-2019 22:00:17 9.6 C 27 %
2293 28-11-2019 22:10:17 9.6 C 28 %
2294 28-11-2019 22:20:17 9.6 C 28 %
2295 28-11-2019 22:30:17 9.5 C 28 %
2296 28-11-2019 22:40:17 9.6 C 28 %
2297 28-11-2019 22:50:17 9.5 C 28 %
2298 28-11-2019 23:00:17 9.5 C 28 %
2299 28-11-2019 23:10:17 9.5 C 29 %
2300 28-11-2019 23:20:17 9.6 C 28 %
Sensor: Nr:Datum:Temp:Feuchte:
Aussen-T/F 2301 28-11-2019 23:30:17 9.2 C 30 %
2302 28-11-2019 23:40:17 9.1 C 32 %
2303 28-11-2019 23:50:17 8.9 C 35 %
2304 29-11-2019 00:00:17 8.9 C 34 %
2305 29-11-2019 00:10:17 8.7 C 36 %
2306 29-11-2019 00:20:17 8.8 C 35 %
2307 29-11-2019 00:30:17 8.7 C 36 %
2308 29-11-2019 00:40:17 8.7 C 35 %
2309 29-11-2019 00:50:17 8.6 C 35 %
2310 29-11-2019 01:00:17 8.6 C 36 %
2311 29-11-2019 01:10:17 8.5 C 37 %
2312 29-11-2019 01:20:17 8.3 C 37 %
2313 29-11-2019 01:30:17 8.3 C 36 %
2314 29-11-2019 01:40:17 8.3 C 36 %
2315 29-11-2019 01:50:17 8.1 C 39 %
2316 29-11-2019 02:00:17 8.1 C 40 %
2317 29-11-2019 02:10:17 8.1 C 40 %
2318 29-11-2019 02:20:17 8.1 C 40 %
2319 29-11-2019 02:30:17 8.1 C 40 %
2320 29-11-2019 02:40:17 8.1 C 40 %
2321 29-11-2019 02:50:17 8 C 40 %
2322 29-11-2019 03:00:17 8 C 40 %
2323 29-11-2019 03:10:17 8 C 40 %
2324 29-11-2019 03:20:17 7.9 C 40 %
2325 29-11-2019 03:30:17 7.8 C 40 %
Sensor: Nr:Datum:Temp:Feuchte:
Aussen-T/F 2326 29-11-2019 03:40:17 7.7 C 40 %
2327 29-11-2019 03:50:17 7.6 C 40 %
2328 29-11-2019 04:00:17 7.6 C 40 %
2329 29-11-2019 04:10:17 7.6 C 40 %
2330 29-11-2019 04:20:17 7.6 C 40 %
2331 29-11-2019 04:30:17 7.5 C 40 %
2332 29-11-2019 04:40:17 7.5 C 40 %
2333 29-11-2019 04:50:17 7.2 C 38 %
2334 29-11-2019 05:00:17 6.8 C 34 %
2335 29-11-2019 05:10:17 6.4 C 33 %
2336 29-11-2019 05:20:17 6.2 C 34 %
2337 29-11-2019 05:30:17 6.2 C 35 %
2338 29-11-2019 05:40:18 6.1 C 36 %
2339 29-11-2019 05:50:17 6 C 36 %
2340 29-11-2019 06:00:17 6 C 38 %
2341 29-11-2019 06:10:17 5.9 C 38 %
2342 29-11-2019 06:20:17 5.9 C 38 %
2343 29-11-2019 06:30:17 5.9 C 40 %
2344 29-11-2019 06:40:17 5.9 C 40 %
2345 29-11-2019 06:50:17 5.8 C 36 %
2346 29-11-2019 07:00:17 5.7 C 35 %
2347 29-11-2019 07:10:17 5.6 C 37 %
2348 29-11-2019 07:20:17 5.4 C 37 %
2349 29-11-2019 07:30:17 5.4 C 40 %
2350 29-11-2019 07:40:17 5.4 C 37 %
Sensor: Nr:Datum:Temp:Feuchte:
Aussen-T/F 2351 29-11-2019 07:50:17 5.4 C 39 %
2352 29-11-2019 08:00:17 5.3 C 40 %
2353 29-11-2019 08:10:17 5.2 C 40 %
2354 29-11-2019 08:20:17 5.1 C 40 %
2355 29-11-2019 08:30:17 5 C 40 %
2356 29-11-2019 08:40:17 5 C 40 %
2357 29-11-2019 08:50:17 5 C 39 %
2358 29-11-2019 09:00:17 5 C 39 %
2359 29-11-2019 09:10:17 5 C 39 %
2360 29-11-2019 09:20:17 4.8 C 37 %
2361 29-11-2019 09:30:17 4.6 C 37 %
2362 29-11-2019 09:40:17 4.6 C 37 %
2363 29-11-2019 09:50:17 4.7 C 36 %
2364 29-11-2019 10:00:17 4.8 C 32 %
2365 29-11-2019 10:10:17 5.1 C 31 %
2366 29-11-2019 10:20:17 5.8 C 27 %
2367 29-11-2019 10:30:17 5.9 C 29 %
2368 29-11-2019 10:40:17 5.7 C 27 %
2369 29-11-2019 10:50:17 5.4 C 28 %
2370 29-11-2019 11:00:17 5.6 C 30 %
2371 29-11-2019 11:10:17 5.9 C 26 %
2372 29-11-2019 11:20:17 6 C 27 %
2373 29-11-2019 11:30:17 6.4 C 26 %
2374 29-11-2019 11:40:17 7 C 23 %
2375 29-11-2019 11:50:17 7.3 C 21 %
Sensor: Nr:Datum:Temp:Feuchte:
Aussen-T/F 2376 29-11-2019 12:00:17 7.2 C 20 %
2377 29-11-2019 12:10:17 7.2 C 20 %
2378 29-11-2019 12:20:17 7.1 C 20 %
2379 29-11-2019 12:30:17 7.6 C 20 %
2380 29-11-2019 12:40:17 7.2 C 20 %
2381 29-11-2019 12:50:17 6.9 C 21 %
2382 29-11-2019 13:00:17 6.6 C 21 %
2383 29-11-2019 13:10:17 6.2 C 23 %
2384 29-11-2019 13:20:17 5.9 C 25 %
2385 29-11-2019 13:30:17 6.1 C 25 %
2386 29-11-2019 13:40:17 6.1 C 25 %
2387 29-11-2019 13:50:17 6.5 C 20 %
2388 29-11-2019 14:00:17 6.5 C 20 %
2389 29-11-2019 14:10:17 7 C 20 %
2390 29-11-2019 14:20:17 7.3 C 20 %
2391 29-11-2019 14:30:17 7.3 C 20 %
2392 29-11-2019 14:40:17 6.9 C 20 %
2393 29-11-2019 14:50:17 6.5 C 20 %
2394 29-11-2019 15:00:17 7.3 C 20 %
2395 29-11-2019 15:10:17 7.3 C 20 %
2396 29-11-2019 15:20:17 7.2 C 20 %
2397 29-11-2019 15:30:17 7.2 C 20 %
2398 29-11-2019 15:40:17 7.2 C 20 %
2399 29-11-2019 15:50:17 6.7 C 20 %
2400 29-11-2019 16:00:17 6.4 C 20 %
Sensor: Nr:Datum:Temp:Feuchte:
Aussen-T/F 2401 29-11-2019 16:10:17 5.6 C 20 %
2402 29-11-2019 16:20:17 6.2 C 20 %
2403 29-11-2019 16:30:17 6 C 20 %
2404 29-11-2019 16:40:18 5.3 C 20 %
2405 29-11-2019 16:50:17 5.3 C 20 %
2406 29-11-2019 17:00:18 4.5 C 23 %
2407 29-11-2019 17:10:18 4 C 26 %
2408 29-11-2019 17:20:17 4 C 26 %
2409 29-11-2019 17:30:18 3.9 C 27 %
2410 29-11-2019 17:40:18 4 C 26 %
2411 29-11-2019 17:50:17 3.8 C 27 %
2412 29-11-2019 18:00:17 4.2 C 26 %
2413 29-11-2019 18:10:18 4.6 C 25 %
2414 29-11-2019 18:20:17 5 C 21 %
2415 29-11-2019 18:30:17 5 C 21 %
2416 29-11-2019 18:40:17 4.8 C 23 %
2417 29-11-2019 18:50:17 4.7 C 26 %
2418 29-11-2019 19:00:17 4.8 C 21 %
2419 29-11-2019 19:10:17 4.8 C 21 %
2420 29-11-2019 19:20:17 4.8 C 21 %
2421 29-11-2019 19:30:17 4.4 C 25 %
2422 29-11-2019 19:40:17 4.6 C 21 %
2423 29-11-2019 19:50:17 4.4 C 25 %
2424 29-11-2019 20:00:17 4 C 26 %
2425 29-11-2019 20:10:17 4 C 26 %
Sensor: Nr:Datum:Temp:Feuchte:
Aussen-T/F 2426 29-11-2019 20:20:17 4.3 C 25 %
2427 29-11-2019 20:30:17 4.7 C 23 %
2428 29-11-2019 20:40:17 4 C 25 %
2429 29-11-2019 20:50:17 3.9 C 26 %
2430 29-11-2019 21:00:17 3.8 C 28 %
2431 29-11-2019 21:10:17 3.9 C 27 %
2432 29-11-2019 21:20:17 3.8 C 27 %
2433 29-11-2019 21:30:17 3.8 C 28 %
2434 29-11-2019 21:40:17 3.9 C 28 %
2435 29-11-2019 21:50:17 3.2 C 30 %
2436 29-11-2019 22:00:17 3.3 C 29 %
2437 29-11-2019 22:10:17 2.6 C 32 %
2438 29-11-2019 22:20:17 2.1 C 35 %
2439 29-11-2019 22:30:17 1.9 C 37 %
2440 29-11-2019 22:40:17 1.7 C 40 %
2441 29-11-2019 22:50:17 1.8 C 41 %
2442 29-11-2019 23:00:17 1.5 C 38 %
2443 29-11-2019 23:10:17 1.1 C 39 %
2444 29-11-2019 23:20:17 1.3 C 41 %
2445 29-11-2019 23:30:17 1.5 C 42 %
2446 29-11-2019 23:40:17 1.6 C 41 %
2447 29-11-2019 23:50:17 1.7 C 41 %
2448 30-11-2019 00:00:17 1.9 C 40 %
2449 30-11-2019 00:10:17 1.8 C 40 %
2450 30-11-2019 00:20:17 1.8 C 40 %
Sensor: Nr:Datum:Temp:Feuchte:
Aussen-T/F 2451 30-11-2019 00:30:17 2 C 37 %
2452 30-11-2019 00:40:17 1.7 C 37 %
2453 30-11-2019 00:50:17 1.6 C 40 %
2454 30-11-2019 01:00:17 1.3 C 40 %
2455 30-11-2019 01:10:17 1 C 40 %
2456 30-11-2019 01:20:17 0.7 C 41 %
2457 30-11-2019 01:30:17 0.5 C 42 %
2458 30-11-2019 01:40:17 0.7 C 44 %
2459 30-11-2019 01:50:17 0.5 C 43 %
2460 30-11-2019 02:00:17 0.4 C 44 %
2461 30-11-2019 02:10:17 0.9 C 45 %
2462 30-11-2019 02:20:17 1.1 C 44 %
2463 30-11-2019 02:30:17 1.2 C 44 %
2464 30-11-2019 02:40:17 0.8 C 43 %
2465 30-11-2019 02:50:17 0.8 C 43 %
2466 30-11-2019 03:00:17 0.9 C 43 %
2467 30-11-2019 03:10:17 0.7 C 43 %
2468 30-11-2019 03:20:17 0.3 C 41 %
2469 30-11-2019 03:30:17 0.5 C 44 %
2470 30-11-2019 03:40:17 0.2 C 43 %
2471 30-11-2019 03:50:17 0.6 C 44 %
2472 30-11-2019 04:00:17 1 C 44 %
2473 30-11-2019 04:10:17 1.3 C 43 %
2474 30-11-2019 04:20:17 1.3 C 41 %
2475 30-11-2019 04:30:17 1.4 C 40 %
Sensor: Nr:Datum:Temp:Feuchte:
Aussen-T/F 2476 30-11-2019 04:40:17 1.3 C 40 %
2477 30-11-2019 04:50:17 1 C 38 %
2478 30-11-2019 05:00:17 0.6 C 40 %
2479 30-11-2019 05:10:17 1.1 C 41 %
2480 30-11-2019 05:20:17 0.8 C 40 %
2481 30-11-2019 05:30:17 0.3 C 40 %
2482 30-11-2019 05:40:17 -0.5 C 40 %
2483 30-11-2019 05:50:17 -0.7 C 41 %
2484 30-11-2019 06:00:17 -0.7 C 43 %
2485 30-11-2019 06:10:17 -0.9 C 43 %
2486 30-11-2019 06:20:17 -1 C 43 %
2487 30-11-2019 06:30:17 -1.2 C 43 %
2488 30-11-2019 06:40:17 -1.3 C 43 %
2489 30-11-2019 06:50:17 -1.2 C 44 %
2490 30-11-2019 07:00:17 -1.4 C 44 %
2491 30-11-2019 07:10:17 -1.4 C 43 %
2492 30-11-2019 07:20:17 -1.4 C 43 %
2493 30-11-2019 07:30:17 -1.5 C 43 %
2494 30-11-2019 07:40:17 -1.2 C 44 %
2495 30-11-2019 07:50:17 -1.1 C 44 %
2496 30-11-2019 08:00:17 -1 C 44 %
2497 30-11-2019 08:10:17 -0.7 C 44 %
2498 30-11-2019 08:20:17 -0.6 C 44 %
2499 30-11-2019 08:30:17 -0.7 C 44 %
2500 30-11-2019 08:40:17 -0.6 C 44 %
Sensor: Nr:Datum:Temp:Feuchte:
Aussen-T/F 2501 30-11-2019 08:50:17 -0.7 C 44 %
2502 30-11-2019 09:00:17 -0.7 C 44 %
2503 30-11-2019 09:10:17 -0.6 C 44 %
2504 30-11-2019 09:20:17 -0.7 C 44 %
2505 30-11-2019 09:30:17 -0.7 C 44 %
2506 30-11-2019 09:40:17 -0.6 C 44 %
2507 30-11-2019 09:50:17 -0.3 C 44 %
2508 30-11-2019 10:00:17 -0.3 C 44 %
2509 30-11-2019 10:10:17 0 C 44 %
2510 30-11-2019 10:20:17 0.1 C 43 %
2511 30-11-2019 10:30:17 0.4 C 43 %
2512 30-11-2019 10:40:17 0.5 C 43 %
2513 30-11-2019 10:50:17 0.4 C 43 %
2514 30-11-2019 11:00:18 0.5 C 42 %
2515 30-11-2019 11:10:18 0.6 C 42 %
2516 30-11-2019 11:20:17 0.6 C 42 %
2517 30-11-2019 11:30:17 0.4 C 41 %
2518 30-11-2019 11:40:17 0.6 C 41 %
2519 30-11-2019 11:50:17 0.9 C 41 %
2520 30-11-2019 12:00:17 1.1 C 40 %
2521 30-11-2019 12:10:17 0.9 C 38 %
2522 30-11-2019 12:20:17 1.3 C 39 %
2523 30-11-2019 12:30:17 1.4 C 37 %
2524 30-11-2019 12:40:17 1.4 C 36 %
2525 30-11-2019 12:50:17 2.3 C 36 %
Sensor: Nr:Datum:Temp:Feuchte:
Aussen-T/F 2526 30-11-2019 13:00:17 2.4 C 36 %
2527 30-11-2019 13:10:17 1.8 C 36 %
2528 30-11-2019 13:20:17 2.2 C 36 %
2529 30-11-2019 13:30:17 2.1 C 36 %
2530 30-11-2019 13:40:17 2.3 C 36 %
2531 30-11-2019 13:50:17 2.3 C 36 %
2532 30-11-2019 14:00:17 2 C 36 %
2533 30-11-2019 14:10:17 2.1 C 38 %
2534 30-11-2019 14:20:17 2.2 C 38 %
2535 30-11-2019 14:30:17 2.2 C 38 %
2536 30-11-2019 14:40:17 2.4 C 38 %
2537 30-11-2019 14:50:17 2.2 C 37 %
2538 30-11-2019 15:00:17 1.9 C 39 %
2539 30-11-2019 15:10:17 1.8 C 40 %
2540 30-11-2019 15:20:18 1.9 C 41 %
2541 30-11-2019 15:30:17 1.8 C 41 %
2542 30-11-2019 15:40:17 1.6 C 41 %
2543 30-11-2019 15:50:17 1.7 C 42 %
2544 30-11-2019 16:00:17 1.5 C 42 %
2545 30-11-2019 16:10:17 1.5 C 42 %
2546 30-11-2019 16:20:17 1.4 C 43 %
2547 30-11-2019 16:30:17 1.3 C 43 %
2548 30-11-2019 16:40:17 1.3 C 43 %
2549 30-11-2019 16:50:17 1.1 C 43 %
2550 30-11-2019 17:00:17 0.9 C 44 %
Sensor: Nr:Datum:Temp:Feuchte:
Aussen-T/F 2551 30-11-2019 17:10:17 0.9 C 44 %
2552 30-11-2019 17:20:17 0.6 C 44 %
2553 30-11-2019 17:30:17 0.6 C 44 %
2554 30-11-2019 17:40:17 0.6 C 44 %
2555 30-11-2019 17:50:17 0.5 C 44 %
2556 30-11-2019 18:00:17 0.4 C 44 %
2557 30-11-2019 18:10:17 0.3 C 44 %
2558 30-11-2019 18:20:17 0.3 C 44 %
2559 30-11-2019 18:30:17 0.4 C 44 %
2560 30-11-2019 18:40:17 0.4 C 44 %
2561 30-11-2019 18:50:17 0.4 C 44 %
2562 30-11-2019 19:00:17 0.2 C 44 %
2563 30-11-2019 19:10:17 0 C 44 %
2564 30-11-2019 19:20:17 0 C 44 %
2565 30-11-2019 19:30:17 0 C 44 %
2566 30-11-2019 19:40:17 -0.1 C 44 %
2567 30-11-2019 19:50:17 -0.1 C 44 %
2568 30-11-2019 20:00:17 -0.2 C 44 %
2569 30-11-2019 20:10:18 -0.2 C 44 %
2570 30-11-2019 20:20:18 -0.2 C 44 %
2571 30-11-2019 20:30:17 -0.2 C 44 %
2572 30-11-2019 20:40:17 -0.4 C 44 %
2573 30-11-2019 20:50:17 -0.3 C 44 %
2574 30-11-2019 21:00:17 -0.2 C 44 %
2575 30-11-2019 21:10:17 -0.3 C 44 %
Sensor: Nr:Datum:Temp:Feuchte:
Aussen-T/F 2576 30-11-2019 21:20:17 -0.3 C 44 %
2577 30-11-2019 21:30:17 -0.4 C 44 %
2578 30-11-2019 21:40:17 -0.2 C 44 %
2579 30-11-2019 21:50:17 -0.3 C 44 %
2580 30-11-2019 22:00:17 -0.3 C 44 %
2581 30-11-2019 22:10:17 -0.3 C 44 %
2582 30-11-2019 22:20:17 -0.3 C 44 %
2583 30-11-2019 22:30:17 -0.1 C 44 %
2584 30-11-2019 22:40:17 0 C 44 %
2585 30-11-2019 22:50:17 0 C 44 %
2586 30-11-2019 23:00:17 0 C 44 %
2587 30-11-2019 23:10:17 0 C 44 %
2588 30-11-2019 23:20:17 -0.1 C 44 %
2589 30-11-2019 23:30:17 -0.4 C 43 %
2590 30-11-2019 23:40:17 -0.5 C 43 %
2591 30-11-2019 23:50:17 -0.4 C 43 %
2592 01-12-2019 00:00:17 -0.2 C 43 %
2593 01-12-2019 00:10:17 -0.3 C 43 %
2594 01-12-2019 00:20:17 -0.3 C 43 %
2595 01-12-2019 00:30:17 -0.3 C 43 %
2596 01-12-2019 00:40:17 -0.3 C 43 %
2597 01-12-2019 00:50:18 -0.2 C 43 %
2598 01-12-2019 01:00:17 0 C 44 %
2599 01-12-2019 01:10:17 -0.1 C 43 %
2600 01-12-2019 01:20:17 -0.1 C 43 %
Sensor: Nr:Datum:Temp:Feuchte:
Aussen-T/F 2601 01-12-2019 01:30:17 -0.1 C 43 %
2602 01-12-2019 01:40:17 -0.1 C 43 %
2603 01-12-2019 01:50:17 -0.2 C 43 %
2604 01-12-2019 02:00:17 -0.1 C 43 %
2605 01-12-2019 02:10:17 -0.2 C 43 %
2606 01-12-2019 02:20:17 -0.2 C 43 %
2607 01-12-2019 02:30:17 -0.2 C 43 %
2608 01-12-2019 02:40:17 -0.3 C 43 %
2609 01-12-2019 02:50:17 -0.2 C 43 %
2610 01-12-2019 03:00:17 -0.3 C 43 %
2611 01-12-2019 03:10:17 -0.3 C 43 %
2612 01-12-2019 03:20:17 -0.4 C 43 %
2613 01-12-2019 03:30:17 -0.4 C 43 %
2614 01-12-2019 03:40:17 -0.4 C 43 %
2615 01-12-2019 03:50:17 -0.4 C 43 %
2616 01-12-2019 04:00:17 -0.4 C 43 %
2617 01-12-2019 04:10:17 -0.8 C 42 %
2618 01-12-2019 04:20:17 -1.1 C 42 %
2619 01-12-2019 04:30:17 -1.3 C 42 %
2620 01-12-2019 04:40:17 -0.9 C 43 %
2621 01-12-2019 04:50:17 -0.9 C 43 %
2622 01-12-2019 05:00:17 -0.7 C 43 %
2623 01-12-2019 05:10:17 -0.8 C 43 %
2624 01-12-2019 05:20:17 -0.9 C 43 %
2625 01-12-2019 05:30:17 -1.1 C 43 %
Sensor: Nr:Datum:Temp:Feuchte:
Aussen-T/F 2626 01-12-2019 05:40:17 -1 C 43 %
2627 01-12-2019 05:50:17 -0.9 C 43 %
2628 01-12-2019 06:00:17 -1 C 43 %
2629 01-12-2019 06:10:17 -1.1 C 43 %
2630 01-12-2019 06:20:17 -1.3 C 43 %
2631 01-12-2019 06:30:17 -1 C 43 %
2632 01-12-2019 06:40:17 -0.9 C 43 %
2633 01-12-2019 06:50:17 -0.9 C 43 %
2634 01-12-2019 07:00:17 -0.8 C 43 %
2635 01-12-2019 07:10:17 -0.7 C 43 %
2636 01-12-2019 07:20:17 -0.5 C 43 %
2637 01-12-2019 07:30:17 -0.5 C 43 %
2638 01-12-2019 07:40:17 -0.3 C 43 %
2639 01-12-2019 07:50:17 -0.2 C 43 %
2640 01-12-2019 08:00:17 -0.1 C 43 %
2641 01-12-2019 08:10:17 -0.1 C 43 %
2642 01-12-2019 08:20:17 -0.2 C 43 %
2643 01-12-2019 08:30:17 -0.2 C 43 %
2644 01-12-2019 08:40:17 -0.2 C 43 %
2645 01-12-2019 08:50:17 0 C 43 %
2646 01-12-2019 09:00:17 0 C 42 %
2647 01-12-2019 09:10:17 0.2 C 42 %
2648 01-12-2019 09:20:17 0.1 C 42 %
2649 01-12-2019 09:30:17 0.1 C 42 %
2650 01-12-2019 09:40:17 0.2 C 41 %
Sensor: Nr:Datum:Temp:Feuchte:
Aussen-T/F 2651 01-12-2019 09:50:17 0.3 C 41 %
2652 01-12-2019 10:00:17 0.5 C 41 %
2653 01-12-2019 10:10:17 0.6 C 41 %
2654 01-12-2019 10:20:17 0.7 C 40 %
2655 01-12-2019 10:30:17 0.8 C 39 %
2656 01-12-2019 10:40:17 1 C 38 %
2657 01-12-2019 10:50:17 1.1 C 37 %
2658 01-12-2019 11:00:17 1.4 C 36 %
2659 01-12-2019 11:10:17 1.9 C 34 %
2660 01-12-2019 11:20:17 2.1 C 32 %
2661 01-12-2019 11:30:17 2.7 C 30 %
2662 01-12-2019 11:40:17 3 C 27 %
2663 01-12-2019 11:50:17 2.9 C 20 %
2664 01-12-2019 12:00:17 3 C 21 %
2665 01-12-2019 12:10:17 3.1 C 20 %
2666 01-12-2019 12:20:17 3.3 C 20 %
2667 01-12-2019 12:30:18 3.3 C 20 %
2668 01-12-2019 12:40:18 3.3 C 20 %
2669 01-12-2019 12:50:18 3.4 C 20 %
2670 01-12-2019 13:00:17 3.3 C 20 %
2671 01-12-2019 13:10:17 3.4 C 20 %
2672 01-12-2019 13:20:18 3.5 C 20 %
2673 01-12-2019 13:30:18 3.5 C 20 %
2674 01-12-2019 13:40:18 3.6 C 20 %
2675 01-12-2019 13:50:17 3.8 C 20 %
Sensor: Nr:Datum:Temp:Feuchte:
Aussen-T/F 2676 01-12-2019 14:00:17 3.9 C 20 %
2677 01-12-2019 14:10:18 3.9 C 20 %
2678 01-12-2019 14:20:18 3.7 C 20 %
2679 01-12-2019 14:30:17 3.7 C 20 %
2680 01-12-2019 14:40:17 3.6 C 20 %
2681 01-12-2019 14:50:17 3.6 C 20 %
2682 01-12-2019 15:00:17 3.5 C 20 %
2683 01-12-2019 15:10:17 3.3 C 20 %
2684 01-12-2019 15:20:17 3.2 C 21 %
2685 01-12-2019 15:30:17 3 C 20 %
2686 01-12-2019 15:40:17 3 C 21 %
2687 01-12-2019 15:50:17 2.7 C 25 %
2688 01-12-2019 16:00:17 2.6 C 25 %
2689 01-12-2019 16:10:17 2.5 C 25 %
2690 01-12-2019 16:20:17 2.4 C 25 %
2691 01-12-2019 16:30:18 2.4 C 25 %
2692 01-12-2019 16:40:18 2.2 C 25 %
2693 01-12-2019 16:50:18 2.2 C 25 %
2694 01-12-2019 17:00:18 2.2 C 25 %
2695 01-12-2019 17:10:18 2.2 C 25 %
2696 01-12-2019 17:20:17 2.3 C 25 %
2697 01-12-2019 17:30:17 2.3 C 25 %
2698 01-12-2019 17:40:17 2.3 C 25 %
2699 01-12-2019 17:50:17 2.3 C 25 %
2700 01-12-2019 18:00:17 2.3 C 25 %
Sensor: Nr:Datum:Temp:Feuchte:
Aussen-T/F 2701 01-12-2019 18:10:17 2.3 C 25 %
2702 01-12-2019 18:20:17 2.3 C 25 %
2703 01-12-2019 18:30:17 2.3 C 25 %
2704 01-12-2019 18:40:17 2.3 C 25 %
2705 01-12-2019 18:50:17 2.3 C 23 %
2706 01-12-2019 19:00:17 2.3 C 23 %
2707 01-12-2019 19:10:18 2.4 C 25 %
2708 01-12-2019 19:20:17 2.3 C 25 %
2709 01-12-2019 19:30:17 2.3 C 25 %
2710 01-12-2019 19:40:17 2.3 C 25 %
2711 01-12-2019 19:50:17 2.2 C 26 %
2712 01-12-2019 20:00:17 2.5 C 25 %
2713 01-12-2019 20:10:17 2.2 C 25 %
2714 01-12-2019 20:20:17 2.1 C 25 %
2715 01-12-2019 20:30:18 2.1 C 25 %
2716 01-12-2019 20:40:18 2.1 C 25 %
2717 01-12-2019 20:50:17 2 C 27 %
2718 01-12-2019 21:00:17 1.9 C 27 %
2719 01-12-2019 21:10:17 1.8 C 28 %
2720 01-12-2019 21:20:17 1.6 C 30 %
2721 01-12-2019 21:30:18 1.5 C 29 %
2722 01-12-2019 21:40:18 1.6 C 28 %
2723 01-12-2019 21:50:17 1.6 C 28 %
2724 01-12-2019 22:00:17 1.5 C 29 %
2725 01-12-2019 22:10:17 1.4 C 29 %
Sensor: Nr:Datum:Temp:Feuchte:
Aussen-T/F 2726 01-12-2019 22:20:17 1.4 C 30 %
2727 01-12-2019 22:30:18 1.3 C 28 %
2728 01-12-2019 22:40:18 1.2 C 29 %
2729 01-12-2019 22:50:17 1.1 C 29 %
2730 01-12-2019 23:00:17 0.8 C 30 %
2731 01-12-2019 23:10:17 0.8 C 30 %
2732 01-12-2019 23:20:18 0.7 C 30 %
2733 01-12-2019 23:30:17 0.5 C 32 %
2734 01-12-2019 23:40:17 0.3 C 33 %
2735 01-12-2019 23:50:17 0.2 C 33 %
2736 02-12-2019 00:00:17 0.1 C 33 %
2737 02-12-2019 00:10:17 0.2 C 33 %
2738 02-12-2019 00:20:17 0.3 C 32 %
2739 02-12-2019 00:30:17 0.3 C 32 %
2740 02-12-2019 00:40:17 0.2 C 32 %
2741 02-12-2019 00:50:18 0.2 C 35 %
2742 02-12-2019 01:00:17 0.1 C 36 %
2743 02-12-2019 01:10:17 0 C 38 %
2744 02-12-2019 01:20:17 -0.2 C 36 %
2745 02-12-2019 01:30:17 0.2 C 34 %
2746 02-12-2019 01:40:17 -0.2 C 35 %
2747 02-12-2019 01:50:17 -0.9 C 35 %
2748 02-12-2019 02:00:18 -0.9 C 37 %
2749 02-12-2019 02:10:18 -0.9 C 37 %
2750 02-12-2019 02:20:17 -0.5 C 37 %
Sensor: Nr:Datum:Temp:Feuchte:
Aussen-T/F 2751 02-12-2019 02:30:17 -1 C 36 %
2752 02-12-2019 02:40:17 -1.1 C 37 %
2753 02-12-2019 02:50:17 -1.1 C 36 %
2754 02-12-2019 03:00:17 -1 C 37 %
2755 02-12-2019 03:10:17 -1.2 C 38 %
2756 02-12-2019 03:20:17 -1.3 C 37 %
2757 02-12-2019 03:30:18 -1.3 C 38 %
2758 02-12-2019 03:40:18 -1.4 C 37 %
2759 02-12-2019 03:50:17 -1.4 C 37 %
2760 02-12-2019 04:00:18 -1.7 C 39 %
2761 02-12-2019 04:10:18 -1.4 C 40 %
2762 02-12-2019 04:20:17 -1.1 C 40 %
2763 02-12-2019 04:30:17 -1 C 40 %
2764 02-12-2019 04:40:17 -0.8 C 36 %
2765 02-12-2019 04:50:17 -1.1 C 37 %
2766 02-12-2019 05:00:17 -1.4 C 40 %
2767 02-12-2019 05:10:17 -1.1 C 40 %
2768 02-12-2019 05:20:17 -1.2 C 39 %
2769 02-12-2019 05:30:17 -1.6 C 40 %
2770 02-12-2019 05:40:17 -1.4 C 41 %
2771 02-12-2019 05:50:17 -1.3 C 42 %
2772 02-12-2019 06:00:17 -1.2 C 41 %
2773 02-12-2019 06:10:17 -1.3 C 39 %
2774 02-12-2019 06:20:17 -1.2 C 39 %
2775 02-12-2019 06:30:17 -1.4 C 38 %
Sensor: Nr:Datum:Temp:Feuchte:
Aussen-T/F 2776 02-12-2019 06:40:17 -1.4 C 40 %
2777 02-12-2019 06:50:17 -1.8 C 37 %
2778 02-12-2019 07:00:17 -2.4 C 38 %
2779 02-12-2019 07:10:17 -2.6 C 40 %
2780 02-12-2019 07:20:17 -2.9 C 40 %
2781 02-12-2019 07:30:17 -2.7 C 42 %
2782 02-12-2019 07:40:17 -2.6 C 42 %
2783 02-12-2019 07:50:17 -2.4 C 43 %
2784 02-12-2019 08:00:17 -1.9 C 45 %
2785 02-12-2019 08:10:18 -1.6 C 44 %
2786 02-12-2019 08:20:17 -1.3 C 44 %
2787 02-12-2019 08:30:17 -1 C 43 %
2788 02-12-2019 08:40:17 -0.7 C 43 %
2789 02-12-2019 08:50:17 -0.5 C 42 %
2790 02-12-2019 09:00:17 -0.5 C 40 %
2791 02-12-2019 09:10:17 -0.4 C 38 %
2792 02-12-2019 09:20:17 -0.4 C 36 %
2793 02-12-2019 09:30:17 -0.4 C 36 %
2794 02-12-2019 09:40:17 0 C 36 %
2795 02-12-2019 09:50:17 0 C 35 %
2796 02-12-2019 10:00:17 0.1 C 35 %
2797 02-12-2019 10:10:17 0.1 C 34 %
2798 02-12-2019 10:20:17 0.2 C 35 %
2799 02-12-2019 10:30:17 0.5 C 36 %
2800 02-12-2019 10:40:17 1 C 31 %
Sensor: Nr:Datum:Temp:Feuchte:
Aussen-T/F 2801 02-12-2019 10:50:17 0.8 C 31 %
2802 02-12-2019 11:00:17 1.2 C 30 %
2803 02-12-2019 11:10:17 1.1 C 30 %
2804 02-12-2019 11:20:17 1.2 C 30 %
2805 02-12-2019 11:30:17 0.9 C 31 %
2806 02-12-2019 11:40:18 1 C 31 %
2807 02-12-2019 11:50:17 0.8 C 32 %
2808 02-12-2019 12:00:18 1.6 C 31 %
2809 02-12-2019 12:10:18 2.3 C 27 %
2810 02-12-2019 12:20:17 2.8 C 25 %
2811 02-12-2019 12:30:17 3.1 C 26 %
2812 02-12-2019 12:40:17 3 C 25 %
2813 02-12-2019 12:50:18 3.2 C 26 %
2814 02-12-2019 13:00:17 3.2 C 26 %
2815 02-12-2019 13:10:17 3.5 C 25 %
2816 02-12-2019 13:20:17 3.9 C 25 %
2817 02-12-2019 13:30:17 3.9 C 25 %
2818 02-12-2019 13:40:17 3.8 C 25 %
2819 02-12-2019 13:50:17 3.6 C 25 %
2820 02-12-2019 14:00:17 4 C 26 %
2821 02-12-2019 14:10:17 3.7 C 28 %
2822 02-12-2019 14:20:17 3.7 C 30 %
2823 02-12-2019 14:30:17 4.1 C 27 %
2824 02-12-2019 14:40:17 4.3 C 27 %
2825 02-12-2019 14:50:17 4.5 C 27 %
Sensor: Nr:Datum:Temp:Feuchte:
Aussen-T/F 2826 02-12-2019 15:00:18 4.3 C 28 %
2827 02-12-2019 15:10:18 4.3 C 29 %
2828 02-12-2019 15:20:17 4.7 C 27 %
2829 02-12-2019 15:30:17 4.4 C 27 %
2830 02-12-2019 15:40:17 4.1 C 31 %
2831 02-12-2019 15:50:17 3.9 C 36 %
2832 02-12-2019 16:00:18 3.7 C 37 %
2833 02-12-2019 16:10:18 3.6 C 37 %
2834 02-12-2019 16:20:17 3.5 C 40 %
2835 02-12-2019 16:30:17 3.5 C 38 %
2836 02-12-2019 16:40:17 3.5 C 35 %
2837 02-12-2019 16:50:17 3.5 C 35 %
2838 02-12-2019 17:00:17 3.3 C 36 %
2839 02-12-2019 17:10:17 3.2 C 39 %
2840 02-12-2019 17:20:17 3.2 C 36 %
2841 02-12-2019 17:30:18 3.3 C 36 %
2842 02-12-2019 17:40:18 3.4 C 35 %
2843 02-12-2019 17:50:17 3.3 C 35 %
2844 02-12-2019 18:01:17 3.1 C 36 %
2845 02-12-2019 18:11:17 3.2 C 37 %
2846 02-12-2019 18:21:17 3.2 C 36 %
2847 02-12-2019 18:30:17 3 C 36 %
2848 02-12-2019 18:40:17 2.5 C 40 %
2849 02-12-2019 18:50:17 2.2 C 40 %
2850 02-12-2019 19:00:17 2.1 C 42 %
Sensor: Nr:Datum:Temp:Feuchte:
Aussen-T/F 2851 02-12-2019 19:10:17 2.7 C 43 %
2852 02-12-2019 19:21:17 2.7 C 42 %
2853 02-12-2019 19:30:17 2.7 C 41 %
2854 02-12-2019 19:40:17 2.9 C 42 %
2855 02-12-2019 19:51:17 2.9 C 42 %
2856 02-12-2019 20:01:17 2.9 C 39 %
2857 02-12-2019 20:11:17 2.8 C 38 %
2858 02-12-2019 20:21:17 2.9 C 37 %
2859 02-12-2019 20:31:17 2.9 C 38 %
2860 02-12-2019 20:40:17 2.8 C 40 %
2861 02-12-2019 20:51:17 2.7 C 42 %
2862 02-12-2019 21:00:17 2.7 C 42 %
2863 02-12-2019 21:10:17 2.7 C 42 %
2864 02-12-2019 21:21:17 2.7 C 42 %
2865 02-12-2019 21:30:18 2.7 C 42 %
2866 02-12-2019 21:40:18 2.6 C 41 %
2867 02-12-2019 21:51:17 2.6 C 42 %
2868 02-12-2019 22:01:17 2.6 C 41 %
2869 02-12-2019 22:11:17 2.6 C 41 %
2870 02-12-2019 22:21:17 2.6 C 41 %
2871 02-12-2019 22:30:18 2.5 C 40 %
2872 02-12-2019 22:40:18 2.5 C 41 %
2873 02-12-2019 22:51:17 2.4 C 41 %
2874 02-12-2019 23:01:17 2.5 C 41 %
2875 02-12-2019 23:11:17 2.4 C 42 %
Sensor: Nr:Datum:Temp:Feuchte:
Aussen-T/F 2876 02-12-2019 23:21:17 2.5 C 42 %
2877 02-12-2019 23:31:17 2.5 C 42 %
2878 02-12-2019 23:41:17 2.5 C 42 %
2879 02-12-2019 23:50:18 2.5 C 42 %
2880 03-12-2019 00:01:17 2.5 C 42 %
2881 03-12-2019 00:11:17 2.5 C 42 %
2882 03-12-2019 00:21:17 2.5 C 41 %
2883 03-12-2019 00:30:18 2.5 C 41 %
2884 03-12-2019 00:40:18 2.6 C 41 %
2885 03-12-2019 00:51:17 2.6 C 41 %
2886 03-12-2019 01:01:18 2.6 C 41 %
2887 03-12-2019 01:11:18 2.6 C 41 %
2888 03-12-2019 01:21:17 2.7 C 41 %
2889 03-12-2019 01:31:17 2.7 C 41 %
2890 03-12-2019 01:41:17 2.7 C 42 %
2891 03-12-2019 01:51:17 2.7 C 42 %
2892 03-12-2019 02:01:17 2.7 C 42 %
2893 03-12-2019 02:11:17 2.8 C 42 %
2894 03-12-2019 02:21:17 2.8 C 42 %
2895 03-12-2019 02:31:17 2.8 C 42 %
2896 03-12-2019 02:41:17 2.9 C 42 %
2897 03-12-2019 02:51:17 2.8 C 42 %
2898 03-12-2019 03:01:17 2.8 C 42 %
2899 03-12-2019 03:11:17 2.8 C 42 %
2900 03-12-2019 03:21:17 2.8 C 42 %
Sensor: Nr:Datum:Temp:Feuchte:
Aussen-T/F 2901 03-12-2019 03:31:17 2.9 C 42 %
2902 03-12-2019 03:41:17 3 C 42 %
2903 03-12-2019 03:51:17 3 C 42 %
2904 03-12-2019 04:01:17 3 C 42 %
2905 03-12-2019 04:11:17 3 C 42 %
2906 03-12-2019 04:21:17 3 C 42 %
2907 03-12-2019 04:31:17 3.1 C 42 %
2908 03-12-2019 04:41:17 3.1 C 42 %
2909 03-12-2019 04:51:17 3.1 C 42 %
2910 03-12-2019 05:01:17 3.1 C 42 %
2911 03-12-2019 05:11:17 3.1 C 42 %
2912 03-12-2019 05:21:17 3.1 C 42 %
2913 03-12-2019 05:31:17 3.2 C 42 %
2914 03-12-2019 05:41:17 3.2 C 41 %
2915 03-12-2019 05:51:17 3.2 C 41 %
2916 03-12-2019 06:01:18 3.2 C 41 %
2917 03-12-2019 06:11:18 3.2 C 41 %
2918 03-12-2019 06:21:17 3.2 C 41 %
2919 03-12-2019 06:31:17 3.3 C 41 %
2920 03-12-2019 06:41:17 3.3 C 41 %
2921 03-12-2019 06:51:18 3.3 C 41 %
2922 03-12-2019 07:01:17 3.3 C 41 %
2923 03-12-2019 07:11:17 3.3 C 41 %
2924 03-12-2019 07:21:17 3.3 C 41 %
2925 03-12-2019 07:31:17 3.2 C 41 %
Sensor: Nr:Datum:Temp:Feuchte:
Aussen-T/F 2926 03-12-2019 07:41:17 3.3 C 41 %
2927 03-12-2019 07:51:17 3.3 C 42 %
2928 03-12-2019 08:01:17 3.3 C 42 %
2929 03-12-2019 08:11:17 3.4 C 42 %
2930 03-12-2019 08:21:17 3.3 C 42 %
2931 03-12-2019 08:31:17 3.4 C 42 %
2932 03-12-2019 08:41:17 3.4 C 41 %
2933 03-12-2019 08:51:17 3.4 C 41 %
2934 03-12-2019 09:01:17 3.5 C 42 %
2935 03-12-2019 09:11:17 3.5 C 42 %
2936 03-12-2019 09:21:17 3.5 C 41 %
2937 03-12-2019 09:31:17 3.6 C 41 %
2938 03-12-2019 09:41:17 3.6 C 41 %
2939 03-12-2019 09:51:17 3.7 C 41 %
2940 03-12-2019 10:01:17 3.7 C 41 %
2941 03-12-2019 10:11:17 3.8 C 41 %
2942 03-12-2019 10:21:17 3.8 C 41 %
2943 03-12-2019 10:31:17 3.8 C 41 %
2944 03-12-2019 10:41:17 4.1 C 40 %
2945 03-12-2019 10:51:17 4.1 C 40 %
2946 03-12-2019 11:01:18 4.3 C 39 %
2947 03-12-2019 11:11:18 4.3 C 37 %
2948 03-12-2019 11:21:17 4.4 C 37 %
2949 03-12-2019 11:31:17 4.6 C 37 %
2950 03-12-2019 11:41:17 4.6 C 37 %
Sensor: Nr:Datum:Temp:Feuchte:
Aussen-T/F 2951 03-12-2019 11:51:17 4.7 C 37 %
2952 03-12-2019 12:01:17 4.7 C 37 %
2953 03-12-2019 12:11:17 4.9 C 35 %
2954 03-12-2019 12:21:17 5 C 34 %
2955 03-12-2019 12:31:17 5 C 35 %
2956 03-12-2019 12:41:17 5.2 C 35 %
2957 03-12-2019 12:51:18 5.3 C 34 %
2958 03-12-2019 13:01:17 5.6 C 34 %
2959 03-12-2019 13:11:17 5.8 C 33 %
2960 03-12-2019 13:21:17 5.8 C 32 %
2961 03-12-2019 13:31:17 5.7 C 32 %
2962 03-12-2019 13:41:17 5.9 C 32 %
2963 03-12-2019 13:51:18 6.1 C 31 %
2964 03-12-2019 14:01:17 6.1 C 31 %
2965 03-12-2019 14:11:17 6.2 C 31 %
2966 03-12-2019 14:21:17 6.1 C 31 %
2967 03-12-2019 14:31:17 6.3 C 31 %
2968 03-12-2019 14:41:17 6.2 C 30 %
2969 03-12-2019 14:51:18 6.4 C 31 %
2970 03-12-2019 15:01:17 6.2 C 30 %
2971 03-12-2019 15:11:17 6.3 C 31 %
2972 03-12-2019 15:21:17 6.3 C 31 %
2973 03-12-2019 15:31:17 6.2 C 31 %
2974 03-12-2019 15:41:17 6.1 C 32 %
2975 03-12-2019 15:51:17 6 C 33 %
Sensor: Nr:Datum:Temp:Feuchte:
Aussen-T/F 2976 03-12-2019 16:01:17 5.7 C 36 %
2977 03-12-2019 16:11:17 5.6 C 39 %
2978 03-12-2019 16:21:17 5.4 C 40 %
2979 03-12-2019 16:31:18 5.3 C 41 %
2980 03-12-2019 16:41:18 5.2 C 41 %
2981 03-12-2019 16:51:17 5.2 C 41 %
2982 03-12-2019 17:01:18 5.1 C 41 %
2983 03-12-2019 17:11:18 5.1 C 41 %
2984 03-12-2019 17:21:17 5.1 C 41 %
2985 03-12-2019 17:31:17 5 C 41 %
2986 03-12-2019 17:41:17 5 C 41 %
2987 03-12-2019 17:51:17 5 C 41 %
2988 03-12-2019 18:01:18 4.8 C 41 %
2989 03-12-2019 18:11:18 4.7 C 40 %
2990 03-12-2019 18:21:17 4.7 C 40 %
2991 03-12-2019 18:31:18 4.7 C 40 %
2992 03-12-2019 18:41:18 4.7 C 40 %
2993 03-12-2019 18:51:17 4.7 C 40 %
2994 03-12-2019 19:01:17 4.7 C 40 %
2995 03-12-2019 19:11:17 4.6 C 39 %
2996 03-12-2019 19:21:17 4.6 C 38 %
2997 03-12-2019 19:31:17 4.6 C 38 %
2998 03-12-2019 19:41:17 4.4 C 37 %
2999 03-12-2019 19:51:17 4.3 C 38 %
3000 03-12-2019 20:01:17 4.3 C 39 %
Sensor: Nr:Datum:Temp:Feuchte:
Aussen-T/F 3001 03-12-2019 20:11:17 4.3 C 38 %
3002 03-12-2019 20:21:18 4.2 C 37 %
3003 03-12-2019 20:31:17 4.2 C 38 %
3004 03-12-2019 20:41:18 4.1 C 39 %
3005 03-12-2019 20:51:17 3.9 C 40 %
3006 03-12-2019 21:01:17 3.9 C 41 %
3007 03-12-2019 21:11:17 4 C 40 %
3008 03-12-2019 21:21:17 4 C 40 %
3009 03-12-2019 21:31:17 3.8 C 40 %
3010 03-12-2019 21:41:17 3.5 C 40 %
3011 03-12-2019 21:51:17 3.3 C 40 %
3012 03-12-2019 22:01:17 2.9 C 41 %
3013 03-12-2019 22:11:17 2.8 C 42 %
3014 03-12-2019 22:21:18 2.8 C 42 %
3015 03-12-2019 22:31:18 3.3 C 42 %
3016 03-12-2019 22:41:18 3.5 C 40 %
3017 03-12-2019 22:51:17 3.2 C 38 %
3018 03-12-2019 23:01:18 2.6 C 39 %
3019 03-12-2019 23:11:18 2.5 C 41 %
3020 03-12-2019 23:21:17 2.5 C 41 %
3021 03-12-2019 23:31:17 2.2 C 40 %
3022 03-12-2019 23:41:17 2.8 C 40 %
3023 03-12-2019 23:51:17 2.6 C 38 %
3024 04-12-2019 00:01:18 2.3 C 39 %
3025 04-12-2019 00:11:18 1.7 C 41 %
Sensor: Nr:Datum:Temp:Feuchte:
Aussen-T/F 3026 04-12-2019 00:21:17 1.3 C 42 %
3027 04-12-2019 00:31:17 0.9 C 43 %
3028 04-12-2019 00:41:17 0.4 C 43 %
3029 04-12-2019 00:51:17 0.6 C 45 %
3030 04-12-2019 01:01:18 0.2 C 44 %
3031 04-12-2019 01:11:18 0.2 C 45 %
3032 04-12-2019 01:21:17 0 C 44 %
3033 04-12-2019 01:31:17 -0.1 C 45 %
3034 04-12-2019 01:41:17 0.1 C 45 %
3035 04-12-2019 01:51:18 -0.3 C 45 %
3036 04-12-2019 02:01:17 -0.3 C 45 %
3037 04-12-2019 02:11:17 -0.2 C 45 %
3038 04-12-2019 02:21:17 -0.5 C 45 %
3039 04-12-2019 02:31:18 -0.4 C 45 %
3040 04-12-2019 02:41:18 0.1 C 45 %
3041 04-12-2019 02:51:17 0.3 C 45 %
3042 04-12-2019 03:01:18 0.6 C 45 %
3043 04-12-2019 03:11:18 0.9 C 45 %
3044 04-12-2019 03:21:17 0.9 C 45 %
3045 04-12-2019 03:31:17 1 C 44 %
3046 04-12-2019 03:41:17 1 C 44 %
3047 04-12-2019 03:51:17 1 C 44 %
3048 04-12-2019 04:01:18 0.8 C 45 %
3049 04-12-2019 04:11:18 0.9 C 45 %
3050 04-12-2019 04:21:17 0.8 C 45 %
Sensor: Nr:Datum:Temp:Feuchte:
Aussen-T/F 3051 04-12-2019 04:31:17 0.8 C 45 %
3052 04-12-2019 04:41:17 0.8 C 45 %
3053 04-12-2019 04:51:17 0.8 C 45 %
3054 04-12-2019 05:01:17 0.8 C 45 %
3055 04-12-2019 05:11:17 0.8 C 44 %
3056 04-12-2019 05:21:17 0.8 C 44 %
3057 04-12-2019 05:31:17 1 C 43 %
3058 04-12-2019 05:41:17 1 C 43 %
3059 04-12-2019 05:51:18 1 C 43 %
3060 04-12-2019 06:01:17 1 C 43 %
3061 04-12-2019 06:11:17 1.1 C 43 %
3062 04-12-2019 06:21:17 1.2 C 43 %
3063 04-12-2019 06:31:17 1.2 C 43 %
3064 04-12-2019 06:41:18 1.2 C 43 %
3065 04-12-2019 06:51:17 1.2 C 43 %
3066 04-12-2019 07:01:17 1.1 C 43 %
3067 04-12-2019 07:11:17 1.1 C 43 %
3068 04-12-2019 07:21:18 1.1 C 43 %
3069 04-12-2019 07:31:17 1 C 43 %
3070 04-12-2019 07:41:17 0.9 C 44 %
3071 04-12-2019 07:51:17 1 C 43 %
3072 04-12-2019 08:01:17 0.9 C 44 %
3073 04-12-2019 08:11:17 0.9 C 44 %
3074 04-12-2019 08:21:17 0.9 C 44 %
3075 04-12-2019 08:31:17 0.9 C 44 %
Sensor: Nr:Datum:Temp:Feuchte:
Aussen-T/F 3076 04-12-2019 08:41:17 1 C 42 %
3077 04-12-2019 08:51:17 1 C 42 %
3078 04-12-2019 09:01:18 1 C 42 %
3079 04-12-2019 09:11:18 1.2 C 42 %
3080 04-12-2019 09:21:18 1.2 C 42 %
3081 04-12-2019 09:31:17 1.2 C 41 %
3082 04-12-2019 09:41:17 1.2 C 41 %
3083 04-12-2019 09:51:17 1.4 C 41 %
3084 04-12-2019 10:01:17 1.5 C 41 %
3085 04-12-2019 10:11:18 1.4 C 39 %
3086 04-12-2019 10:21:17 1.3 C 38 %
3087 04-12-2019 10:31:17 1.1 C 37 %
3088 04-12-2019 10:41:17 1.1 C 37 %
3089 04-12-2019 10:51:18 1 C 38 %
3090 04-12-2019 11:01:17 1 C 38 %
3091 04-12-2019 11:11:17 1.1 C 39 %
3092 04-12-2019 11:21:17 1.1 C 39 %
3093 04-12-2019 11:31:18 1.1 C 40 %
3094 04-12-2019 11:41:18 1 C 40 %
3095 04-12-2019 11:51:17 1.1 C 41 %
3096 04-12-2019 12:01:17 1.2 C 41 %
3097 04-12-2019 12:11:17 1.3 C 41 %
3098 04-12-2019 12:21:18 1.3 C 41 %
3099 04-12-2019 12:31:17 1.5 C 41 %
3100 04-12-2019 12:41:17 1.5 C 41 %
Sensor: Nr:Datum:Temp:Feuchte:
Aussen-T/F 3101 04-12-2019 12:51:17 1.6 C 41 %
3102 04-12-2019 13:01:17 1.6 C 41 %
3103 04-12-2019 13:11:17 1.7 C 41 %
3104 04-12-2019 13:21:17 1.8 C 40 %
3105 04-12-2019 13:31:18 1.8 C 40 %
3106 04-12-2019 13:41:18 2.1 C 38 %
3107 04-12-2019 13:51:17 2.1 C 37 %
3108 04-12-2019 14:01:17 2.1 C 37 %
3109 04-12-2019 14:11:17 2.1 C 36 %
3110 04-12-2019 14:21:17 2.1 C 36 %
3111 04-12-2019 14:31:18 2 C 36 %
3112 04-12-2019 14:41:18 2.2 C 35 %
3113 04-12-2019 14:51:17 2.1 C 36 %
3114 04-12-2019 15:01:18 2 C 37 %
3115 04-12-2019 15:11:18 1.7 C 38 %
3116 04-12-2019 15:21:17 1.7 C 40 %
3117 04-12-2019 15:31:17 1.7 C 40 %
3118 04-12-2019 15:41:17 1.8 C 39 %
3119 04-12-2019 15:51:18 1.8 C 39 %
3120 04-12-2019 16:01:17 1.6 C 37 %
3121 04-12-2019 16:11:17 1.5 C 37 %
3122 04-12-2019 16:21:17 1.4 C 37 %
3123 04-12-2019 16:31:17 1.4 C 37 %
3124 04-12-2019 16:41:17 1.2 C 37 %
3125 04-12-2019 16:51:17 1.1 C 36 %
Sensor: Nr:Datum:Temp:Feuchte:
Aussen-T/F 3126 04-12-2019 17:01:17 1 C 37 %
3127 04-12-2019 17:11:17 1 C 37 %
3128 04-12-2019 17:21:18 1 C 36 %
3129 04-12-2019 17:31:17 0.9 C 38 %
3130 04-12-2019 17:41:17 0.6 C 38 %
3131 04-12-2019 17:51:18 0.7 C 39 %
3132 04-12-2019 18:01:17 0.8 C 38 %
3133 04-12-2019 18:11:17 0.3 C 39 %
3134 04-12-2019 18:21:17 0.4 C 40 %
3135 04-12-2019 18:31:17 0.6 C 40 %
3136 04-12-2019 18:41:17 -0.2 C 40 %
3137 04-12-2019 18:51:17 -0.5 C 41 %
3138 04-12-2019 19:01:17 -0.3 C 44 %
3139 04-12-2019 19:11:17 -0.7 C 42 %
3140 04-12-2019 19:21:17 -1.1 C 42 %
3141 04-12-2019 19:31:17 -1 C 44 %
3142 04-12-2019 19:41:17 -1.2 C 44 %
3143 04-12-2019 19:51:17 -1.4 C 43 %
3144 04-12-2019 20:01:17 -1.3 C 44 %
3145 04-12-2019 20:11:17 -1.1 C 45 %
3146 04-12-2019 20:21:17 -1.5 C 44 %
3147 04-12-2019 20:31:17 -1.5 C 44 %
3148 04-12-2019 20:41:17 -1.8 C 43 %
3149 04-12-2019 20:51:18 -1.9 C 44 %
3150 04-12-2019 21:01:18 -1.9 C 44 %
Sensor: Nr:Datum:Temp:Feuchte:
Aussen-T/F 3151 04-12-2019 21:11:18 -1.7 C 44 %
3152 04-12-2019 21:21:17 -2 C 43 %
3153 04-12-2019 21:31:17 -2 C 43 %
3154 04-12-2019 21:41:17 -2.4 C 43 %
3155 04-12-2019 21:51:17 -2.4 C 43 %
3156 04-12-2019 22:01:17 -2.5 C 43 %
3157 04-12-2019 22:11:17 -2.6 C 43 %
3158 04-12-2019 22:21:17 -2.7 C 44 %
3159 04-12-2019 22:31:18 -2.8 C 43 %
3160 04-12-2019 22:41:18 -2.7 C 43 %
3161 04-12-2019 22:51:17 -2.5 C 43 %
3162 04-12-2019 23:01:17 -2.6 C 42 %
3163 04-12-2019 23:11:17 -2.9 C 42 %
3164 04-12-2019 23:21:17 -2.7 C 42 %
3165 04-12-2019 23:31:17 -2.7 C 42 %
3166 04-12-2019 23:41:17 -2.9 C 41 %
3167 04-12-2019 23:51:18 -2.9 C 42 %
3168 05-12-2019 00:01:17 -3 C 41 %
3169 05-12-2019 00:11:17 -3 C 41 %
3170 05-12-2019 00:21:17 -3.1 C 41 %
3171 05-12-2019 00:31:18 -2.8 C 41 %
3172 05-12-2019 00:41:18 -2.8 C 41 %
3173 05-12-2019 00:51:17 -2.9 C 41 %
3174 05-12-2019 01:01:17 -2.9 C 41 %
3175 05-12-2019 01:11:17 -3.2 C 41 %
Sensor: Nr:Datum:Temp:Feuchte:
Aussen-T/F 3176 05-12-2019 01:21:17 -2.5 C 43 %
3177 05-12-2019 01:31:18 -2.6 C 43 %
3178 05-12-2019 01:41:18 -2.7 C 43 %
3179 05-12-2019 01:51:17 -2.6 C 43 %
3180 05-12-2019 02:01:17 -2.6 C 42 %
3181 05-12-2019 02:11:18 -2.8 C 41 %
3182 05-12-2019 02:21:17 -3 C 41 %
3183 05-12-2019 02:31:17 -3.2 C 41 %
3184 05-12-2019 02:41:17 -3.2 C 41 %
3185 05-12-2019 02:51:17 -3.2 C 41 %
3186 05-12-2019 03:01:17 -3.4 C 40 %
3187 05-12-2019 03:11:17 -3.5 C 40 %
3188 05-12-2019 03:21:17 -3.3 C 41 %
3189 05-12-2019 03:31:17 -3.2 C 41 %
3190 05-12-2019 03:41:17 -3.6 C 40 %
3191 05-12-2019 03:51:17 -3 C 43 %
3192 05-12-2019 04:01:17 -2.7 C 43 %
3193 05-12-2019 04:11:17 -2.7 C 43 %
3194 05-12-2019 04:21:17 -2.7 C 43 %
3195 05-12-2019 04:31:18 -2.9 C 42 %
3196 05-12-2019 04:41:18 -3.3 C 40 %
3197 05-12-2019 04:51:17 -2.9 C 42 %
3198 05-12-2019 05:01:17 -2.8 C 43 %
3199 05-12-2019 05:11:17 -2.8 C 42 %
3200 05-12-2019 05:21:17 -2.7 C 43 %
Sensor: Nr:Datum:Temp:Feuchte:
Aussen-T/F 3201 05-12-2019 05:31:17 -2.7 C 43 %
3202 05-12-2019 05:41:18 -2.5 C 43 %
3203 05-12-2019 05:51:17 -2.5 C 43 %
3204 05-12-2019 06:01:17 -2.6 C 43 %
3205 05-12-2019 06:11:17 -2.7 C 43 %
3206 05-12-2019 06:21:17 -2.9 C 43 %
3207 05-12-2019 06:31:17 -2.9 C 43 %
3208 05-12-2019 06:41:17 -3 C 42 %
3209 05-12-2019 06:51:17 -2.9 C 43 %
3210 05-12-2019 07:01:17 -2.9 C 42 %
3211 05-12-2019 07:11:17 -2.9 C 42 %
3212 05-12-2019 07:21:17 -3.2 C 42 %
3213 05-12-2019 07:31:17 -3.1 C 42 %
3214 05-12-2019 07:41:18 -2.9 C 42 %
3215 05-12-2019 07:51:17 -2.9 C 42 %
3216 05-12-2019 08:01:17 -3 C 42 %
3217 05-12-2019 08:11:17 -2.8 C 43 %
3218 05-12-2019 08:21:18 -2.9 C 42 %
3219 05-12-2019 08:31:17 -2.8 C 42 %
3220 05-12-2019 08:41:17 -3 C 42 %
3221 05-12-2019 08:51:17 -3 C 42 %
3222 05-12-2019 09:01:18 -2.7 C 43 %
3223 05-12-2019 09:11:18 -2.6 C 43 %
3224 05-12-2019 09:21:17 -2.6 C 42 %
3225 05-12-2019 09:31:17 -2.6 C 42 %
Sensor: Nr:Datum:Temp:Feuchte:
Aussen-T/F 3226 05-12-2019 09:41:17 -2.5 C 43 %
3227 05-12-2019 09:51:17 -2.4 C 42 %
3228 05-12-2019 10:01:18 -2.3 C 42 %
3229 05-12-2019 10:11:18 -2.4 C 42 %
3230 05-12-2019 10:21:17 -2.1 C 43 %
3231 05-12-2019 10:31:17 -1.7 C 43 %
3232 05-12-2019 10:41:17 -2 C 42 %
3233 05-12-2019 10:51:18 -1.7 C 42 %
3234 05-12-2019 11:01:17 -1.7 C 43 %
3235 05-12-2019 11:11:17 -1.4 C 42 %
3236 05-12-2019 11:21:17 -1.2 C 41 %
3237 05-12-2019 11:31:18 -1.2 C 41 %
3238 05-12-2019 11:41:18 -0.7 C 42 %
3239 05-12-2019 11:51:17 -0.9 C 42 %
3240 05-12-2019 12:01:18 -1 C 41 %
3241 05-12-2019 12:11:18 -0.8 C 41 %
3242 05-12-2019 12:21:17 -0.6 C 41 %
3243 05-12-2019 12:31:17 -0.8 C 40 %
3244 05-12-2019 12:41:17 -0.9 C 40 %
3245 05-12-2019 12:51:18 -0.6 C 41 %
3246 05-12-2019 13:01:17 -0.5 C 40 %
3247 05-12-2019 13:11:17 -0.6 C 40 %
3248 05-12-2019 13:21:17 -0.4 C 41 %
3249 05-12-2019 13:31:17 -0.4 C 41 %
3250 05-12-2019 13:41:17 -0.2 C 41 %
Sensor: Nr:Datum:Temp:Feuchte:
Aussen-T/F 3251 05-12-2019 13:51:17 0.1 C 40 %
3252 05-12-2019 14:01:18 0.1 C 40 %
3253 05-12-2019 14:11:18 0.2 C 40 %
3254 05-12-2019 14:21:17 0.2 C 40 %
3255 05-12-2019 14:31:17 0.2 C 40 %
3256 05-12-2019 14:41:17 0.2 C 40 %
3257 05-12-2019 14:51:17 0.2 C 41 %
3258 05-12-2019 15:01:17 0.1 C 41 %
3259 05-12-2019 15:11:17 0 C 41 %
3260 05-12-2019 15:21:17 -0.1 C 42 %
3261 05-12-2019 15:31:17 -0.1 C 43 %
3262 05-12-2019 15:41:17 -0.1 C 44 %
3263 05-12-2019 15:51:18 -0.1 C 44 %
3264 05-12-2019 16:01:17 -0.4 C 44 %
3265 05-12-2019 16:11:17 -0.5 C 44 %
3266 05-12-2019 16:21:17 -0.7 C 45 %
3267 05-12-2019 16:31:18 -0.8 C 44 %
3268 05-12-2019 16:41:18 -1 C 44 %
3269 05-12-2019 16:51:17 -1 C 44 %
3270 05-12-2019 17:01:17 -1.2 C 44 %
3271 05-12-2019 17:11:17 -1.1 C 45 %
3272 05-12-2019 17:21:18 -1.2 C 45 %
3273 05-12-2019 17:31:17 -1.3 C 44 %
3274 05-12-2019 17:41:17 -1.7 C 44 %
3275 05-12-2019 17:51:17 -1.6 C 44 %
Sensor: Nr:Datum:Temp:Feuchte:
Aussen-T/F 3276 05-12-2019 18:01:18 -1.8 C 43 %
3277 05-12-2019 18:11:18 -2 C 43 %
3278 05-12-2019 18:21:17 -2 C 43 %
3279 05-12-2019 18:31:17 -2 C 43 %
3280 05-12-2019 18:41:17 -2.2 C 43 %
3281 05-12-2019 18:51:18 -2.5 C 42 %
3282 05-12-2019 19:01:17 -2.1 C 43 %
3283 05-12-2019 19:11:17 -2.1 C 44 %
3284 05-12-2019 19:21:17 -2.6 C 42 %
3285 05-12-2019 19:31:17 -2.9 C 41 %
3286 05-12-2019 19:41:17 -2.6 C 42 %
3287 05-12-2019 19:51:18 -1.9 C 43 %
3288 05-12-2019 20:01:17 -1.5 C 44 %
3289 05-12-2019 20:11:17 -1.6 C 43 %
3290 05-12-2019 20:21:17 -1.5 C 43 %
3291 05-12-2019 20:31:17 -1.9 C 42 %
3292 05-12-2019 20:41:17 -2 C 42 %
3293 05-12-2019 20:51:18 -2.1 C 42 %
3294 05-12-2019 21:01:17 -2.3 C 42 %
3295 05-12-2019 21:11:17 -2.6 C 42 %
3296 05-12-2019 21:21:17 -2.1 C 43 %
3297 05-12-2019 21:31:17 -2 C 43 %
3298 05-12-2019 21:41:17 -2 C 43 %
3299 05-12-2019 21:51:17 -2 C 43 %
3300 05-12-2019 22:01:17 -2.3 C 42 %
Sensor: Nr:Datum:Temp:Feuchte:
Aussen-T/F 3301 05-12-2019 22:11:17 -2.3 C 42 %
3302 05-12-2019 22:21:18 -2.2 C 42 %
3303 05-12-2019 22:31:17 -2.4 C 42 %
3304 05-12-2019 22:41:17 -2.4 C 42 %
3305 05-12-2019 22:51:17 -2.3 C 42 %
3306 05-12-2019 23:01:17 -2.6 C 41 %
3307 05-12-2019 23:11:17 -2.7 C 41 %
3308 05-12-2019 23:21:18 -2.7 C 42 %
3309 05-12-2019 23:31:17 -3.1 C 41 %
3310 05-12-2019 23:41:17 -3.3 C 41 %
3311 05-12-2019 23:51:17 -3.2 C 42 %
3312 06-12-2019 00:01:18 -2.9 C 42 %
3313 06-12-2019 00:11:18 -3.4 C 40 %
3314 06-12-2019 00:21:17 -3.8 C 40 %
3315 06-12-2019 00:31:17 -3.4 C 42 %
3316 06-12-2019 00:41:17 -3.2 C 42 %
3317 06-12-2019 00:51:17 -2.7 C 43 %
3318 06-12-2019 01:01:17 -2.4 C 43 %
3319 06-12-2019 01:11:17 -2.1 C 43 %
3320 06-12-2019 01:21:17 -2 C 41 %
3321 06-12-2019 01:31:18 -1.8 C 42 %
3322 06-12-2019 01:41:18 -1.6 C 43 %
3323 06-12-2019 01:51:17 -1.6 C 43 %
3324 06-12-2019 02:01:17 -1.4 C 42 %
3325 06-12-2019 02:11:17 -1.4 C 40 %
Sensor: Nr:Datum:Temp:Feuchte:
Aussen-T/F 3326 06-12-2019 02:21:17 -1.6 C 40 %
3327 06-12-2019 02:31:17 -1.5 C 40 %
3328 06-12-2019 02:41:17 -1.7 C 39 %
3329 06-12-2019 02:51:17 -1.6 C 40 %
3330 06-12-2019 03:01:18 -1.4 C 39 %
3331 06-12-2019 03:11:18 -1.2 C 39 %
3332 06-12-2019 03:21:17 -1 C 38 %
3333 06-12-2019 03:31:17 -1 C 37 %
3334 06-12-2019 03:41:17 -1 C 38 %
3335 06-12-2019 03:51:17 -1.1 C 37 %
3336 06-12-2019 04:01:17 -1.2 C 38 %
3337 06-12-2019 04:11:17 -1.3 C 37 %
3338 06-12-2019 04:21:17 -1.3 C 38 %
3339 06-12-2019 04:31:17 -1.1 C 38 %
3340 06-12-2019 04:41:17 -1.1 C 38 %
3341 06-12-2019 04:51:17 -0.8 C 38 %
3342 06-12-2019 05:01:17 -1 C 38 %
3343 06-12-2019 05:11:17 -0.8 C 37 %
3344 06-12-2019 05:21:17 -0.9 C 36 %
3345 06-12-2019 05:31:18 -1 C 37 %
3346 06-12-2019 05:41:18 -0.8 C 38 %
3347 06-12-2019 05:51:17 -0.6 C 36 %
3348 06-12-2019 06:01:17 -0.6 C 35 %
3349 06-12-2019 06:11:17 -0.6 C 36 %
3350 06-12-2019 06:21:17 -0.5 C 36 %
Sensor: Nr:Datum:Temp:Feuchte:
Aussen-T/F 3351 06-12-2019 06:31:17 -0.5 C 35 %
3352 06-12-2019 06:41:17 -0.4 C 36 %
3353 06-12-2019 06:51:18 -0.4 C 37 %
3354 06-12-2019 07:01:17 -0.4 C 38 %
3355 06-12-2019 07:11:17 -0.4 C 38 %
3356 06-12-2019 07:21:17 -0.1 C 37 %
3357 06-12-2019 07:31:17 0 C 36 %
3358 06-12-2019 07:41:17 0.2 C 34 %
3359 06-12-2019 07:51:18 0.4 C 32 %
3360 06-12-2019 08:01:17 0.4 C 32 %
3361 06-12-2019 08:11:17 0.4 C 32 %
3362 06-12-2019 08:21:17 0.4 C 35 %
3363 06-12-2019 08:31:17 0.6 C 32 %
3364 06-12-2019 08:41:17 0.5 C 35 %
3365 06-12-2019 08:51:18 0.5 C 35 %
3366 06-12-2019 09:01:17 0.6 C 36 %
3367 06-12-2019 09:11:17 0.8 C 36 %
3368 06-12-2019 09:21:17 1.2 C 33 %
3369 06-12-2019 09:31:17 1.4 C 33 %
3370 06-12-2019 09:41:17 1.5 C 33 %
3371 06-12-2019 09:51:17 1.7 C 34 %
3372 06-12-2019 10:01:17 1.8 C 33 %
3373 06-12-2019 10:11:17 1.8 C 35 %
3374 06-12-2019 10:21:18 1.9 C 36 %
3375 06-12-2019 10:31:17 1.9 C 36 %
Sensor: Nr:Datum:Temp:Feuchte:
Aussen-T/F 3376 06-12-2019 10:41:17 2.4 C 35 %
3377 06-12-2019 10:51:17 2.5 C 35 %
3378 06-12-2019 11:01:18 2.7 C 35 %
3379 06-12-2019 11:11:18 3.2 C 32 %
3380 06-12-2019 11:21:17 3.3 C 32 %
3381 06-12-2019 11:31:17 3.5 C 32 %
3382 06-12-2019 11:41:17 3.5 C 32 %
3383 06-12-2019 11:51:17 3.5 C 33 %
3384 06-12-2019 12:01:17 3.6 C 33 %
3385 06-12-2019 12:11:17 3.6 C 33 %
3386 06-12-2019 12:21:17 3.6 C 35 %
3387 06-12-2019 12:31:18 3.7 C 37 %
3388 06-12-2019 12:41:18 3.7 C 39 %
3389 06-12-2019 12:51:17 3.7 C 40 %
3390 06-12-2019 13:01:17 3.8 C 39 %
3391 06-12-2019 13:11:17 3.9 C 38 %
3392 06-12-2019 13:21:17 4 C 36 %
3393 06-12-2019 13:31:18 4.2 C 35 %
3394 06-12-2019 13:41:18 4.2 C 35 %
3395 06-12-2019 13:51:17 4.1 C 36 %
3396 06-12-2019 14:01:17 4.1 C 39 %
3397 06-12-2019 14:11:17 4.2 C 40 %
3398 06-12-2019 14:21:17 4.2 C 38 %
3399 06-12-2019 14:31:18 4.2 C 38 %
3400 06-12-2019 14:41:18 4.4 C 38 %
Sensor: Nr:Datum:Temp:Feuchte:
Aussen-T/F 3401 06-12-2019 14:51:17 4.4 C 39 %
3402 06-12-2019 15:01:17 4.3 C 38 %
3403 06-12-2019 15:11:17 4.4 C 38 %
3404 06-12-2019 15:21:17 4.7 C 36 %
3405 06-12-2019 15:31:17 4.5 C 37 %
3406 06-12-2019 15:41:17 4.5 C 37 %
3407 06-12-2019 15:51:18 4.6 C 37 %
3408 06-12-2019 16:01:18 4.8 C 38 %
3409 06-12-2019 16:11:18 5 C 34 %
3410 06-12-2019 16:21:17 5.2 C 32 %
3411 06-12-2019 16:31:17 5.1 C 32 %
3412 06-12-2019 16:41:17 5.3 C 32 %
3413 06-12-2019 16:51:17 5.2 C 31 %
3414 06-12-2019 17:01:17 5.2 C 31 %
3415 06-12-2019 17:11:17 5.3 C 31 %
3416 06-12-2019 17:21:17 5.3 C 30 %
3417 06-12-2019 17:31:18 5.5 C 30 %
3418 06-12-2019 17:41:18 5.6 C 29 %
3419 06-12-2019 17:51:17 5.5 C 30 %
3420 06-12-2019 18:01:17 5.9 C 29 %
3421 06-12-2019 18:11:17 6 C 28 %
3422 06-12-2019 18:21:18 6.2 C 29 %
3423 06-12-2019 18:31:17 6.1 C 28 %
3424 06-12-2019 18:41:17 6.1 C 29 %
3425 06-12-2019 18:51:17 5.9 C 30 %
Sensor: Nr:Datum:Temp:Feuchte:
Aussen-T/F 3426 06-12-2019 19:01:17 5.6 C 31 %
3427 06-12-2019 19:11:17 5.8 C 32 %
3428 06-12-2019 19:21:17 5.9 C 31 %
3429 06-12-2019 19:31:17 6.2 C 30 %
3430 06-12-2019 19:41:17 6.5 C 28 %
3431 06-12-2019 19:51:17 6.5 C 28 %
3432 06-12-2019 20:01:17 6.8 C 28 %
3433 06-12-2019 20:11:17 6.7 C 28 %
3434 06-12-2019 20:21:17 6.8 C 28 %
3435 06-12-2019 20:31:17 6.7 C 28 %
3436 06-12-2019 20:41:17 6.7 C 28 %
3437 06-12-2019 20:51:18 6.7 C 28 %
3438 06-12-2019 21:01:17 6.8 C 27 %
3439 06-12-2019 21:11:17 6.7 C 28 %
3440 06-12-2019 21:21:17 6.7 C 28 %
3441 06-12-2019 21:31:17 6.6 C 28 %
3442 06-12-2019 21:41:17 6.5 C 28 %
3443 06-12-2019 21:51:17 6.5 C 29 %
3444 06-12-2019 22:01:17 6.6 C 29 %
3445 06-12-2019 22:11:17 6.7 C 28 %
3446 06-12-2019 22:21:17 6.7 C 28 %
3447 06-12-2019 22:31:17 6.7 C 28 %
3448 06-12-2019 22:41:17 6.9 C 28 %
3449 06-12-2019 22:51:17 6.9 C 27 %
3450 06-12-2019 23:01:18 7 C 27 %
Sensor: Nr:Datum:Temp:Feuchte:
Aussen-T/F 3451 06-12-2019 23:11:18 6.9 C 28 %
3452 06-12-2019 23:21:17 6.8 C 29 %
3453 06-12-2019 23:31:17 6.8 C 29 %
3454 06-12-2019 23:41:17 6.9 C 29 %
3455 06-12-2019 23:51:18 6.8 C 30 %
3456 07-12-2019 00:01:17 6.9 C 30 %
3457 07-12-2019 00:11:17 7 C 28 %
3458 07-12-2019 00:21:17 7.2 C 28 %
3459 07-12-2019 00:31:17 7.2 C 28 %
3460 07-12-2019 00:41:17 7.2 C 28 %
3461 07-12-2019 00:51:17 7.4 C 28 %
3462 07-12-2019 01:01:17 7.4 C 28 %
3463 07-12-2019 01:11:17 7.6 C 28 %
3464 07-12-2019 01:21:17 7.7 C 28 %
3465 07-12-2019 01:31:18 7.8 C 28 %
3466 07-12-2019 01:41:18 7.6 C 29 %
3467 07-12-2019 01:51:17 7.6 C 29 %
3468 07-12-2019 02:01:17 7.5 C 30 %
3469 07-12-2019 02:11:17 7.7 C 31 %
3470 07-12-2019 02:21:17 7.5 C 31 %
3471 07-12-2019 02:31:17 7.1 C 35 %
3472 07-12-2019 02:41:17 7.2 C 38 %
3473 07-12-2019 02:51:17 7.3 C 35 %
3474 07-12-2019 03:01:17 7.4 C 35 %
3475 07-12-2019 03:11:17 7.6 C 33 %
Sensor: Nr:Datum:Temp:Feuchte:
Aussen-T/F 3476 07-12-2019 03:21:17 8.4 C 30 %
3477 07-12-2019 03:31:17 8.5 C 29 %
3478 07-12-2019 03:41:17 8.7 C 28 %
3479 07-12-2019 03:51:17 9 C 27 %
3480 07-12-2019 04:01:18 8.4 C 29 %
3481 07-12-2019 04:11:18 8.5 C 29 %
3482 07-12-2019 04:21:17 8 C 30 %
3483 07-12-2019 04:31:17 7.9 C 30 %
3484 07-12-2019 04:41:17 8 C 30 %
3485 07-12-2019 04:51:17 8 C 30 %
3486 07-12-2019 05:01:17 7.7 C 30 %
3487 07-12-2019 05:11:17 8 C 30 %
3488 07-12-2019 05:21:17 8 C 30 %
3489 07-12-2019 05:31:17 7.8 C 31 %
3490 07-12-2019 05:41:17 8.2 C 30 %
3491 07-12-2019 05:51:18 7.2 C 31 %
3492 07-12-2019 06:01:18 7.6 C 30 %
3493 07-12-2019 06:11:18 8.7 C 26 %
3494 07-12-2019 06:21:17 8.6 C 26 %
3495 07-12-2019 06:31:18 8.2 C 26 %
3496 07-12-2019 06:41:18 8.1 C 26 %
3497 07-12-2019 06:51:17 7.5 C 27 %
3498 07-12-2019 07:01:17 6.8 C 30 %
3499 07-12-2019 07:11:17 7.1 C 28 %
3500 07-12-2019 07:21:17 7.3 C 27 %
Sensor: Nr:Datum:Temp:Feuchte:
Aussen-T/F 3501 07-12-2019 07:31:17 6.8 C 30 %
3502 07-12-2019 07:41:17 6.3 C 31 %
3503 07-12-2019 07:51:18 7.8 C 28 %
3504 07-12-2019 08:01:18 8 C 27 %
3505 07-12-2019 08:11:18 7.9 C 28 %
3506 07-12-2019 08:21:17 8.1 C 28 %
3507 07-12-2019 08:31:17 8.1 C 27 %
3508 07-12-2019 08:41:17 8.3 C 28 %
3509 07-12-2019 08:51:17 8.4 C 27 %
3510 07-12-2019 09:01:17 8.4 C 27 %
3511 07-12-2019 09:11:17 8.3 C 28 %
3512 07-12-2019 09:21:17 8.2 C 28 %
3513 07-12-2019 09:31:17 8.1 C 29 %
3514 07-12-2019 09:41:17 8.3 C 28 %
3515 07-12-2019 09:51:18 8.6 C 27 %
3516 07-12-2019 10:01:17 8.6 C 27 %
3517 07-12-2019 10:11:17 8.8 C 27 %
3518 07-12-2019 10:21:17 9 C 26 %
3519 07-12-2019 10:31:17 9.1 C 25 %
3520 07-12-2019 10:41:17 9.1 C 26 %
3521 07-12-2019 10:51:18 9.2 C 25 %
3522 07-12-2019 11:01:18 9 C 26 %
3523 07-12-2019 11:11:18 8.4 C 29 %
3524 07-12-2019 11:21:17 8.3 C 30 %
3525 07-12-2019 11:31:17 8.4 C 30 %
Sensor: Nr:Datum:Temp:Feuchte:
Aussen-T/F 3526 07-12-2019 11:41:17 8.5 C 30 %
3527 07-12-2019 11:51:17 8.6 C 28 %
3528 07-12-2019 12:01:17 8.8 C 27 %
3529 07-12-2019 12:11:17 8.9 C 27 %
3530 07-12-2019 12:21:17 9.2 C 25 %
3531 07-12-2019 12:31:18 9.4 C 25 %
3532 07-12-2019 12:41:18 9.5 C 25 %
3533 07-12-2019 12:51:17 9.5 C 25 %
3534 07-12-2019 13:01:17 9.7 C 23 %
3535 07-12-2019 13:11:17 10 C 20 %
3536 07-12-2019 13:21:17 9.8 C 20 %
3537 07-12-2019 13:31:17 9.8 C 20 %
3538 07-12-2019 13:41:17 9.9 C 20 %
3539 07-12-2019 13:51:17 9.9 C 20 %
3540 07-12-2019 14:01:17 9.8 C 20 %
3541 07-12-2019 14:11:17 9.7 C 20 %
3542 07-12-2019 14:21:17 9.9 C 20 %
3543 07-12-2019 14:31:18 9.9 C 20 %
3544 07-12-2019 14:41:18 9.9 C 20 %
3545 07-12-2019 14:51:17 9.9 C 20 %
3546 07-12-2019 15:01:17 9.9 C 20 %
3547 07-12-2019 15:11:17 9.7 C 21 %
3548 07-12-2019 15:21:17 9.6 C 21 %
3549 07-12-2019 15:31:17 9.7 C 21 %
3550 07-12-2019 15:41:17 9.6 C 20 %
Sensor: Nr:Datum:Temp:Feuchte:
Aussen-T/F 3551 07-12-2019 15:51:17 9.4 C 23 %
3552 07-12-2019 16:01:17 9 C 25 %
3553 07-12-2019 16:11:17 8.9 C 25 %
3554 07-12-2019 16:21:18 8.8 C 25 %
3555 07-12-2019 16:31:17 8.6 C 26 %
3556 07-12-2019 16:41:18 8.5 C 26 %
3557 07-12-2019 16:51:17 8.2 C 27 %
3558 07-12-2019 17:01:17 8.1 C 29 %
3559 07-12-2019 17:11:17 8.2 C 28 %
3560 07-12-2019 17:21:17 8.1 C 28 %
3561 07-12-2019 17:31:18 8.2 C 28 %
3562 07-12-2019 17:41:18 8.3 C 27 %
3563 07-12-2019 17:51:17 8.1 C 27 %
3564 07-12-2019 18:01:18 8 C 28 %
3565 07-12-2019 18:11:18 8 C 27 %
3566 07-12-2019 18:21:17 7.8 C 28 %
3567 07-12-2019 18:31:17 7.7 C 29 %
3568 07-12-2019 18:41:17 7.6 C 30 %
3569 07-12-2019 18:51:17 7.6 C 30 %
3570 07-12-2019 19:01:17 7.5 C 31 %
3571 07-12-2019 19:11:17 7.5 C 31 %
3572 07-12-2019 19:21:17 7.5 C 32 %
3573 07-12-2019 19:31:17 7.7 C 31 %
3574 07-12-2019 19:41:17 7.6 C 30 %
3575 07-12-2019 19:51:17 7.7 C 30 %
Sensor: Nr:Datum:Temp:Feuchte:
Aussen-T/F 3576 07-12-2019 20:01:18 7.4 C 30 %
3577 07-12-2019 20:11:18 7.3 C 31 %
3578 07-12-2019 20:21:17 7.3 C 31 %
3579 07-12-2019 20:31:17 7.4 C 30 %
3580 07-12-2019 20:41:17 7.6 C 30 %
3581 07-12-2019 20:51:17 7.6 C 30 %
3582 07-12-2019 21:01:17 7.5 C 30 %
3583 07-12-2019 21:11:17 7.6 C 30 %
3584 07-12-2019 21:21:17 8 C 28 %
3585 07-12-2019 21:31:17 8.1 C 28 %
3586 07-12-2019 21:41:17 8.2 C 28 %
3587 07-12-2019 21:51:17 7.9 C 28 %
3588 07-12-2019 22:01:17 8.2 C 28 %
3589 07-12-2019 22:11:17 8.1 C 27 %
3590 07-12-2019 22:21:17 7.8 C 28 %
3591 07-12-2019 22:31:18 7.7 C 30 %
3592 07-12-2019 22:41:18 7.6 C 30 %
3593 07-12-2019 22:51:17 7.5 C 31 %
3594 07-12-2019 23:01:17 7.4 C 32 %
3595 07-12-2019 23:11:17 7.6 C 31 %
3596 07-12-2019 23:21:17 7.6 C 32 %
3597 07-12-2019 23:31:17 7.5 C 32 %
3598 07-12-2019 23:41:17 7.7 C 31 %
3599 07-12-2019 23:51:18 7.9 C 28 %
3600 08-12-2019 00:01:17 8.1 C 27 %
Sensor: Nr:Datum:Temp:Feuchte:
Aussen-T/F 3601 08-12-2019 00:11:17 8.9 C 23 %
3602 08-12-2019 00:21:17 8.9 C 21 %
3603 08-12-2019 00:31:18 9 C 21 %
3604 08-12-2019 00:41:18 8.9 C 23 %
3605 08-12-2019 00:51:17 8.5 C 25 %
3606 08-12-2019 01:01:18 8.3 C 25 %
3607 08-12-2019 01:11:18 8.5 C 25 %
3608 08-12-2019 01:21:17 8.4 C 26 %
3609 08-12-2019 01:31:17 8.9 C 25 %
3610 08-12-2019 01:41:17 8.8 C 25 %
3611 08-12-2019 01:51:18 9.2 C 20 %
3612 08-12-2019 02:01:17 9.2 C 20 %
3613 08-12-2019 02:11:17 8.9 C 20 %
3614 08-12-2019 02:21:17 9 C 20 %
3615 08-12-2019 02:31:17 9.1 C 20 %
3616 08-12-2019 02:41:18 9 C 20 %
3617 08-12-2019 02:51:17 9.1 C 20 %
3618 08-12-2019 03:01:17 9 C 20 %
3619 08-12-2019 03:11:17 9.1 C 20 %
3620 08-12-2019 03:21:17 9.1 C 20 %
3621 08-12-2019 03:31:17 9.3 C 20 %
3622 08-12-2019 03:41:17 9.3 C 20 %
3623 08-12-2019 03:51:17 9.4 C 20 %
3624 08-12-2019 04:01:17 9.7 C 20 %
3625 08-12-2019 04:11:18 9.6 C 20 %
Sensor: Nr:Datum:Temp:Feuchte:
Aussen-T/F 3626 08-12-2019 04:21:17 9.5 C 20 %
3627 08-12-2019 04:31:17 9.6 C 20 %
3628 08-12-2019 04:41:17 9.6 C 20 %
3629 08-12-2019 04:51:17 9.5 C 20 %
3630 08-12-2019 05:01:17 9.6 C 20 %
3631 08-12-2019 05:11:17 9.5 C 21 %
3632 08-12-2019 05:21:17 9.5 C 21 %
3633 08-12-2019 05:31:17 9.4 C 23 %
3634 08-12-2019 05:41:17 9.5 C 23 %
3635 08-12-2019 05:51:17 9.2 C 25 %
3636 08-12-2019 06:01:17 9.3 C 25 %
3637 08-12-2019 06:11:18 9.5 C 25 %
3638 08-12-2019 06:21:17 9.9 C 21 %
3639 08-12-2019 06:31:17 9.8 C 23 %
3640 08-12-2019 06:41:17 9.7 C 25 %
3641 08-12-2019 06:51:17 9.9 C 23 %
3642 08-12-2019 07:01:18 10 C 21 %
3643 08-12-2019 07:11:18 10.1 C 20 %
3644 08-12-2019 07:21:17 9.9 C 21 %
3645 08-12-2019 07:31:17 10 C 21 %
3646 08-12-2019 07:41:17 10.1 C 20 %
3647 08-12-2019 07:51:17 10 C 20 %
3648 08-12-2019 08:01:17 10 C 20 %
3649 08-12-2019 08:11:17 10.2 C 20 %
3650 08-12-2019 08:21:17 10.1 C 20 %
Sensor: Nr:Datum:Temp:Feuchte:
Aussen-T/F 3651 08-12-2019 08:31:17 10.3 C 21 %
3652 08-12-2019 08:41:17 10.1 C 21 %
3653 08-12-2019 08:51:17 10.3 C 21 %
3654 08-12-2019 09:01:17 10.3 C 21 %
3655 08-12-2019 09:11:17 10.1 C 21 %
3656 08-12-2019 09:21:17 10.2 C 21 %
3657 08-12-2019 09:31:17 10.3 C 21 %
3658 08-12-2019 09:41:17 10.4 C 21 %
3659 08-12-2019 09:51:17 10.4 C 21 %
3660 08-12-2019 10:01:17 10.4 C 21 %
3661 08-12-2019 10:11:17 10.5 C 21 %
3662 08-12-2019 10:21:17 10.5 C 22 %
3663 08-12-2019 10:31:17 10.5 C 22 %
3664 08-12-2019 10:41:17 10.1 C 25 %
3665 08-12-2019 10:51:17 10.2 C 25 %
3666 08-12-2019 11:01:17 10.5 C 25 %
3667 08-12-2019 11:11:17 10.6 C 23 %
3668 08-12-2019 11:21:17 10.8 C 23 %
3669 08-12-2019 11:31:17 10.8 C 23 %
3670 08-12-2019 11:41:17 10.8 C 22 %
3671 08-12-2019 11:51:17 11 C 22 %
3672 08-12-2019 12:01:18 11.1 C 22 %
3673 08-12-2019 12:11:18 11.3 C 22 %
3674 08-12-2019 12:21:17 11.4 C 22 %
3675 08-12-2019 12:31:17 11.4 C 22 %
Sensor: Nr:Datum:Temp:Feuchte:
Aussen-T/F 3676 08-12-2019 12:41:17 11.4 C 23 %
3677 08-12-2019 12:51:17 11.3 C 24 %
3678 08-12-2019 13:01:18 11.5 C 24 %
3679 08-12-2019 13:11:18 11.5 C 22 %
3680 08-12-2019 13:21:17 11.3 C 25 %
3681 08-12-2019 13:31:17 11.1 C 25 %
3682 08-12-2019 13:41:17 11.4 C 25 %
3683 08-12-2019 13:51:17 11.4 C 25 %
3684 08-12-2019 14:01:17 11.5 C 25 %
3685 08-12-2019 14:11:17 11.5 C 25 %
3686 08-12-2019 14:21:17 11.5 C 25 %
3687 08-12-2019 14:31:18 11.7 C 25 %
3688 08-12-2019 14:41:18 11.7 C 25 %
3689 08-12-2019 14:51:17 11.7 C 25 %
3690 08-12-2019 15:01:18 11.8 C 25 %
3691 08-12-2019 15:11:18 11.8 C 25 %
3692 08-12-2019 15:21:18 11.7 C 25 %
3693 08-12-2019 15:31:18 11.7 C 25 %
3694 08-12-2019 15:41:18 11.8 C 25 %
3695 08-12-2019 15:51:17 11.8 C 25 %
3696 08-12-2019 16:01:17 11.7 C 25 %
3697 08-12-2019 16:11:17 11.8 C 25 %
3698 08-12-2019 16:21:18 11.7 C 25 %
3699 08-12-2019 16:31:18 11.6 C 26 %
3700 08-12-2019 16:41:18 11.4 C 27 %
Sensor: Nr:Datum:Temp:Feuchte:
Aussen-T/F 3701 08-12-2019 16:51:17 9.4 C 31 %
3702 08-12-2019 17:01:17 8.9 C 33 %
3703 08-12-2019 17:11:17 8.8 C 33 %
3704 08-12-2019 17:21:17 8.7 C 34 %
3705 08-12-2019 17:31:17 9.2 C 27 %
3706 08-12-2019 17:41:17 8.5 C 33 %
3707 08-12-2019 17:51:17 8.5 C 33 %
3708 08-12-2019 18:01:17 8.5 C 32 %
3709 08-12-2019 18:11:17 8.6 C 31 %
3710 08-12-2019 18:21:17 8.2 C 33 %
3711 08-12-2019 18:31:18 8.5 C 29 %
3712 08-12-2019 18:41:18 8.5 C 29 %
3713 08-12-2019 18:51:17 8.6 C 28 %
3714 08-12-2019 19:01:17 8.9 C 27 %
3715 08-12-2019 19:11:17 8.5 C 28 %
3716 08-12-2019 19:21:17 8.5 C 28 %
3717 08-12-2019 19:31:17 8.6 C 27 %
3718 08-12-2019 19:41:17 8 C 31 %
3719 08-12-2019 19:51:18 7.8 C 33 %
3720 08-12-2019 20:01:17 7.5 C 36 %
3721 08-12-2019 20:11:17 8.1 C 33 %
3722 08-12-2019 20:21:17 8.2 C 30 %
3723 08-12-2019 20:31:17 8.3 C 29 %
3724 08-12-2019 20:41:17 8.5 C 28 %
3725 08-12-2019 20:51:17 8.6 C 26 %
Sensor: Nr:Datum:Temp:Feuchte:
Aussen-T/F 3726 08-12-2019 21:01:18 8.8 C 26 %
3727 08-12-2019 21:11:18 8.9 C 25 %
3728 08-12-2019 21:21:17 8.4 C 26 %
3729 08-12-2019 21:31:17 8.7 C 26 %
3730 08-12-2019 21:41:17 8.4 C 26 %
3731 08-12-2019 21:51:18 8.4 C 26 %
3732 08-12-2019 22:01:17 8.5 C 26 %
3733 08-12-2019 22:11:17 7.9 C 27 %
3734 08-12-2019 22:21:17 8.1 C 26 %
3735 08-12-2019 22:31:17 8.6 C 26 %
3736 08-12-2019 22:41:17 8.8 C 26 %
3737 08-12-2019 22:51:17 8.7 C 25 %
3738 08-12-2019 23:01:17 8.8 C 25 %
3739 08-12-2019 23:11:17 8.7 C 26 %
3740 08-12-2019 23:21:17 8.8 C 25 %
3741 08-12-2019 23:31:18 8.7 C 25 %
3742 08-12-2019 23:41:18 8.5 C 25 %
3743 08-12-2019 23:51:17 8.4 C 21 %
3744 09-12-2019 00:01:18 8.7 C 20 %
3745 09-12-2019 00:11:18 8.1 C 21 %
3746 09-12-2019 00:21:17 8.4 C 21 %
3747 09-12-2019 00:31:17 8.4 C 21 %
3748 09-12-2019 00:41:17 8.5 C 20 %
3749 09-12-2019 00:51:17 8.4 C 20 %
3750 09-12-2019 01:01:17 8.4 C 20 %
Sensor: Nr:Datum:Temp:Feuchte:
Aussen-T/F 3751 09-12-2019 01:11:17 8.5 C 20 %
3752 09-12-2019 01:21:18 8.1 C 20 %
3753 09-12-2019 01:31:17 8 C 20 %
3754 09-12-2019 01:41:17 8.3 C 20 %
3755 09-12-2019 01:51:17 8.2 C 20 %
3756 09-12-2019 02:01:17 7.8 C 20 %
3757 09-12-2019 02:11:17 7.6 C 20 %
3758 09-12-2019 02:21:17 7.4 C 21 %
3759 09-12-2019 02:31:18 7.4 C 21 %
3760 09-12-2019 02:41:18 7.1 C 23 %
3761 09-12-2019 02:51:18 7.5 C 20 %
3762 09-12-2019 03:01:17 7.5 C 20 %
3763 09-12-2019 03:11:17 7.5 C 20 %
3764 09-12-2019 03:21:17 7.5 C 20 %
3765 09-12-2019 03:31:17 7.3 C 20 %
3766 09-12-2019 03:41:17 6.8 C 23 %
3767 09-12-2019 03:51:17 7.3 C 21 %
3768 09-12-2019 04:01:17 7.3 C 20 %
3769 09-12-2019 04:11:17 7.9 C 20 %
3770 09-12-2019 04:21:18 8 C 20 %
3771 09-12-2019 04:31:18 7.6 C 20 %
3772 09-12-2019 04:41:18 7.4 C 21 %
3773 09-12-2019 04:51:17 6.9 C 25 %
3774 09-12-2019 05:01:17 6.9 C 25 %
3775 09-12-2019 05:11:17 7.4 C 20 %
Sensor: Nr:Datum:Temp:Feuchte:
Aussen-T/F 3776 09-12-2019 05:21:17 7.5 C 20 %
3777 09-12-2019 05:31:17 7.4 C 20 %
3778 09-12-2019 05:41:18 7.1 C 20 %
3779 09-12-2019 05:51:17 7.2 C 20 %
3780 09-12-2019 06:01:17 7.4 C 20 %
3781 09-12-2019 06:11:17 7.4 C 20 %
3782 09-12-2019 06:21:17 7.4 C 20 %
3783 09-12-2019 06:31:17 7.6 C 20 %
3784 09-12-2019 06:41:17 7.8 C 20 %
3785 09-12-2019 06:51:18 7.7 C 20 %
3786 09-12-2019 07:01:17 7.6 C 20 %
3787 09-12-2019 07:11:18 7.5 C 20 %
3788 09-12-2019 07:21:17 7.2 C 20 %
3789 09-12-2019 07:31:17 7.2 C 20 %
3790 09-12-2019 07:41:17 7.6 C 20 %
3791 09-12-2019 07:51:18 7.5 C 20 %
3792 09-12-2019 08:01:17 7.9 C 20 %
3793 09-12-2019 08:11:17 7.8 C 20 %
3794 09-12-2019 08:21:17 7.9 C 20 %
3795 09-12-2019 08:31:17 8 C 20 %
3796 09-12-2019 08:41:17 7.9 C 20 %
3797 09-12-2019 08:51:17 7.9 C 20 %
3798 09-12-2019 09:01:17 7.8 C 20 %
3799 09-12-2019 09:11:17 7.9 C 20 %
3800 09-12-2019 09:21:17 7.5 C 20 %
Sensor: Nr:Datum:Temp:Feuchte:
Aussen-T/F 3801 09-12-2019 09:31:17 7.4 C 23 %
3802 09-12-2019 09:41:17 7.5 C 21 %
3803 09-12-2019 09:51:17 7.7 C 21 %
3804 09-12-2019 10:01:17 7.9 C 21 %
3805 09-12-2019 10:11:17 7.9 C 21 %
3806 09-12-2019 10:21:17 7.9 C 20 %
3807 09-12-2019 10:31:18 7.9 C 21 %
3808 09-12-2019 10:41:18 7.9 C 21 %
3809 09-12-2019 10:51:17 8.1 C 20 %
3810 09-12-2019 11:01:17 8 C 20 %
3811 09-12-2019 11:11:17 8.2 C 20 %
3812 09-12-2019 11:21:17 8.4 C 20 %
3813 09-12-2019 11:31:18 8.4 C 20 %
3814 09-12-2019 11:41:18 8.3 C 20 %
3815 09-12-2019 11:51:17 8.1 C 20 %
3816 09-12-2019 12:01:17 8.2 C 20 %
3817 09-12-2019 12:11:17 8 C 20 %
3818 09-12-2019 12:21:18 8.1 C 20 %
3819 09-12-2019 12:31:17 8.3 C 20 %
3820 09-12-2019 12:41:17 8.2 C 20 %
3821 09-12-2019 12:51:17 8.3 C 20 %
3822 09-12-2019 13:01:18 8.3 C 20 %
3823 09-12-2019 13:11:18 8.3 C 20 %
3824 09-12-2019 13:21:17 8.2 C 20 %
3825 09-12-2019 13:31:17 8.1 C 20 %
Sensor: Nr:Datum:Temp:Feuchte:
Aussen-T/F 3826 09-12-2019 13:41:17 8.5 C 20 %
3827 09-12-2019 13:51:17 8.8 C 20 %
3828 09-12-2019 14:01:17 8.6 C 20 %
3829 09-12-2019 14:11:17 8.5 C 20 %
3830 09-12-2019 14:21:17 8.6 C 20 %
3831 09-12-2019 14:31:17 8.4 C 20 %
3832 09-12-2019 14:41:17 7.9 C 20 %
3833 09-12-2019 14:51:18 8.4 C 20 %
3834 09-12-2019 15:01:17 7.9 C 20 %
3835 09-12-2019 15:11:17 7.3 C 25 %
3836 09-12-2019 15:21:17 7 C 27 %
3837 09-12-2019 15:31:18 7.1 C 26 %
3838 09-12-2019 15:41:18 7.1 C 25 %
3839 09-12-2019 15:51:17 7.4 C 23 %
3840 09-12-2019 16:01:18 7.5 C 20 %
3841 09-12-2019 16:11:18 7.5 C 20 %
3842 09-12-2019 16:21:17 7.6 C 20 %
3843 09-12-2019 16:31:18 7.3 C 20 %
3844 09-12-2019 16:41:18 7.4 C 20 %
3845 09-12-2019 16:51:17 7.3 C 20 %
3846 09-12-2019 17:01:18 7.1 C 20 %
3847 09-12-2019 17:11:18 7.2 C 20 %
3848 09-12-2019 17:21:17 6.7 C 25 %
3849 09-12-2019 17:31:17 6.1 C 32 %
3850 09-12-2019 17:41:17 5.9 C 36 %
Sensor: Nr:Datum:Temp:Feuchte:
Aussen-T/F 3851 09-12-2019 17:51:17 6 C 34 %
3852 09-12-2019 18:01:18 6 C 30 %
3853 09-12-2019 18:11:18 6.1 C 31 %
3854 09-12-2019 18:21:17 6 C 33 %
3855 09-12-2019 18:31:17 5.8 C 35 %
3856 09-12-2019 18:41:17 5.7 C 37 %
3857 09-12-2019 18:51:18 5.7 C 38 %
3858 09-12-2019 19:01:17 5.6 C 35 %
3859 09-12-2019 19:11:17 5.5 C 38 %
3860 09-12-2019 19:21:17 5.6 C 39 %
3861 09-12-2019 19:31:17 5.6 C 38 %
3862 09-12-2019 19:41:17 5.6 C 38 %
3863 09-12-2019 19:51:17 5.6 C 37 %
3864 09-12-2019 20:01:17 5.6 C 35 %
3865 09-12-2019 20:11:17 5.6 C 34 %
3866 09-12-2019 20:21:17 5.6 C 35 %
3867 09-12-2019 20:31:17 5.6 C 32 %
3868 09-12-2019 20:41:17 5.4 C 33 %
3869 09-12-2019 20:51:17 5.3 C 34 %
3870 09-12-2019 21:01:17 5.2 C 33 %
3871 09-12-2019 21:11:18 5.1 C 34 %
3872 09-12-2019 21:21:17 5.2 C 35 %
3873 09-12-2019 21:31:17 5.3 C 32 %
3874 09-12-2019 21:41:17 5.1 C 31 %
3875 09-12-2019 21:51:17 5 C 31 %
Sensor: Nr:Datum:Temp:Feuchte:
Aussen-T/F 3876 09-12-2019 22:01:17 4.8 C 32 %
3877 09-12-2019 22:11:17 4.7 C 31 %
3878 09-12-2019 22:21:17 4.9 C 30 %
3879 09-12-2019 22:31:17 4.9 C 30 %
3880 09-12-2019 22:41:17 4.9 C 30 %
3881 09-12-2019 22:51:18 4.7 C 30 %
3882 09-12-2019 23:01:17 4.6 C 29 %
3883 09-12-2019 23:11:17 4.5 C 29 %
3884 09-12-2019 23:21:17 4.1 C 30 %
3885 09-12-2019 23:31:18 4 C 30 %
3886 09-12-2019 23:41:18 4.1 C 29 %
3887 09-12-2019 23:51:17 4.1 C 29 %
3888 10-12-2019 00:01:17 3.7 C 30 %
3889 10-12-2019 00:11:17 4.1 C 28 %
3890 10-12-2019 00:21:17 3.4 C 30 %
3891 10-12-2019 00:31:17 3.6 C 30 %
3892 10-12-2019 00:41:17 3.1 C 31 %
3893 10-12-2019 00:51:17 3 C 31 %
3894 10-12-2019 01:01:17 2.4 C 33 %
3895 10-12-2019 01:11:17 2.4 C 36 %
3896 10-12-2019 01:21:17 2.5 C 36 %
3897 10-12-2019 01:31:18 2.8 C 34 %
3898 10-12-2019 01:41:18 2.4 C 34 %
3899 10-12-2019 01:51:17 2.4 C 33 %
3900 10-12-2019 02:01:18 2.7 C 33 %
Sensor: Nr:Datum:Temp:Feuchte:
Aussen-T/F 3901 10-12-2019 02:11:18 2.9 C 32 %
3902 10-12-2019 02:21:17 2.3 C 33 %
3903 10-12-2019 02:31:17 2.1 C 35 %
3904 10-12-2019 02:41:17 1.7 C 37 %
3905 10-12-2019 02:51:17 1.6 C 39 %
3906 10-12-2019 03:01:17 1.8 C 40 %
3907 10-12-2019 03:11:17 1.8 C 40 %
3908 10-12-2019 03:21:17 1.8 C 40 %
3909 10-12-2019 03:31:17 2 C 40 %
3910 10-12-2019 03:41:17 1.4 C 41 %
3911 10-12-2019 03:51:17 1.4 C 43 %
3912 10-12-2019 04:01:17 1.1 C 43 %
3913 10-12-2019 04:11:17 1.3 C 41 %
3914 10-12-2019 04:21:17 0.6 C 41 %
3915 10-12-2019 04:31:18 0.6 C 44 %
3916 10-12-2019 04:41:18 0.7 C 45 %
3917 10-12-2019 04:51:17 0.9 C 46 %
3918 10-12-2019 05:01:17 1.1 C 44 %
3919 10-12-2019 05:11:17 1.8 C 41 %
3920 10-12-2019 05:21:18 2.2 C 35 %
3921 10-12-2019 05:31:18 2 C 35 %
3922 10-12-2019 05:41:18 2 C 35 %
3923 10-12-2019 05:51:17 1.8 C 36 %
3924 10-12-2019 06:01:17 1.5 C 36 %
3925 10-12-2019 06:11:17 1.6 C 37 %
Sensor: Nr:Datum:Temp:Feuchte:
Aussen-T/F 3926 10-12-2019 06:21:18 1.4 C 36 %
3927 10-12-2019 06:31:17 1.1 C 38 %
3928 10-12-2019 06:41:17 0.9 C 42 %
3929 10-12-2019 06:51:17 1.2 C 42 %
3930 10-12-2019 07:01:18 1.3 C 40 %
3931 10-12-2019 07:11:18 1.5 C 40 %
3932 10-12-2019 07:21:17 1.7 C 36 %
3933 10-12-2019 07:31:17 1.2 C 37 %
3934 10-12-2019 07:41:17 0.8 C 41 %
3935 10-12-2019 07:51:17 0.8 C 41 %
3936 10-12-2019 08:01:17 0.7 C 41 %
3937 10-12-2019 08:11:17 0.8 C 41 %
3938 10-12-2019 08:21:17 0.4 C 42 %
3939 10-12-2019 08:31:18 0.6 C 42 %
3940 10-12-2019 08:41:18 0.4 C 42 %
3941 10-12-2019 08:51:17 0.4 C 43 %
3942 10-12-2019 09:01:17 0.1 C 42 %
3943 10-12-2019 09:11:17 0.5 C 44 %
3944 10-12-2019 09:21:17 0.8 C 44 %
3945 10-12-2019 09:31:17 1.4 C 42 %
3946 10-12-2019 09:41:17 1.7 C 39 %
3947 10-12-2019 09:51:17 1.8 C 39 %
3948 10-12-2019 10:01:17 2.2 C 36 %
3949 10-12-2019 10:11:17 2.5 C 35 %
3950 10-12-2019 10:21:17 2.7 C 33 %
Sensor: Nr:Datum:Temp:Feuchte:
Aussen-T/F 3951 10-12-2019 10:31:17 2.7 C 33 %
3952 10-12-2019 10:41:17 2.5 C 33 %
3953 10-12-2019 10:51:17 2.4 C 35 %
3954 10-12-2019 11:01:17 2.4 C 34 %
3955 10-12-2019 11:11:17 2.5 C 34 %
3956 10-12-2019 11:21:17 2.3 C 35 %
3957 10-12-2019 11:31:18 2.2 C 36 %
3958 10-12-2019 11:41:18 2.9 C 34 %
3959 10-12-2019 11:51:17 3.5 C 30 %
3960 10-12-2019 12:01:17 3.7 C 30 %
3961 10-12-2019 12:11:17 3.8 C 30 %
3962 10-12-2019 12:21:17 3.9 C 30 %
3963 10-12-2019 12:31:17 3.9 C 30 %
3964 10-12-2019 12:41:17 4.3 C 27 %
3965 10-12-2019 12:51:17 4.5 C 27 %
3966 10-12-2019 13:01:17 4.6 C 27 %
3967 10-12-2019 13:11:17 4.7 C 27 %
3968 10-12-2019 13:21:17 4.7 C 27 %
3969 10-12-2019 13:31:17 4.9 C 27 %
3970 10-12-2019 13:41:17 5.1 C 25 %
3971 10-12-2019 13:51:17 5 C 25 %
3972 10-12-2019 14:01:17 4.6 C 27 %
3973 10-12-2019 14:11:17 4.2 C 28 %
3974 10-12-2019 14:21:17 3.8 C 30 %
3975 10-12-2019 14:31:18 3.9 C 30 %
Sensor: Nr:Datum:Temp:Feuchte:
Aussen-T/F 3976 10-12-2019 14:41:18 3.8 C 30 %
3977 10-12-2019 14:51:17 3.5 C 30 %
3978 10-12-2019 15:01:17 3.5 C 30 %
3979 10-12-2019 15:11:17 3.3 C 31 %
3980 10-12-2019 15:21:17 3.2 C 31 %
3981 10-12-2019 15:31:17 3.1 C 31 %
3982 10-12-2019 15:41:18 3.2 C 31 %
3983 10-12-2019 15:51:17 2.9 C 31 %
3984 10-12-2019 16:01:17 2.4 C 32 %
3985 10-12-2019 16:11:17 3.1 C 31 %
3986 10-12-2019 16:21:17 3.4 C 30 %
3987 10-12-2019 16:31:17 3.5 C 28 %
3988 10-12-2019 16:41:17 3.3 C 28 %
3989 10-12-2019 16:51:17 3.3 C 26 %
3990 10-12-2019 17:01:17 2.8 C 27 %
3991 10-12-2019 17:11:17 2.7 C 27 %
3992 10-12-2019 17:21:18 2.7 C 27 %
3993 10-12-2019 17:31:17 2.7 C 27 %
3994 10-12-2019 17:41:17 2.6 C 27 %
3995 10-12-2019 17:51:17 2.4 C 28 %
3996 10-12-2019 18:01:17 2.3 C 27 %
3997 10-12-2019 18:11:17 1.7 C 31 %
3998 10-12-2019 18:21:17 1.9 C 32 %
3999 10-12-2019 18:31:17 1.8 C 33 %
4000 10-12-2019 18:41:17 1.7 C 34 %
Sensor: Nr:Datum:Temp:Feuchte:
Aussen-T/F 4001 10-12-2019 18:51:17 1.6 C 35 %
4002 10-12-2019 19:01:17 1.5 C 36 %
4003 10-12-2019 19:11:17 1.5 C 36 %
4004 10-12-2019 19:21:17 1.6 C 36 %
4005 10-12-2019 19:31:17 1.5 C 36 %
4006 10-12-2019 19:41:18 1.7 C 36 %
4007 10-12-2019 19:51:17 1.7 C 35 %
4008 10-12-2019 20:01:17 2.2 C 32 %
4009 10-12-2019 20:11:17 2.1 C 32 %
4010 10-12-2019 20:21:17 2.7 C 29 %
4011 10-12-2019 20:31:18 2.9 C 28 %
4012 10-12-2019 20:41:18 2.6 C 30 %
4013 10-12-2019 20:51:17 2.3 C 30 %
4014 10-12-2019 21:01:17 2.5 C 31 %
4015 10-12-2019 21:11:17 2.3 C 31 %
4016 10-12-2019 21:21:17 2.1 C 32 %
4017 10-12-2019 21:31:17 2 C 33 %
4018 10-12-2019 21:41:18 1.8 C 35 %
4019 10-12-2019 21:51:17 1.8 C 36 %
4020 10-12-2019 22:01:17 1.8 C 36 %
4021 10-12-2019 22:11:17 2.1 C 35 %
4022 10-12-2019 22:21:17 2.2 C 34 %
4023 10-12-2019 22:31:17 2.4 C 32 %
4024 10-12-2019 22:41:17 2.5 C 33 %
4025 10-12-2019 22:51:18 2.8 C 31 %
Sensor: Nr:Datum:Temp:Feuchte:
Aussen-T/F 4026 10-12-2019 23:01:17 2.9 C 30 %
4027 10-12-2019 23:11:17 3 C 30 %
4028 10-12-2019 23:21:17 3 C 30 %
4029 10-12-2019 23:31:17 2.9 C 31 %
4030 10-12-2019 23:41:17 3.3 C 28 %
4031 10-12-2019 23:51:17 3.3 C 30 %
4032 11-12-2019 00:01:18 3.2 C 30 %
4033 11-12-2019 00:11:18 3.3 C 29 %
4034 11-12-2019 00:21:17 3.4 C 28 %
4035 11-12-2019 00:31:17 3.4 C 29 %
4036 11-12-2019 00:41:17 3.5 C 27 %
4037 11-12-2019 00:51:17 3.4 C 27 %
4038 11-12-2019 01:01:17 3.5 C 25 %
4039 11-12-2019 01:11:17 3.4 C 27 %
4040 11-12-2019 01:21:18 3.4 C 28 %
4041 11-12-2019 01:31:17 3.4 C 29 %
4042 11-12-2019 01:41:17 3.2 C 30 %
4043 11-12-2019 01:51:17 3.1 C 32 %
4044 11-12-2019 02:01:17 3 C 33 %
4045 11-12-2019 02:11:17 2.9 C 33 %
4046 11-12-2019 02:21:17 2.9 C 32 %
4047 11-12-2019 02:31:18 2.8 C 34 %
4048 11-12-2019 02:41:18 2.9 C 31 %
4049 11-12-2019 02:51:17 3 C 30 %
4050 11-12-2019 03:01:18 3.1 C 30 %
Sensor: Nr:Datum:Temp:Feuchte:
Aussen-T/F 4051 11-12-2019 03:11:18 3 C 32 %
4052 11-12-2019 03:21:17 2.9 C 30 %
4053 11-12-2019 03:31:17 3 C 30 %
4054 11-12-2019 03:41:17 3 C 35 %
4055 11-12-2019 03:51:17 2.8 C 36 %
4056 11-12-2019 04:01:17 2.7 C 35 %
4057 11-12-2019 04:11:17 2.8 C 35 %
4058 11-12-2019 04:21:17 2.8 C 35 %
4059 11-12-2019 04:31:18 2.8 C 38 %
4060 11-12-2019 04:41:18 2.7 C 38 %
4061 11-12-2019 04:51:17 2.7 C 39 %
4062 11-12-2019 05:01:17 2.7 C 39 %
4063 11-12-2019 05:11:17 2.7 C 39 %
4064 11-12-2019 05:21:18 2.7 C 40 %
4065 11-12-2019 05:31:17 2.6 C 42 %
4066 11-12-2019 05:41:17 2.6 C 43 %
4067 11-12-2019 05:51:17 2.5 C 44 %
4068 11-12-2019 06:01:18 2.5 C 44 %
4069 11-12-2019 06:11:18 2.5 C 44 %
4070 11-12-2019 06:21:17 2.5 C 44 %
4071 11-12-2019 06:31:17 2.5 C 44 %
4072 11-12-2019 06:41:17 2.5 C 44 %
4073 11-12-2019 06:51:17 2.5 C 44 %
4074 11-12-2019 07:01:17 2.4 C 44 %
4075 11-12-2019 07:11:17 2.5 C 44 %
Sensor: Nr:Datum:Temp:Feuchte:
Aussen-T/F 4076 11-12-2019 07:21:17 2.4 C 44 %
4077 11-12-2019 07:31:17 2.4 C 44 %
4078 11-12-2019 07:41:18 2.4 C 43 %
4079 11-12-2019 07:51:17 2.4 C 43 %
4080 11-12-2019 08:01:17 2.4 C 43 %
4081 11-12-2019 08:11:17 2.4 C 43 %
4082 11-12-2019 08:21:17 2.4 C 43 %
4083 11-12-2019 08:31:18 2.3 C 43 %
4084 11-12-2019 08:41:18 2.3 C 43 %
4085 11-12-2019 08:51:17 2.3 C 43 %
4086 11-12-2019 09:01:18 2.3 C 43 %
4087 11-12-2019 09:11:18 2.4 C 43 %
4088 11-12-2019 09:21:17 2.5 C 43 %
4089 11-12-2019 09:31:17 2.5 C 43 %
4090 11-12-2019 09:41:17 2.5 C 43 %
4091 11-12-2019 09:51:17 2.5 C 43 %
4092 11-12-2019 10:01:17 2.6 C 43 %
4093 11-12-2019 10:11:17 2.7 C 43 %
4094 11-12-2019 10:21:17 2.7 C 42 %
4095 11-12-2019 10:31:17 2.7 C 42 %
4096 11-12-2019 10:41:17 2.8 C 41 %
4097 11-12-2019 10:51:17 3.1 C 40 %
4098 11-12-2019 11:01:17 3 C 39 %
4099 11-12-2019 11:11:17 3.1 C 39 %
4100 11-12-2019 11:21:17 3.2 C 39 %
Sensor: Nr:Datum:Temp:Feuchte:
Aussen-T/F 4101 11-12-2019 11:31:17 3.1 C 38 %
4102 11-12-2019 11:41:17 3.1 C 38 %
4103 11-12-2019 11:51:17 3.2 C 39 %
4104 11-12-2019 12:01:18 3.2 C 39 %
4105 11-12-2019 12:11:18 3.1 C 39 %
4106 11-12-2019 12:21:17 3.1 C 39 %
4107 11-12-2019 12:31:17 3.1 C 40 %
4108 11-12-2019 12:41:17 3.1 C 40 %
4109 11-12-2019 12:51:17 3.1 C 40 %
4110 11-12-2019 13:01:18 3.2 C 40 %
4111 11-12-2019 13:11:18 3.2 C 40 %
4112 11-12-2019 13:21:17 3.2 C 40 %
4113 11-12-2019 13:31:17 3.2 C 40 %
4114 11-12-2019 13:41:17 3.2 C 40 %
4115 11-12-2019 13:51:17 3.2 C 40 %
4116 11-12-2019 14:01:17 3.2 C 41 %
4117 11-12-2019 14:11:18 3.2 C 41 %
4118 11-12-2019 14:21:17 3.2 C 41 %
4119 11-12-2019 14:31:17 3.3 C 41 %
4120 11-12-2019 14:41:17 3.3 C 42 %
4121 11-12-2019 14:51:17 3.3 C 42 %
4122 11-12-2019 15:01:17 3.3 C 42 %
4123 11-12-2019 15:11:17 3.4 C 42 %
4124 11-12-2019 15:21:17 3.3 C 42 %
4125 11-12-2019 15:31:18 3.3 C 42 %
Sensor: Nr:Datum:Temp:Feuchte:
Aussen-T/F 4126 11-12-2019 15:41:18 3.3 C 42 %
4127 11-12-2019 15:51:17 3.3 C 42 %
4128 11-12-2019 16:01:17 3.2 C 42 %
4129 11-12-2019 16:11:17 3.2 C 42 %
4130 11-12-2019 16:21:17 3.2 C 42 %
4131 11-12-2019 16:31:17 3.2 C 42 %
4132 11-12-2019 16:41:17 3.1 C 42 %
4133 11-12-2019 16:51:17 3.1 C 42 %
4134 11-12-2019 17:01:17 3.1 C 43 %
4135 11-12-2019 17:11:17 3.1 C 42 %
4136 11-12-2019 17:21:17 3.1 C 42 %
4137 11-12-2019 17:31:17 3.1 C 42 %
4138 11-12-2019 17:41:17 3.1 C 42 %
4139 11-12-2019 17:51:18 3.2 C 43 %
4140 11-12-2019 18:01:17 3.2 C 43 %
4141 11-12-2019 18:11:17 3.3 C 43 %
4142 11-12-2019 18:21:17 3.3 C 43 %
4143 11-12-2019 18:31:18 3.4 C 43 %
4144 11-12-2019 18:41:18 3.4 C 43 %
4145 11-12-2019 18:51:17 3.5 C 43 %
4146 11-12-2019 19:01:17 3.5 C 42 %
4147 11-12-2019 19:11:17 3.5 C 42 %
4148 11-12-2019 19:21:18 3.5 C 42 %
4149 11-12-2019 19:31:17 3.5 C 42 %
4150 11-12-2019 19:41:17 3.6 C 42 %
Sensor: Nr:Datum:Temp:Feuchte:
Aussen-T/F 4151 11-12-2019 19:51:18 3.6 C 42 %
4152 11-12-2019 20:01:17 3.6 C 42 %
4153 11-12-2019 20:11:17 3.7 C 42 %
4154 11-12-2019 20:21:17 3.8 C 42 %
4155 11-12-2019 20:31:18 3.8 C 42 %
4156 11-12-2019 20:41:18 3.9 C 42 %
4157 11-12-2019 20:51:17 4.1 C 41 %
4158 11-12-2019 21:01:17 4.1 C 40 %
4159 11-12-2019 21:11:17 4.3 C 39 %
4160 11-12-2019 21:21:17 4.4 C 37 %
4161 11-12-2019 21:31:17 4.1 C 37 %
4162 11-12-2019 21:41:17 4.3 C 37 %
4163 11-12-2019 21:51:17 4.3 C 36 %
4164 11-12-2019 22:01:17 4.5 C 35 %
4165 11-12-2019 22:11:17 4.1 C 35 %
4166 11-12-2019 22:21:17 3.9 C 37 %
4167 11-12-2019 22:31:17 3.6 C 39 %
4168 11-12-2019 22:41:17 3.8 C 39 %
4169 11-12-2019 22:51:18 3.5 C 40 %
4170 11-12-2019 23:01:17 3.8 C 40 %
4171 11-12-2019 23:11:17 3.8 C 40 %
4172 11-12-2019 23:21:17 3.4 C 40 %
4173 11-12-2019 23:31:17 3 C 41 %
4174 11-12-2019 23:41:17 3.4 C 43 %
4175 11-12-2019 23:51:18 3.2 C 42 %
Sensor: Nr:Datum:Temp:Feuchte:
G-T/H 1 13-11-2019 00:09:17 10.1 C 71 %
2 13-11-2019 00:19:17 10.1 C 71 %
3 13-11-2019 00:29:17 10.1 C 71 %
4 13-11-2019 00:39:17 10.1 C 71 %
5 13-11-2019 00:49:17 10.1 C 71 %
6 13-11-2019 00:59:17 10.1 C 71 %
7 13-11-2019 01:09:17 10.1 C 71 %
8 13-11-2019 01:19:17 10.1 C 71 %
9 13-11-2019 01:29:17 10 C 71 %
10 13-11-2019 01:39:17 10 C 71 %
11 13-11-2019 01:49:17 10 C 71 %
12 13-11-2019 01:59:17 10 C 71 %
13 13-11-2019 02:09:17 10 C 71 %
14 13-11-2019 02:19:17 10 C 71 %
15 13-11-2019 02:29:17 10 C 71 %
16 13-11-2019 02:39:17 10 C 71 %
17 13-11-2019 02:49:17 10 C 71 %
18 13-11-2019 02:59:17 10 C 71 %
19 13-11-2019 03:09:17 10 C 71 %
20 13-11-2019 03:19:17 10 C 71 %
21 13-11-2019 03:29:17 10 C 71 %
22 13-11-2019 03:39:17 10 C 71 %
23 13-11-2019 03:49:17 9.9 C 72 %
24 13-11-2019 03:59:17 9.9 C 72 %
25 13-11-2019 04:09:17 9.9 C 72 %
Sensor: Nr:Datum:Temp:Feuchte:
G-T/H 26 13-11-2019 04:19:17 10 C 71 %
27 13-11-2019 04:29:17 10 C 71 %
28 13-11-2019 04:39:17 9.9 C 72 %
29 13-11-2019 04:49:17 10 C 71 %
30 13-11-2019 04:59:17 10 C 71 %
31 13-11-2019 05:09:17 10 C 71 %
32 13-11-2019 05:19:17 9.9 C 72 %
33 13-11-2019 05:29:17 9.9 C 73 %
34 13-11-2019 05:39:17 9.9 C 73 %
35 13-11-2019 05:49:17 9.9 C 73 %
36 13-11-2019 05:59:17 9.9 C 73 %
37 13-11-2019 06:09:17 9.9 C 73 %
38 13-11-2019 06:19:17 9.9 C 73 %
39 13-11-2019 06:29:17 9.9 C 73 %
40 13-11-2019 06:39:17 9.9 C 73 %
41 13-11-2019 06:49:17 9.9 C 73 %
42 13-11-2019 06:59:17 9.9 C 73 %
43 13-11-2019 07:09:17 9.8 C 73 %
44 13-11-2019 07:19:17 9.8 C 73 %
45 13-11-2019 07:29:17 9.9 C 73 %
46 13-11-2019 07:39:17 9.9 C 73 %
47 13-11-2019 07:49:17 9.8 C 73 %
48 13-11-2019 07:59:17 9.8 C 73 %
49 13-11-2019 08:09:17 9.8 C 73 %
50 13-11-2019 08:19:17 9.8 C 73 %
Sensor: Nr:Datum:Temp:Feuchte:
G-T/H 51 13-11-2019 08:29:17 9.8 C 73 %
52 13-11-2019 08:39:17 9.8 C 73 %
53 13-11-2019 08:49:17 9.8 C 73 %
54 13-11-2019 08:59:17 9.8 C 73 %
55 13-11-2019 09:09:17 9.8 C 73 %
56 13-11-2019 09:19:17 9.8 C 73 %
57 13-11-2019 09:29:17 9.8 C 73 %
58 13-11-2019 09:39:17 9.8 C 73 %
59 13-11-2019 09:49:17 9.8 C 73 %
60 13-11-2019 09:59:17 9.8 C 73 %
61 13-11-2019 10:09:17 9.8 C 73 %
62 13-11-2019 10:19:17 9.8 C 73 %
63 13-11-2019 10:29:17 9.8 C 73 %
64 13-11-2019 10:39:17 9.8 C 73 %
65 13-11-2019 10:49:17 9.9 C 73 %
66 13-11-2019 10:59:17 9.8 C 73 %
67 13-11-2019 11:09:17 9.8 C 73 %
68 13-11-2019 11:19:17 9.8 C 73 %
69 13-11-2019 11:29:17 9.9 C 73 %
70 13-11-2019 11:39:17 9.9 C 73 %
71 13-11-2019 11:49:17 9.9 C 73 %
72 13-11-2019 11:59:17 9.9 C 73 %
73 13-11-2019 12:09:17 10 C 72 %
74 13-11-2019 12:19:17 9.9 C 73 %
75 13-11-2019 12:29:17 9.9 C 73 %
Sensor: Nr:Datum:Temp:Feuchte:
G-T/H 76 13-11-2019 12:39:17 9.9 C 73 %
77 13-11-2019 12:49:17 10 C 72 %
78 13-11-2019 12:59:17 10 C 72 %
79 13-11-2019 13:09:17 10 C 72 %
80 13-11-2019 13:19:17 10 C 72 %
81 13-11-2019 13:29:17 10 C 72 %
82 13-11-2019 13:39:17 10 C 72 %
83 13-11-2019 13:49:17 10 C 72 %
84 13-11-2019 13:59:17 10 C 72 %
85 13-11-2019 14:09:17 10 C 72 %
86 13-11-2019 14:19:17 10 C 72 %
87 13-11-2019 14:29:17 10 C 72 %
88 13-11-2019 14:39:17 10 C 72 %
89 13-11-2019 14:49:17 10 C 72 %
90 13-11-2019 14:59:17 10 C 72 %
91 13-11-2019 15:09:17 10 C 72 %
92 13-11-2019 15:19:17 10 C 72 %
93 13-11-2019 15:29:17 10.1 C 72 %
94 13-11-2019 15:39:17 10.1 C 73 %
95 13-11-2019 15:49:17 10.1 C 73 %
96 13-11-2019 15:59:17 10.1 C 73 %
97 13-11-2019 16:09:17 10.1 C 73 %
98 13-11-2019 16:19:17 10.1 C 73 %
99 13-11-2019 16:29:17 10.1 C 73 %
100 13-11-2019 16:39:17 10.1 C 73 %
Sensor: Nr:Datum:Temp:Feuchte:
G-T/H 101 13-11-2019 16:49:17 10.1 C 72 %
102 13-11-2019 16:59:17 10.1 C 72 %
103 13-11-2019 17:09:17 10.1 C 72 %
104 13-11-2019 17:19:17 10.1 C 72 %
105 13-11-2019 17:29:17 10.1 C 72 %
106 13-11-2019 17:39:17 10.1 C 73 %
107 13-11-2019 17:49:17 10.1 C 73 %
108 13-11-2019 17:59:17 10.1 C 73 %
109 13-11-2019 18:09:17 10.1 C 73 %
110 13-11-2019 18:19:17 10.2 C 73 %
111 13-11-2019 18:29:17 10.2 C 73 %
112 13-11-2019 18:39:17 10.1 C 73 %
113 13-11-2019 18:49:17 10.2 C 73 %
114 13-11-2019 18:59:17 10.2 C 73 %
115 13-11-2019 19:09:18 10.2 C 73 %
116 13-11-2019 19:19:17 10.2 C 73 %
117 13-11-2019 19:29:17 10.2 C 73 %
118 13-11-2019 19:39:17 10.2 C 73 %
119 13-11-2019 19:49:17 10.2 C 73 %
120 13-11-2019 19:59:17 10.2 C 73 %
121 13-11-2019 20:09:17 10.2 C 73 %
122 13-11-2019 20:19:17 10.2 C 73 %
123 13-11-2019 20:29:17 10.2 C 73 %
124 13-11-2019 20:39:17 10.2 C 73 %
125 13-11-2019 20:49:17 10.2 C 73 %
Sensor: Nr:Datum:Temp:Feuchte:
G-T/H 126 13-11-2019 20:59:17 10.2 C 73 %
127 13-11-2019 21:09:17 10.2 C 73 %
128 13-11-2019 21:19:17 10.2 C 73 %
129 13-11-2019 21:29:17 10.2 C 73 %
130 13-11-2019 21:39:17 10.2 C 73 %
131 13-11-2019 21:49:17 10.2 C 73 %
132 13-11-2019 21:59:17 10.2 C 73 %
133 13-11-2019 22:09:17 10.2 C 73 %
134 13-11-2019 22:19:17 10.2 C 73 %
135 13-11-2019 22:29:17 10.2 C 73 %
136 13-11-2019 22:39:17 10.2 C 73 %
137 13-11-2019 22:49:17 10.2 C 73 %
138 13-11-2019 22:59:17 10.1 C 73 %
139 13-11-2019 23:09:17 10.2 C 73 %
140 13-11-2019 23:19:17 10.2 C 73 %
141 13-11-2019 23:29:17 10.1 C 73 %
142 13-11-2019 23:39:17 10.1 C 72 %
143 13-11-2019 23:49:17 10.1 C 72 %
144 13-11-2019 23:59:17 10.1 C 72 %
145 14-11-2019 00:09:17 10.1 C 72 %
146 14-11-2019 00:19:17 10.1 C 72 %
147 14-11-2019 00:29:17 10.1 C 71 %
148 14-11-2019 00:39:17 10 C 71 %
149 14-11-2019 00:49:17 10.1 C 71 %
150 14-11-2019 00:59:17 10.1 C 71 %
Sensor: Nr:Datum:Temp:Feuchte:
G-T/H 151 14-11-2019 01:09:17 10 C 71 %
152 14-11-2019 01:19:17 10 C 71 %
153 14-11-2019 01:29:17 10 C 71 %
154 14-11-2019 01:39:17 10 C 71 %
155 14-11-2019 01:49:17 10 C 71 %
156 14-11-2019 01:59:17 10 C 70 %
157 14-11-2019 02:09:17 10 C 70 %
158 14-11-2019 02:19:17 10 C 70 %
159 14-11-2019 02:29:17 9.9 C 71 %
160 14-11-2019 02:39:17 9.9 C 71 %
161 14-11-2019 02:49:17 9.9 C 71 %
162 14-11-2019 02:59:17 9.9 C 71 %
163 14-11-2019 03:09:17 9.9 C 71 %
164 14-11-2019 03:19:17 9.9 C 71 %
165 14-11-2019 03:29:17 9.9 C 71 %
166 14-11-2019 03:39:17 9.9 C 71 %
167 14-11-2019 03:49:17 9.9 C 71 %
168 14-11-2019 03:59:17 9.9 C 71 %
169 14-11-2019 04:09:17 9.9 C 71 %
170 14-11-2019 04:19:17 9.9 C 71 %
171 14-11-2019 04:29:17 9.9 C 71 %
172 14-11-2019 04:39:17 9.9 C 71 %
173 14-11-2019 04:49:17 9.9 C 71 %
174 14-11-2019 04:59:17 9.9 C 72 %
175 14-11-2019 05:09:17 10 C 71 %
Sensor: Nr:Datum:Temp:Feuchte:
G-T/H 176 14-11-2019 05:19:17 9.9 C 72 %
177 14-11-2019 05:29:17 9.9 C 72 %
178 14-11-2019 05:39:18 9.9 C 72 %
179 14-11-2019 05:49:17 9.9 C 72 %
180 14-11-2019 05:59:17 9.9 C 72 %
181 14-11-2019 06:09:17 10 C 71 %
182 14-11-2019 06:19:17 9.9 C 72 %
183 14-11-2019 06:29:17 10 C 71 %
184 14-11-2019 06:39:17 9.9 C 72 %
185 14-11-2019 06:49:17 9.9 C 72 %
186 14-11-2019 06:59:17 9.9 C 72 %
187 14-11-2019 07:09:17 10 C 71 %
188 14-11-2019 07:19:17 9.9 C 73 %
189 14-11-2019 07:29:17 10 C 71 %
190 14-11-2019 07:39:17 10 C 72 %
191 14-11-2019 07:49:17 10 C 72 %
192 14-11-2019 07:59:17 10 C 72 %
193 14-11-2019 08:09:17 9.9 C 73 %
194 14-11-2019 08:19:17 9.9 C 73 %
195 14-11-2019 08:29:17 9.9 C 73 %
196 14-11-2019 08:39:17 9.9 C 73 %
197 14-11-2019 08:49:17 9.9 C 73 %
198 14-11-2019 08:59:17 9.9 C 73 %
199 14-11-2019 09:09:17 9.9 C 73 %
200 14-11-2019 09:19:17 9.9 C 73 %
Sensor: Nr:Datum:Temp:Feuchte:
G-T/H 201 14-11-2019 09:29:17 9.9 C 73 %
202 14-11-2019 09:39:17 9.9 C 73 %
203 14-11-2019 09:49:17 9.9 C 73 %
204 14-11-2019 09:59:17 9.9 C 73 %
205 14-11-2019 10:09:17 9.9 C 73 %
206 14-11-2019 10:19:17 9.9 C 73 %
207 14-11-2019 10:29:17 9.9 C 73 %
208 14-11-2019 10:39:17 9.9 C 73 %
209 14-11-2019 10:49:17 9.9 C 73 %
210 14-11-2019 10:59:17 10 C 72 %
211 14-11-2019 11:09:17 10 C 72 %
212 14-11-2019 11:19:17 10 C 72 %
213 14-11-2019 11:29:17 10 C 72 %
214 14-11-2019 11:39:17 10 C 72 %
215 14-11-2019 11:49:17 10 C 72 %
216 14-11-2019 11:59:17 10 C 72 %
217 14-11-2019 12:09:17 10 C 72 %
218 14-11-2019 12:19:17 10 C 72 %
219 14-11-2019 12:29:17 10 C 72 %
220 14-11-2019 12:39:17 10 C 72 %
221 14-11-2019 12:49:17 9.7 C 71 %
222 14-11-2019 12:59:17 9.6 C 68 %
223 14-11-2019 13:09:17 9.6 C 66 %
224 14-11-2019 13:19:17 9.6 C 65 %
225 14-11-2019 13:29:17 9.6 C 64 %
Sensor: Nr:Datum:Temp:Feuchte:
G-T/H 226 14-11-2019 13:39:17 9.5 C 62 %
227 14-11-2019 13:49:17 9.5 C 62 %
228 14-11-2019 13:59:17 9.6 C 61 %
229 14-11-2019 14:09:17 9.6 C 60 %
230 14-11-2019 14:19:17 9.6 C 60 %
231 14-11-2019 14:29:17 9.6 C 59 %
232 14-11-2019 14:39:17 9.6 C 58 %
233 14-11-2019 14:49:17 9.5 C 58 %
234 14-11-2019 14:59:17 9.5 C 58 %
235 14-11-2019 15:09:17 9.5 C 57 %
236 14-11-2019 15:19:17 9.3 C 57 %
237 14-11-2019 15:29:17 9.2 C 58 %
238 14-11-2019 15:39:17 9.2 C 58 %
239 14-11-2019 15:49:17 8.9 C 60 %
240 14-11-2019 15:59:17 8.8 C 61 %
241 14-11-2019 16:09:17 8.7 C 61 %
242 14-11-2019 16:19:17 8.6 C 61 %
243 14-11-2019 16:29:17 8.4 C 61 %
244 14-11-2019 16:39:17 8 C 61 %
245 14-11-2019 16:49:17 8.2 C 62 %
246 14-11-2019 16:59:17 8.8 C 62 %
247 14-11-2019 17:09:17 8.9 C 62 %
248 14-11-2019 17:19:17 9.2 C 62 %
249 14-11-2019 17:29:17 9.3 C 63 %
250 14-11-2019 17:39:17 9.4 C 63 %
Sensor: Nr:Datum:Temp:Feuchte:
G-T/H 251 14-11-2019 17:49:17 9.5 C 64 %
252 14-11-2019 17:59:17 9.5 C 64 %
253 14-11-2019 18:09:17 9.5 C 64 %
254 14-11-2019 18:19:17 9.6 C 65 %
255 14-11-2019 18:29:17 9.6 C 65 %
256 14-11-2019 18:39:17 9.6 C 65 %
257 14-11-2019 18:49:17 9.7 C 66 %
258 14-11-2019 18:59:17 9.7 C 66 %
259 14-11-2019 19:09:17 9.7 C 66 %
260 14-11-2019 19:19:17 9.7 C 66 %
261 14-11-2019 19:29:17 9.7 C 67 %
262 14-11-2019 19:39:17 9.7 C 67 %
263 14-11-2019 19:49:17 9.7 C 67 %
264 14-11-2019 19:59:18 9.8 C 67 %
265 14-11-2019 20:09:17 9.8 C 67 %
266 14-11-2019 20:19:17 9.8 C 67 %
267 14-11-2019 20:29:17 9.8 C 67 %
268 14-11-2019 20:39:17 9.8 C 67 %
269 14-11-2019 20:49:17 9.8 C 68 %
270 14-11-2019 20:59:17 9.8 C 68 %
271 14-11-2019 21:09:17 9.8 C 68 %
272 14-11-2019 21:19:17 9.8 C 68 %
273 14-11-2019 21:29:17 9.8 C 68 %
274 14-11-2019 21:39:17 9.8 C 68 %
275 14-11-2019 21:49:17 9.8 C 68 %
Sensor: Nr:Datum:Temp:Feuchte:
G-T/H 276 14-11-2019 21:59:17 9.8 C 68 %
277 14-11-2019 22:09:17 9.7 C 68 %
278 14-11-2019 22:19:17 9.7 C 68 %
279 14-11-2019 22:29:17 9.7 C 68 %
280 14-11-2019 22:39:17 9.7 C 68 %
281 14-11-2019 22:49:17 9.7 C 68 %
282 14-11-2019 22:59:17 9.7 C 68 %
283 14-11-2019 23:09:17 9.7 C 69 %
284 14-11-2019 23:19:17 9.7 C 69 %
285 14-11-2019 23:29:17 9.7 C 69 %
286 14-11-2019 23:39:17 9.7 C 69 %
287 14-11-2019 23:49:17 9.7 C 69 %
288 14-11-2019 23:59:17 9.7 C 69 %
289 15-11-2019 00:09:17 9.7 C 69 %
290 15-11-2019 00:19:17 9.7 C 69 %
291 15-11-2019 00:29:17 9.7 C 69 %
292 15-11-2019 00:39:17 9.7 C 69 %
293 15-11-2019 00:49:17 9.7 C 69 %
294 15-11-2019 00:59:17 9.7 C 69 %
295 15-11-2019 01:09:17 9.7 C 69 %
296 15-11-2019 01:19:17 9.7 C 69 %
297 15-11-2019 01:29:17 9.7 C 69 %
298 15-11-2019 01:39:17 9.6 C 69 %
299 15-11-2019 01:49:17 9.6 C 69 %
300 15-11-2019 01:59:17 9.6 C 69 %
Sensor: Nr:Datum:Temp:Feuchte:
G-T/H 301 15-11-2019 02:09:17 9.6 C 69 %
302 15-11-2019 02:19:17 9.6 C 69 %
303 15-11-2019 02:29:17 9.6 C 69 %
304 15-11-2019 02:39:17 9.6 C 69 %
305 15-11-2019 02:49:17 9.6 C 69 %
306 15-11-2019 02:59:17 9.6 C 70 %
307 15-11-2019 03:09:17 9.6 C 70 %
308 15-11-2019 03:19:17 9.6 C 70 %
309 15-11-2019 03:29:17 9.6 C 70 %
310 15-11-2019 03:39:17 9.6 C 70 %
311 15-11-2019 03:49:17 9.6 C 70 %
312 15-11-2019 03:59:17 9.6 C 70 %
313 15-11-2019 04:09:17 9.6 C 70 %
314 15-11-2019 04:19:17 9.6 C 70 %
315 15-11-2019 04:29:17 9.6 C 70 %
316 15-11-2019 04:39:17 9.6 C 70 %
317 15-11-2019 04:49:17 9.6 C 70 %
318 15-11-2019 04:59:17 9.6 C 70 %
319 15-11-2019 05:09:17 9.5 C 70 %
320 15-11-2019 05:19:17 9.5 C 70 %
321 15-11-2019 05:29:17 9.5 C 70 %
322 15-11-2019 05:39:17 9.5 C 70 %
323 15-11-2019 05:49:17 9.5 C 70 %
324 15-11-2019 05:59:17 9.5 C 70 %
325 15-11-2019 06:09:17 9.5 C 70 %
Sensor: Nr:Datum:Temp:Feuchte:
G-T/H 326 15-11-2019 06:19:17 9.5 C 70 %
327 15-11-2019 06:29:17 9.5 C 70 %
328 15-11-2019 06:39:17 9.5 C 70 %
329 15-11-2019 06:49:17 9.5 C 70 %
330 15-11-2019 06:59:17 9.5 C 70 %
331 15-11-2019 07:09:17 9.5 C 70 %
332 15-11-2019 07:19:17 9.5 C 70 %
333 15-11-2019 07:29:17 9.5 C 70 %
334 15-11-2019 07:39:17 9.5 C 70 %
335 15-11-2019 07:49:17 9.5 C 70 %
336 15-11-2019 07:59:17 9.4 C 70 %
337 15-11-2019 08:09:17 9.4 C 70 %
338 15-11-2019 08:19:17 9.4 C 70 %
339 15-11-2019 08:29:17 9.4 C 70 %
340 15-11-2019 08:39:17 9.4 C 70 %
341 15-11-2019 08:49:17 9.5 C 70 %
342 15-11-2019 08:59:17 9.4 C 70 %
343 15-11-2019 09:09:17 9.4 C 70 %
344 15-11-2019 09:19:17 9.4 C 70 %
345 15-11-2019 09:29:17 9.4 C 70 %
346 15-11-2019 09:39:17 9.4 C 70 %
347 15-11-2019 09:49:17 9.4 C 70 %
348 15-11-2019 09:59:17 9.4 C 70 %
349 15-11-2019 10:09:17 9.4 C 70 %
350 15-11-2019 10:19:17 9.4 C 70 %
Sensor: Nr:Datum:Temp:Feuchte:
G-T/H 351 15-11-2019 10:29:17 9.4 C 70 %
352 15-11-2019 10:39:17 9.4 C 70 %
353 15-11-2019 10:49:17 9.4 C 70 %
354 15-11-2019 10:59:17 9.4 C 70 %
355 15-11-2019 11:09:17 9.4 C 70 %
356 15-11-2019 11:19:17 9.4 C 70 %
357 15-11-2019 11:29:17 9.4 C 70 %
358 15-11-2019 11:39:17 9.4 C 70 %
359 15-11-2019 11:49:17 9.4 C 70 %
360 15-11-2019 11:59:17 9.5 C 70 %
361 15-11-2019 12:09:17 9.5 C 70 %
362 15-11-2019 12:19:17 9.5 C 71 %
363 15-11-2019 12:29:17 9.5 C 71 %
364 15-11-2019 12:39:17 9.5 C 71 %
365 15-11-2019 12:49:17 9.5 C 71 %
366 15-11-2019 12:59:17 9.5 C 71 %
367 15-11-2019 13:09:17 9.5 C 71 %
368 15-11-2019 13:19:17 9.5 C 71 %
369 15-11-2019 13:29:17 9.5 C 71 %
370 15-11-2019 13:39:17 9.5 C 71 %
371 15-11-2019 13:49:17 9.6 C 71 %
372 15-11-2019 13:59:17 9.5 C 71 %
373 15-11-2019 14:09:17 9.5 C 71 %
374 15-11-2019 14:19:17 9.6 C 71 %
375 15-11-2019 14:29:17 9.6 C 71 %
Sensor: Nr:Datum:Temp:Feuchte:
G-T/H 376 15-11-2019 14:39:17 9.6 C 71 %
377 15-11-2019 14:49:17 9.6 C 71 %
378 15-11-2019 14:59:17 9.6 C 71 %
379 15-11-2019 15:09:17 9.6 C 71 %
380 15-11-2019 15:19:17 9.3 C 69 %
381 15-11-2019 15:29:17 9.3 C 67 %
382 15-11-2019 15:39:17 9.6 C 66 %
383 15-11-2019 15:49:17 9.7 C 66 %
384 15-11-2019 15:59:17 9.7 C 67 %
385 15-11-2019 16:09:17 9.8 C 67 %
386 15-11-2019 16:19:17 9.8 C 67 %
387 15-11-2019 16:29:17 9.8 C 68 %
388 15-11-2019 16:39:17 9.9 C 68 %
389 15-11-2019 16:49:17 9.9 C 68 %
390 15-11-2019 16:59:17 10 C 67 %
391 15-11-2019 17:09:17 9.9 C 68 %
392 15-11-2019 17:19:17 9.9 C 68 %
393 15-11-2019 17:29:17 10 C 68 %
394 15-11-2019 17:39:17 10 C 68 %
395 15-11-2019 17:49:17 10 C 68 %
396 15-11-2019 17:59:17 10 C 68 %
397 15-11-2019 18:09:17 10 C 68 %
398 15-11-2019 18:19:17 10 C 68 %
399 15-11-2019 18:29:17 10 C 68 %
400 15-11-2019 18:39:17 10 C 68 %
Sensor: Nr:Datum:Temp:Feuchte:
G-T/H 401 15-11-2019 18:49:17 10 C 68 %
402 15-11-2019 18:59:17 10 C 68 %
403 15-11-2019 19:09:17 10 C 68 %
404 15-11-2019 19:19:17 10 C 68 %
405 15-11-2019 19:29:17 10.1 C 68 %
406 15-11-2019 19:39:17 10 C 69 %
407 15-11-2019 19:49:17 10.1 C 69 %
408 15-11-2019 19:59:17 10.1 C 69 %
409 15-11-2019 20:09:17 10.1 C 69 %
410 15-11-2019 20:19:17 10.1 C 69 %
411 15-11-2019 20:29:17 10.1 C 69 %
412 15-11-2019 20:39:17 10.1 C 69 %
413 15-11-2019 20:49:17 10.1 C 69 %
414 15-11-2019 20:59:17 10.1 C 69 %
415 15-11-2019 21:09:17 10.1 C 69 %
416 15-11-2019 21:19:17 10.1 C 69 %
417 15-11-2019 21:29:17 10.1 C 69 %
418 15-11-2019 21:39:17 10.1 C 69 %
419 15-11-2019 21:49:17 10.1 C 69 %
420 15-11-2019 21:59:17 10.1 C 69 %
421 15-11-2019 22:09:17 10.1 C 69 %
422 15-11-2019 22:19:17 10.1 C 69 %
423 15-11-2019 22:29:17 10 C 69 %
424 15-11-2019 22:39:17 10 C 69 %
425 15-11-2019 22:49:17 10 C 69 %
Sensor: Nr:Datum:Temp:Feuchte:
G-T/H 426 15-11-2019 22:59:17 10 C 69 %
427 15-11-2019 23:09:17 10 C 69 %
428 15-11-2019 23:19:17 10 C 69 %
429 15-11-2019 23:29:17 10 C 69 %
430 15-11-2019 23:39:17 10 C 69 %
431 15-11-2019 23:49:17 10 C 69 %
432 15-11-2019 23:59:17 10 C 69 %
433 16-11-2019 00:09:17 10 C 69 %
434 16-11-2019 00:19:17 10 C 69 %
435 16-11-2019 00:29:17 10 C 69 %
436 16-11-2019 00:39:17 10 C 69 %
437 16-11-2019 00:49:17 10 C 69 %
438 16-11-2019 00:59:17 10 C 69 %
439 16-11-2019 01:09:17 10 C 69 %
440 16-11-2019 01:19:17 10 C 69 %
441 16-11-2019 01:29:17 10 C 69 %
442 16-11-2019 01:39:17 10 C 69 %
443 16-11-2019 01:49:17 10 C 69 %
444 16-11-2019 01:59:17 10 C 69 %
445 16-11-2019 02:09:17 10 C 69 %
446 16-11-2019 02:19:17 10 C 69 %
447 16-11-2019 02:29:17 10 C 69 %
448 16-11-2019 02:39:17 10 C 69 %
449 16-11-2019 02:49:17 10 C 69 %
450 16-11-2019 02:59:17 9.9 C 70 %
Sensor: Nr:Datum:Temp:Feuchte:
G-T/H 451 16-11-2019 03:09:17 10 C 69 %
452 16-11-2019 03:19:17 10 C 69 %
453 16-11-2019 03:29:17 9.9 C 70 %
454 16-11-2019 03:39:18 9.9 C 70 %
455 16-11-2019 03:49:17 10 C 69 %
456 16-11-2019 03:59:17 9.9 C 70 %
457 16-11-2019 04:09:17 9.9 C 70 %
458 16-11-2019 04:19:17 9.9 C 70 %
459 16-11-2019 04:29:17 9.9 C 70 %
460 16-11-2019 04:39:17 9.9 C 70 %
461 16-11-2019 04:49:17 9.9 C 70 %
462 16-11-2019 04:59:17 9.9 C 70 %
463 16-11-2019 05:09:17 9.8 C 69 %
464 16-11-2019 05:19:17 9.8 C 69 %
465 16-11-2019 05:29:17 9.8 C 69 %
466 16-11-2019 05:39:17 9.8 C 69 %
467 16-11-2019 05:49:17 9.8 C 69 %
468 16-11-2019 05:59:17 9.8 C 69 %
469 16-11-2019 06:09:17 9.8 C 69 %
470 16-11-2019 06:19:17 9.8 C 69 %
471 16-11-2019 06:29:17 9.8 C 69 %
472 16-11-2019 06:39:17 9.7 C 69 %
473 16-11-2019 06:49:17 9.7 C 69 %
474 16-11-2019 06:59:17 9.7 C 69 %
475 16-11-2019 07:09:17 9.7 C 69 %
Sensor: Nr:Datum:Temp:Feuchte:
G-T/H 476 16-11-2019 07:19:17 9.7 C 69 %
477 16-11-2019 07:29:17 9.7 C 69 %
478 16-11-2019 07:39:17 9.7 C 69 %
479 16-11-2019 07:49:17 9.7 C 69 %
480 16-11-2019 07:59:17 9.7 C 69 %
481 16-11-2019 08:09:17 9.6 C 69 %
482 16-11-2019 08:19:17 9.6 C 68 %
483 16-11-2019 08:29:17 9.6 C 68 %
484 16-11-2019 08:39:17 9.6 C 68 %
485 16-11-2019 08:49:17 9.6 C 68 %
486 16-11-2019 08:59:17 9.6 C 68 %
487 16-11-2019 09:09:17 9.6 C 68 %
488 16-11-2019 09:19:17 9.6 C 68 %
489 16-11-2019 09:29:17 9.6 C 68 %
490 16-11-2019 09:39:17 9.6 C 68 %
491 16-11-2019 09:49:17 9.6 C 68 %
492 16-11-2019 09:59:17 9.6 C 68 %
493 16-11-2019 10:09:17 9.5 C 68 %
494 16-11-2019 10:19:17 9.5 C 68 %
495 16-11-2019 10:29:17 9.5 C 68 %
496 16-11-2019 10:39:17 9.5 C 68 %
497 16-11-2019 10:49:17 9.5 C 68 %
498 16-11-2019 10:59:17 9.5 C 68 %
499 16-11-2019 11:09:17 9.5 C 68 %
500 16-11-2019 11:19:17 9.5 C 68 %
Sensor: Nr:Datum:Temp:Feuchte:
G-T/H 501 16-11-2019 11:29:17 9.5 C 68 %
502 16-11-2019 11:39:17 9.5 C 68 %
503 16-11-2019 11:49:17 9.5 C 68 %
504 16-11-2019 11:59:17 9.7 C 69 %
505 16-11-2019 12:09:17 9.8 C